<?xml version="1.0" encoding="UTF-8" standalone="no" ?>
<gpx xmlns="http://www.topografix.com/GPX/1/1" xmlns:xsi="http://www.w3.org/2001/XMLSchema-instance" xsi:schemaLocation="http://www.topografix.com/GPX/1/1 http://www.topografix.com/GPX/1/1/gpx.xsd" version="1.1" creator="VisuGPX - https://www.visugpx.com">
  <metadata>
    <name>VTT Autour des Gorges de l\'Aude</name>
    <desc><![CDATA[Départ de Campbonnaure à coté de puivert
Le premier tier la monté et une partie de la descente est en chemin forestier (Parfois des passage difficile et il faut poser le pied. Ensuite super descente dans de magnifique Gorge pour rejoindre la vallée de l\'Aude et les Gorges de la Pierre Lys. Enfin retour de Quillan vers Nébias puis Puivert, belle montée bien connu des amateurs du tour de France (il passe pas la d\'ailleur le 15 juillet 2012)]]></desc>
  </metadata>
  <trk>
    <name><![CDATA[ACTIVE LOG: 10 JUL 2012 08:35]]></name>
    <trkseg>
      <trkpt lat="42.90347" lon="2.0607">
        <ele>502.91</ele>
        <time>2012-07-10T06:37:17Z</time>
      </trkpt>
      <trkpt lat="42.90349" lon="2.0607">
        <ele>502.91</ele>
        <time>2012-07-10T06:37:18Z</time>
      </trkpt>
      <trkpt lat="42.90376" lon="2.06072">
        <ele>505.79</ele>
        <time>2012-07-10T06:37:32Z</time>
      </trkpt>
      <trkpt lat="42.90381" lon="2.06073">
        <ele>506.27</ele>
        <time>2012-07-10T06:37:34Z</time>
      </trkpt>
      <trkpt lat="42.90386" lon="2.06081">
        <ele>507.23</ele>
        <time>2012-07-10T06:37:38Z</time>
      </trkpt>
      <trkpt lat="42.90377" lon="2.06143">
        <ele>509.64</ele>
        <time>2012-07-10T06:37:57Z</time>
      </trkpt>
      <trkpt lat="42.90362" lon="2.06228">
        <ele>510.12</ele>
        <time>2012-07-10T06:38:19Z</time>
      </trkpt>
      <trkpt lat="42.90351" lon="2.06297">
        <ele>511.08</ele>
        <time>2012-07-10T06:38:39Z</time>
      </trkpt>
      <trkpt lat="42.90347" lon="2.06358">
        <ele>512.04</ele>
        <time>2012-07-10T06:38:57Z</time>
      </trkpt>
      <trkpt lat="42.90345" lon="2.06431">
        <ele>513.48</ele>
        <time>2012-07-10T06:39:19Z</time>
      </trkpt>
      <trkpt lat="42.90337" lon="2.06475">
        <ele>516.37</ele>
        <time>2012-07-10T06:39:37Z</time>
      </trkpt>
      <trkpt lat="42.90334" lon="2.06521">
        <ele>519.73</ele>
        <time>2012-07-10T06:39:56Z</time>
      </trkpt>
      <trkpt lat="42.90331" lon="2.06561">
        <ele>522.61</ele>
        <time>2012-07-10T06:40:13Z</time>
      </trkpt>
      <trkpt lat="42.90316" lon="2.06581">
        <ele>525.5</ele>
        <time>2012-07-10T06:40:28Z</time>
      </trkpt>
      <trkpt lat="42.90298" lon="2.06592">
        <ele>528.86</ele>
        <time>2012-07-10T06:40:41Z</time>
      </trkpt>
      <trkpt lat="42.90286" lon="2.06607">
        <ele>532.23</ele>
        <time>2012-07-10T06:40:52Z</time>
      </trkpt>
      <trkpt lat="42.9028" lon="2.0663">
        <ele>535.59</ele>
        <time>2012-07-10T06:41:04Z</time>
      </trkpt>
      <trkpt lat="42.90278" lon="2.06647">
        <ele>538.48</ele>
        <time>2012-07-10T06:41:18Z</time>
      </trkpt>
      <trkpt lat="42.90277" lon="2.06669">
        <ele>541.84</ele>
        <time>2012-07-10T06:41:36Z</time>
      </trkpt>
      <trkpt lat="42.90279" lon="2.06691">
        <ele>544.72</ele>
        <time>2012-07-10T06:41:53Z</time>
      </trkpt>
      <trkpt lat="42.90278" lon="2.06693">
        <ele>544.72</ele>
        <time>2012-07-10T06:41:54Z</time>
      </trkpt>
      <trkpt lat="42.90264" lon="2.06709">
        <ele>548.09</ele>
        <time>2012-07-10T06:42:13Z</time>
      </trkpt>
      <trkpt lat="42.90254" lon="2.0672">
        <ele>550.97</ele>
        <time>2012-07-10T06:42:28Z</time>
      </trkpt>
      <trkpt lat="42.90244" lon="2.06737">
        <ele>553.86</ele>
        <time>2012-07-10T06:42:46Z</time>
      </trkpt>
      <trkpt lat="42.9024" lon="2.06744">
        <ele>555.3</ele>
        <time>2012-07-10T06:42:53Z</time>
      </trkpt>
      <trkpt lat="42.90231" lon="2.06765">
        <ele>558.18</ele>
        <time>2012-07-10T06:43:12Z</time>
      </trkpt>
      <trkpt lat="42.90228" lon="2.06774">
        <ele>559.14</ele>
        <time>2012-07-10T06:43:20Z</time>
      </trkpt>
      <trkpt lat="42.90214" lon="2.06788">
        <ele>562.51</ele>
        <time>2012-07-10T06:43:40Z</time>
      </trkpt>
      <trkpt lat="42.90206" lon="2.0679">
        <ele>563.95</ele>
        <time>2012-07-10T06:43:49Z</time>
      </trkpt>
      <trkpt lat="42.90191" lon="2.06796">
        <ele>566.83</ele>
        <time>2012-07-10T06:44:10Z</time>
      </trkpt>
      <trkpt lat="42.90191" lon="2.06796">
        <ele>567.32</ele>
        <time>2012-07-10T06:44:24Z</time>
      </trkpt>
      <trkpt lat="42.90192" lon="2.06797">
        <ele>567.32</ele>
        <time>2012-07-10T06:44:30Z</time>
      </trkpt>
      <trkpt lat="42.90178" lon="2.06821">
        <ele>570.2</ele>
        <time>2012-07-10T06:44:46Z</time>
      </trkpt>
      <trkpt lat="42.90169" lon="2.06838">
        <ele>573.56</ele>
        <time>2012-07-10T06:44:57Z</time>
      </trkpt>
      <trkpt lat="42.90161" lon="2.06857">
        <ele>576.45</ele>
        <time>2012-07-10T06:45:08Z</time>
      </trkpt>
      <trkpt lat="42.90153" lon="2.06881">
        <ele>579.81</ele>
        <time>2012-07-10T06:45:22Z</time>
      </trkpt>
      <trkpt lat="42.90144" lon="2.06905">
        <ele>582.7</ele>
        <time>2012-07-10T06:45:36Z</time>
      </trkpt>
      <trkpt lat="42.90135" lon="2.06929">
        <ele>585.58</ele>
        <time>2012-07-10T06:45:52Z</time>
      </trkpt>
      <trkpt lat="42.90118" lon="2.06954">
        <ele>588.95</ele>
        <time>2012-07-10T06:46:12Z</time>
      </trkpt>
      <trkpt lat="42.90098" lon="2.06969">
        <ele>592.31</ele>
        <time>2012-07-10T06:46:30Z</time>
      </trkpt>
      <trkpt lat="42.9008" lon="2.06978">
        <ele>595.19</ele>
        <time>2012-07-10T06:46:46Z</time>
      </trkpt>
      <trkpt lat="42.90068" lon="2.06996">
        <ele>598.08</ele>
        <time>2012-07-10T06:47:02Z</time>
      </trkpt>
      <trkpt lat="42.90069" lon="2.07027">
        <ele>600.96</ele>
        <time>2012-07-10T06:47:22Z</time>
      </trkpt>
      <trkpt lat="42.90051" lon="2.07044">
        <ele>604.33</ele>
        <time>2012-07-10T06:47:39Z</time>
      </trkpt>
      <trkpt lat="42.90035" lon="2.07045">
        <ele>607.21</ele>
        <time>2012-07-10T06:47:53Z</time>
      </trkpt>
      <trkpt lat="42.90017" lon="2.07038">
        <ele>610.09</ele>
        <time>2012-07-10T06:48:06Z</time>
      </trkpt>
      <trkpt lat="42.89998" lon="2.07033">
        <ele>613.46</ele>
        <time>2012-07-10T06:48:20Z</time>
      </trkpt>
      <trkpt lat="42.89979" lon="2.07058">
        <ele>614.42</ele>
        <time>2012-07-10T06:48:40Z</time>
      </trkpt>
      <trkpt lat="42.89956" lon="2.07105">
        <ele>613.46</ele>
        <time>2012-07-10T06:49:00Z</time>
      </trkpt>
      <trkpt lat="42.89923" lon="2.07181">
        <ele>611.06</ele>
        <time>2012-07-10T06:49:18Z</time>
      </trkpt>
      <trkpt lat="42.89907" lon="2.07238">
        <ele>608.65</ele>
        <time>2012-07-10T06:49:29Z</time>
      </trkpt>
      <trkpt lat="42.89891" lon="2.07311">
        <ele>606.25</ele>
        <time>2012-07-10T06:49:44Z</time>
      </trkpt>
      <trkpt lat="42.89884" lon="2.07329">
        <ele>606.73</ele>
        <time>2012-07-10T06:49:55Z</time>
      </trkpt>
      <trkpt lat="42.89886" lon="2.07351">
        <ele>609.61</ele>
        <time>2012-07-10T06:50:11Z</time>
      </trkpt>
      <trkpt lat="42.89884" lon="2.07374">
        <ele>612.5</ele>
        <time>2012-07-10T06:50:29Z</time>
      </trkpt>
      <trkpt lat="42.89885" lon="2.07383">
        <ele>613.94</ele>
        <time>2012-07-10T06:50:37Z</time>
      </trkpt>
      <trkpt lat="42.89886" lon="2.07401">
        <ele>615.86</ele>
        <time>2012-07-10T06:50:52Z</time>
      </trkpt>
      <trkpt lat="42.89888" lon="2.07416">
        <ele>617.78</ele>
        <time>2012-07-10T06:51:09Z</time>
      </trkpt>
      <trkpt lat="42.89889" lon="2.07436">
        <ele>618.75</ele>
        <time>2012-07-10T06:51:23Z</time>
      </trkpt>
      <trkpt lat="42.89891" lon="2.07465">
        <ele>620.19</ele>
        <time>2012-07-10T06:51:38Z</time>
      </trkpt>
      <trkpt lat="42.89892" lon="2.07497">
        <ele>621.63</ele>
        <time>2012-07-10T06:51:53Z</time>
      </trkpt>
      <trkpt lat="42.89892" lon="2.07498">
        <ele>622.11</ele>
        <time>2012-07-10T06:51:54Z</time>
      </trkpt>
      <trkpt lat="42.89895" lon="2.07523">
        <ele>623.55</ele>
        <time>2012-07-10T06:52:07Z</time>
      </trkpt>
      <trkpt lat="42.89898" lon="2.07554">
        <ele>625.96</ele>
        <time>2012-07-10T06:52:23Z</time>
      </trkpt>
      <trkpt lat="42.89898" lon="2.07558">
        <ele>625.96</ele>
        <time>2012-07-10T06:52:25Z</time>
      </trkpt>
      <trkpt lat="42.89899" lon="2.07596">
        <ele>628.84</ele>
        <time>2012-07-10T06:52:44Z</time>
      </trkpt>
      <trkpt lat="42.8989" lon="2.07643">
        <ele>630.76</ele>
        <time>2012-07-10T06:53:05Z</time>
      </trkpt>
      <trkpt lat="42.89884" lon="2.07679">
        <ele>633.17</ele>
        <time>2012-07-10T06:53:22Z</time>
      </trkpt>
      <trkpt lat="42.89869" lon="2.07708">
        <ele>636.05</ele>
        <time>2012-07-10T06:53:40Z</time>
      </trkpt>
      <trkpt lat="42.89862" lon="2.07715">
        <ele>637.01</ele>
        <time>2012-07-10T06:53:47Z</time>
      </trkpt>
      <trkpt lat="42.89855" lon="2.07729">
        <ele>638.45</ele>
        <time>2012-07-10T06:54:00Z</time>
      </trkpt>
      <trkpt lat="42.89846" lon="2.07747">
        <ele>640.86</ele>
        <time>2012-07-10T06:54:20Z</time>
      </trkpt>
      <trkpt lat="42.89839" lon="2.07766">
        <ele>642.78</ele>
        <time>2012-07-10T06:54:37Z</time>
      </trkpt>
      <trkpt lat="42.89833" lon="2.07783">
        <ele>645.18</ele>
        <time>2012-07-10T06:54:54Z</time>
      </trkpt>
      <trkpt lat="42.89824" lon="2.07798">
        <ele>648.07</ele>
        <time>2012-07-10T06:55:12Z</time>
      </trkpt>
      <trkpt lat="42.89815" lon="2.07817">
        <ele>650.95</ele>
        <time>2012-07-10T06:55:36Z</time>
      </trkpt>
      <trkpt lat="42.89801" lon="2.07832">
        <ele>654.31</ele>
        <time>2012-07-10T06:55:59Z</time>
      </trkpt>
      <trkpt lat="42.89782" lon="2.07844">
        <ele>657.2</ele>
        <time>2012-07-10T06:56:26Z</time>
      </trkpt>
      <trkpt lat="42.89759" lon="2.07847">
        <ele>660.08</ele>
        <time>2012-07-10T06:56:48Z</time>
      </trkpt>
      <trkpt lat="42.89746" lon="2.07849">
        <ele>662.01</ele>
        <time>2012-07-10T06:57:03Z</time>
      </trkpt>
      <trkpt lat="42.89736" lon="2.07838">
        <ele>662.97</ele>
        <time>2012-07-10T06:57:21Z</time>
      </trkpt>
      <trkpt lat="42.89725" lon="2.07833">
        <ele>663.45</ele>
        <time>2012-07-10T06:57:32Z</time>
      </trkpt>
      <trkpt lat="42.89705" lon="2.07832">
        <ele>664.41</ele>
        <time>2012-07-10T06:57:50Z</time>
      </trkpt>
      <trkpt lat="42.89695" lon="2.07832">
        <ele>665.85</ele>
        <time>2012-07-10T06:58:11Z</time>
      </trkpt>
      <trkpt lat="42.89693" lon="2.07832">
        <ele>666.33</ele>
        <time>2012-07-10T06:58:15Z</time>
      </trkpt>
      <trkpt lat="42.89676" lon="2.07832">
        <ele>668.73</ele>
        <time>2012-07-10T06:58:28Z</time>
      </trkpt>
      <trkpt lat="42.89659" lon="2.07842">
        <ele>672.1</ele>
        <time>2012-07-10T06:58:40Z</time>
      </trkpt>
      <trkpt lat="42.89654" lon="2.07852">
        <ele>674.98</ele>
        <time>2012-07-10T06:58:56Z</time>
      </trkpt>
      <trkpt lat="42.89651" lon="2.0787">
        <ele>677.39</ele>
        <time>2012-07-10T06:59:14Z</time>
      </trkpt>
      <trkpt lat="42.89663" lon="2.07885">
        <ele>680.27</ele>
        <time>2012-07-10T06:59:36Z</time>
      </trkpt>
      <trkpt lat="42.89671" lon="2.07891">
        <ele>681.23</ele>
        <time>2012-07-10T06:59:48Z</time>
      </trkpt>
      <trkpt lat="42.89685" lon="2.07904">
        <ele>684.12</ele>
        <time>2012-07-10T07:00:08Z</time>
      </trkpt>
      <trkpt lat="42.89696" lon="2.07915">
        <ele>687.48</ele>
        <time>2012-07-10T07:00:29Z</time>
      </trkpt>
      <trkpt lat="42.89715" lon="2.07935">
        <ele>689.88</ele>
        <time>2012-07-10T07:00:54Z</time>
      </trkpt>
      <trkpt lat="42.89721" lon="2.07941">
        <ele>690.84</ele>
        <time>2012-07-10T07:01:09Z</time>
      </trkpt>
      <trkpt lat="42.89736" lon="2.07951">
        <ele>691.33</ele>
        <time>2012-07-10T07:01:22Z</time>
      </trkpt>
      <trkpt lat="42.89747" lon="2.07961">
        <ele>691.81</ele>
        <time>2012-07-10T07:01:38Z</time>
      </trkpt>
      <trkpt lat="42.89757" lon="2.07967">
        <ele>692.29</ele>
        <time>2012-07-10T07:01:50Z</time>
      </trkpt>
      <trkpt lat="42.89771" lon="2.07981">
        <ele>692.29</ele>
        <time>2012-07-10T07:02:03Z</time>
      </trkpt>
      <trkpt lat="42.89781" lon="2.07992">
        <ele>692.29</ele>
        <time>2012-07-10T07:02:17Z</time>
      </trkpt>
      <trkpt lat="42.89787" lon="2.08">
        <ele>691.81</ele>
        <time>2012-07-10T07:02:30Z</time>
      </trkpt>
      <trkpt lat="42.89797" lon="2.08033">
        <ele>693.25</ele>
        <time>2012-07-10T07:02:53Z</time>
      </trkpt>
      <trkpt lat="42.89806" lon="2.08056">
        <ele>694.21</ele>
        <time>2012-07-10T07:03:10Z</time>
      </trkpt>
      <trkpt lat="42.89812" lon="2.08071">
        <ele>696.13</ele>
        <time>2012-07-10T07:03:26Z</time>
      </trkpt>
      <trkpt lat="42.89811" lon="2.08077">
        <ele>697.09</ele>
        <time>2012-07-10T07:03:39Z</time>
      </trkpt>
      <trkpt lat="42.89791" lon="2.08044">
        <ele>697.57</ele>
        <time>2012-07-10T07:03:55Z</time>
      </trkpt>
      <trkpt lat="42.89753" lon="2.0799">
        <ele>698.53</ele>
        <time>2012-07-10T07:04:13Z</time>
      </trkpt>
      <trkpt lat="42.89706" lon="2.07963">
        <ele>698.53</ele>
        <time>2012-07-10T07:04:31Z</time>
      </trkpt>
      <trkpt lat="42.89657" lon="2.07959">
        <ele>699.5</ele>
        <time>2012-07-10T07:04:46Z</time>
      </trkpt>
      <trkpt lat="42.89622" lon="2.0795">
        <ele>700.46</ele>
        <time>2012-07-10T07:04:59Z</time>
      </trkpt>
      <trkpt lat="42.89571" lon="2.079">
        <ele>701.42</ele>
        <time>2012-07-10T07:05:18Z</time>
      </trkpt>
      <trkpt lat="42.89543" lon="2.07849">
        <ele>702.38</ele>
        <time>2012-07-10T07:05:34Z</time>
      </trkpt>
      <trkpt lat="42.89574" lon="2.07792">
        <ele>702.38</ele>
        <time>2012-07-10T07:05:50Z</time>
      </trkpt>
      <trkpt lat="42.89589" lon="2.07717">
        <ele>703.34</ele>
        <time>2012-07-10T07:06:09Z</time>
      </trkpt>
      <trkpt lat="42.89593" lon="2.0767">
        <ele>703.34</ele>
        <time>2012-07-10T07:06:21Z</time>
      </trkpt>
      <trkpt lat="42.89591" lon="2.07625">
        <ele>703.82</ele>
        <time>2012-07-10T07:06:33Z</time>
      </trkpt>
      <trkpt lat="42.89559" lon="2.07597">
        <ele>704.78</ele>
        <time>2012-07-10T07:06:48Z</time>
      </trkpt>
      <trkpt lat="42.89521" lon="2.07593">
        <ele>705.26</ele>
        <time>2012-07-10T07:07:01Z</time>
      </trkpt>
      <trkpt lat="42.89487" lon="2.0759">
        <ele>706.23</ele>
        <time>2012-07-10T07:07:13Z</time>
      </trkpt>
      <trkpt lat="42.8948" lon="2.07587">
        <ele>706.23</ele>
        <time>2012-07-10T07:07:15Z</time>
      </trkpt>
      <trkpt lat="42.89474" lon="2.07571">
        <ele>706.71</ele>
        <time>2012-07-10T07:07:20Z</time>
      </trkpt>
      <trkpt lat="42.89507" lon="2.07506">
        <ele>705.75</ele>
        <time>2012-07-10T07:07:37Z</time>
      </trkpt>
      <trkpt lat="42.89502" lon="2.07461">
        <ele>705.26</ele>
        <time>2012-07-10T07:07:47Z</time>
      </trkpt>
      <trkpt lat="42.89486" lon="2.07433">
        <ele>705.26</ele>
        <time>2012-07-10T07:07:53Z</time>
      </trkpt>
      <trkpt lat="42.89472" lon="2.07417">
        <ele>704.78</ele>
        <time>2012-07-10T07:07:57Z</time>
      </trkpt>
      <trkpt lat="42.89461" lon="2.07405">
        <ele>704.78</ele>
        <time>2012-07-10T07:08:00Z</time>
      </trkpt>
      <trkpt lat="42.89451" lon="2.07372">
        <ele>704.3</ele>
        <time>2012-07-10T07:08:06Z</time>
      </trkpt>
      <trkpt lat="42.8948" lon="2.07304">
        <ele>705.75</ele>
        <time>2012-07-10T07:08:23Z</time>
      </trkpt>
      <trkpt lat="42.89518" lon="2.07246">
        <ele>705.75</ele>
        <time>2012-07-10T07:08:41Z</time>
      </trkpt>
      <trkpt lat="42.8952" lon="2.0719">
        <ele>706.71</ele>
        <time>2012-07-10T07:08:54Z</time>
      </trkpt>
      <trkpt lat="42.89518" lon="2.07131">
        <ele>707.19</ele>
        <time>2012-07-10T07:09:07Z</time>
      </trkpt>
      <trkpt lat="42.89513" lon="2.07072">
        <ele>708.15</ele>
        <time>2012-07-10T07:09:20Z</time>
      </trkpt>
      <trkpt lat="42.89511" lon="2.07019">
        <ele>708.15</ele>
        <time>2012-07-10T07:09:31Z</time>
      </trkpt>
      <trkpt lat="42.89502" lon="2.0697">
        <ele>708.63</ele>
        <time>2012-07-10T07:09:43Z</time>
      </trkpt>
      <trkpt lat="42.8949" lon="2.06913">
        <ele>709.59</ele>
        <time>2012-07-10T07:09:55Z</time>
      </trkpt>
      <trkpt lat="42.89481" lon="2.06846">
        <ele>710.55</ele>
        <time>2012-07-10T07:10:10Z</time>
      </trkpt>
      <trkpt lat="42.89455" lon="2.06793">
        <ele>711.03</ele>
        <time>2012-07-10T07:10:23Z</time>
      </trkpt>
      <trkpt lat="42.89411" lon="2.06779">
        <ele>711.99</ele>
        <time>2012-07-10T07:10:37Z</time>
      </trkpt>
      <trkpt lat="42.89391" lon="2.06752">
        <ele>711.99</ele>
        <time>2012-07-10T07:10:46Z</time>
      </trkpt>
      <trkpt lat="42.89371" lon="2.06691">
        <ele>712.47</ele>
        <time>2012-07-10T07:11:01Z</time>
      </trkpt>
      <trkpt lat="42.89332" lon="2.06631">
        <ele>713.92</ele>
        <time>2012-07-10T07:11:18Z</time>
      </trkpt>
      <trkpt lat="42.89307" lon="2.06584">
        <ele>714.4</ele>
        <time>2012-07-10T07:11:30Z</time>
      </trkpt>
      <trkpt lat="42.8931" lon="2.06551">
        <ele>714.4</ele>
        <time>2012-07-10T07:11:36Z</time>
      </trkpt>
      <trkpt lat="42.8932" lon="2.06492">
        <ele>713.92</ele>
        <time>2012-07-10T07:11:48Z</time>
      </trkpt>
      <trkpt lat="42.89309" lon="2.0644">
        <ele>713.44</ele>
        <time>2012-07-10T07:11:58Z</time>
      </trkpt>
      <trkpt lat="42.89291" lon="2.06387">
        <ele>712.95</ele>
        <time>2012-07-10T07:12:08Z</time>
      </trkpt>
      <trkpt lat="42.89282" lon="2.06343">
        <ele>712.95</ele>
        <time>2012-07-10T07:12:16Z</time>
      </trkpt>
      <trkpt lat="42.89256" lon="2.06244">
        <ele>712.95</ele>
        <time>2012-07-10T07:12:34Z</time>
      </trkpt>
      <trkpt lat="42.89248" lon="2.06255">
        <ele>714.4</ele>
        <time>2012-07-10T07:12:43Z</time>
      </trkpt>
      <trkpt lat="42.89262" lon="2.06289">
        <ele>717.76</ele>
        <time>2012-07-10T07:12:59Z</time>
      </trkpt>
      <trkpt lat="42.8927" lon="2.06348">
        <ele>720.16</ele>
        <time>2012-07-10T07:13:19Z</time>
      </trkpt>
      <trkpt lat="42.89279" lon="2.06401">
        <ele>723.05</ele>
        <time>2012-07-10T07:13:36Z</time>
      </trkpt>
      <trkpt lat="42.89288" lon="2.06465">
        <ele>726.41</ele>
        <time>2012-07-10T07:13:57Z</time>
      </trkpt>
      <trkpt lat="42.89289" lon="2.06507">
        <ele>729.78</ele>
        <time>2012-07-10T07:14:13Z</time>
      </trkpt>
      <trkpt lat="42.8928" lon="2.06547">
        <ele>732.66</ele>
        <time>2012-07-10T07:14:30Z</time>
      </trkpt>
      <trkpt lat="42.8927" lon="2.06587">
        <ele>735.07</ele>
        <time>2012-07-10T07:14:48Z</time>
      </trkpt>
      <trkpt lat="42.89291" lon="2.06642">
        <ele>738.43</ele>
        <time>2012-07-10T07:15:11Z</time>
      </trkpt>
      <trkpt lat="42.89307" lon="2.06684">
        <ele>740.83</ele>
        <time>2012-07-10T07:15:30Z</time>
      </trkpt>
      <trkpt lat="42.89319" lon="2.06729">
        <ele>743.72</ele>
        <time>2012-07-10T07:15:50Z</time>
      </trkpt>
      <trkpt lat="42.89331" lon="2.06783">
        <ele>747.08</ele>
        <time>2012-07-10T07:16:13Z</time>
      </trkpt>
      <trkpt lat="42.89342" lon="2.06832">
        <ele>749.97</ele>
        <time>2012-07-10T07:16:35Z</time>
      </trkpt>
      <trkpt lat="42.89358" lon="2.06865">
        <ele>752.37</ele>
        <time>2012-07-10T07:16:54Z</time>
      </trkpt>
      <trkpt lat="42.8939" lon="2.06911">
        <ele>754.77</ele>
        <time>2012-07-10T07:17:19Z</time>
      </trkpt>
      <trkpt lat="42.89398" lon="2.06955">
        <ele>758.14</ele>
        <time>2012-07-10T07:17:38Z</time>
      </trkpt>
      <trkpt lat="42.89399" lon="2.06962">
        <ele>758.62</ele>
        <time>2012-07-10T07:17:41Z</time>
      </trkpt>
      <trkpt lat="42.89401" lon="2.06974">
        <ele>759.58</ele>
        <time>2012-07-10T07:17:47Z</time>
      </trkpt>
      <trkpt lat="42.89404" lon="2.07028">
        <ele>761.98</ele>
        <time>2012-07-10T07:18:09Z</time>
      </trkpt>
      <trkpt lat="42.89401" lon="2.07087">
        <ele>765.35</ele>
        <time>2012-07-10T07:18:34Z</time>
      </trkpt>
      <trkpt lat="42.89394" lon="2.0714">
        <ele>768.23</ele>
        <time>2012-07-10T07:18:57Z</time>
      </trkpt>
      <trkpt lat="42.89384" lon="2.07183">
        <ele>771.11</ele>
        <time>2012-07-10T07:19:16Z</time>
      </trkpt>
      <trkpt lat="42.89376" lon="2.07209">
        <ele>772.56</ele>
        <time>2012-07-10T07:19:28Z</time>
      </trkpt>
      <trkpt lat="42.89358" lon="2.07236">
        <ele>774.48</ele>
        <time>2012-07-10T07:19:44Z</time>
      </trkpt>
      <trkpt lat="42.89327" lon="2.07256">
        <ele>777.84</ele>
        <time>2012-07-10T07:20:06Z</time>
      </trkpt>
      <trkpt lat="42.89304" lon="2.07284">
        <ele>779.77</ele>
        <time>2012-07-10T07:20:25Z</time>
      </trkpt>
      <trkpt lat="42.89288" lon="2.07325">
        <ele>782.17</ele>
        <time>2012-07-10T07:20:45Z</time>
      </trkpt>
      <trkpt lat="42.89271" lon="2.07372">
        <ele>785.05</ele>
        <time>2012-07-10T07:21:07Z</time>
      </trkpt>
      <trkpt lat="42.89259" lon="2.07413">
        <ele>787.46</ele>
        <time>2012-07-10T07:21:26Z</time>
      </trkpt>
      <trkpt lat="42.89245" lon="2.07454">
        <ele>791.3</ele>
        <time>2012-07-10T07:21:45Z</time>
      </trkpt>
      <trkpt lat="42.89244" lon="2.07488">
        <ele>794.19</ele>
        <time>2012-07-10T07:22:00Z</time>
      </trkpt>
      <trkpt lat="42.89254" lon="2.07519">
        <ele>797.07</ele>
        <time>2012-07-10T07:22:15Z</time>
      </trkpt>
      <trkpt lat="42.89259" lon="2.07549">
        <ele>800.44</ele>
        <time>2012-07-10T07:22:27Z</time>
      </trkpt>
      <trkpt lat="42.89257" lon="2.07578">
        <ele>803.32</ele>
        <time>2012-07-10T07:22:39Z</time>
      </trkpt>
      <trkpt lat="42.89249" lon="2.07611">
        <ele>806.2</ele>
        <time>2012-07-10T07:22:55Z</time>
      </trkpt>
      <trkpt lat="42.89236" lon="2.07641">
        <ele>809.57</ele>
        <time>2012-07-10T07:23:12Z</time>
      </trkpt>
      <trkpt lat="42.89221" lon="2.07671">
        <ele>812.45</ele>
        <time>2012-07-10T07:23:31Z</time>
      </trkpt>
      <trkpt lat="42.8922" lon="2.07696">
        <ele>815.82</ele>
        <time>2012-07-10T07:23:45Z</time>
      </trkpt>
      <trkpt lat="42.89222" lon="2.07731">
        <ele>818.7</ele>
        <time>2012-07-10T07:24:04Z</time>
      </trkpt>
      <trkpt lat="42.89237" lon="2.07753">
        <ele>821.1</ele>
        <time>2012-07-10T07:24:20Z</time>
      </trkpt>
      <trkpt lat="42.89256" lon="2.0778">
        <ele>824.47</ele>
        <time>2012-07-10T07:24:37Z</time>
      </trkpt>
      <trkpt lat="42.8927" lon="2.07809">
        <ele>827.35</ele>
        <time>2012-07-10T07:24:53Z</time>
      </trkpt>
      <trkpt lat="42.89273" lon="2.07842">
        <ele>830.72</ele>
        <time>2012-07-10T07:25:08Z</time>
      </trkpt>
      <trkpt lat="42.89266" lon="2.07877">
        <ele>834.08</ele>
        <time>2012-07-10T07:25:24Z</time>
      </trkpt>
      <trkpt lat="42.89258" lon="2.07916">
        <ele>836.96</ele>
        <time>2012-07-10T07:25:41Z</time>
      </trkpt>
      <trkpt lat="42.89249" lon="2.0795">
        <ele>840.33</ele>
        <time>2012-07-10T07:25:57Z</time>
      </trkpt>
      <trkpt lat="42.89241" lon="2.0798">
        <ele>843.21</ele>
        <time>2012-07-10T07:26:12Z</time>
      </trkpt>
      <trkpt lat="42.89235" lon="2.08013">
        <ele>846.58</ele>
        <time>2012-07-10T07:26:28Z</time>
      </trkpt>
      <trkpt lat="42.89228" lon="2.08048">
        <ele>849.94</ele>
        <time>2012-07-10T07:26:45Z</time>
      </trkpt>
      <trkpt lat="42.89217" lon="2.08083">
        <ele>852.35</ele>
        <time>2012-07-10T07:27:03Z</time>
      </trkpt>
      <trkpt lat="42.89213" lon="2.08089">
        <ele>853.31</ele>
        <time>2012-07-10T07:27:07Z</time>
      </trkpt>
      <trkpt lat="42.89211" lon="2.081">
        <ele>854.75</ele>
        <time>2012-07-10T07:27:25Z</time>
      </trkpt>
      <trkpt lat="42.89211" lon="2.08102">
        <ele>854.27</ele>
        <time>2012-07-10T07:28:23Z</time>
      </trkpt>
      <trkpt lat="42.892" lon="2.08127">
        <ele>856.67</ele>
        <time>2012-07-10T07:28:41Z</time>
      </trkpt>
      <trkpt lat="42.89186" lon="2.08149">
        <ele>859.56</ele>
        <time>2012-07-10T07:29:02Z</time>
      </trkpt>
      <trkpt lat="42.89176" lon="2.08168">
        <ele>861.48</ele>
        <time>2012-07-10T07:29:20Z</time>
      </trkpt>
      <trkpt lat="42.89162" lon="2.0819">
        <ele>863.88</ele>
        <time>2012-07-10T07:29:41Z</time>
      </trkpt>
      <trkpt lat="42.89148" lon="2.08207">
        <ele>866.77</ele>
        <time>2012-07-10T07:30:01Z</time>
      </trkpt>
      <trkpt lat="42.89133" lon="2.08232">
        <ele>870.13</ele>
        <time>2012-07-10T07:30:27Z</time>
      </trkpt>
      <trkpt lat="42.89122" lon="2.08252">
        <ele>872.05</ele>
        <time>2012-07-10T07:30:47Z</time>
      </trkpt>
      <trkpt lat="42.8911" lon="2.08281">
        <ele>874.46</ele>
        <time>2012-07-10T07:31:12Z</time>
      </trkpt>
      <trkpt lat="42.89106" lon="2.08301">
        <ele>875.42</ele>
        <time>2012-07-10T07:31:27Z</time>
      </trkpt>
      <trkpt lat="42.89096" lon="2.08317">
        <ele>875.9</ele>
        <time>2012-07-10T07:31:43Z</time>
      </trkpt>
      <trkpt lat="42.89084" lon="2.08311">
        <ele>878.78</ele>
        <time>2012-07-10T07:31:59Z</time>
      </trkpt>
      <trkpt lat="42.89079" lon="2.08293">
        <ele>882.15</ele>
        <time>2012-07-10T07:32:17Z</time>
      </trkpt>
      <trkpt lat="42.89075" lon="2.08272">
        <ele>884.55</ele>
        <time>2012-07-10T07:32:37Z</time>
      </trkpt>
      <trkpt lat="42.89069" lon="2.08254">
        <ele>887.91</ele>
        <time>2012-07-10T07:32:57Z</time>
      </trkpt>
      <trkpt lat="42.89068" lon="2.08227">
        <ele>890.32</ele>
        <time>2012-07-10T07:33:20Z</time>
      </trkpt>
      <trkpt lat="42.89068" lon="2.08202">
        <ele>893.2</ele>
        <time>2012-07-10T07:33:43Z</time>
      </trkpt>
      <trkpt lat="42.8907" lon="2.08183">
        <ele>894.64</ele>
        <time>2012-07-10T07:33:59Z</time>
      </trkpt>
      <trkpt lat="42.8908" lon="2.08145">
        <ele>896.09</ele>
        <time>2012-07-10T07:34:27Z</time>
      </trkpt>
      <trkpt lat="42.89086" lon="2.08118">
        <ele>896.57</ele>
        <time>2012-07-10T07:34:46Z</time>
      </trkpt>
      <trkpt lat="42.89092" lon="2.08092">
        <ele>897.53</ele>
        <time>2012-07-10T07:35:06Z</time>
      </trkpt>
      <trkpt lat="42.89097" lon="2.08066">
        <ele>898.49</ele>
        <time>2012-07-10T07:35:27Z</time>
      </trkpt>
      <trkpt lat="42.89102" lon="2.08034">
        <ele>898.49</ele>
        <time>2012-07-10T07:35:48Z</time>
      </trkpt>
      <trkpt lat="42.89093" lon="2.08004">
        <ele>898.97</ele>
        <time>2012-07-10T07:36:09Z</time>
      </trkpt>
      <trkpt lat="42.8909" lon="2.07996">
        <ele>899.93</ele>
        <time>2012-07-10T07:36:24Z</time>
      </trkpt>
      <trkpt lat="42.89095" lon="2.07965">
        <ele>898.97</ele>
        <time>2012-07-10T07:36:38Z</time>
      </trkpt>
      <trkpt lat="42.89083" lon="2.07954">
        <ele>900.41</ele>
        <time>2012-07-10T07:36:51Z</time>
      </trkpt>
      <trkpt lat="42.89072" lon="2.07939">
        <ele>903.3</ele>
        <time>2012-07-10T07:37:12Z</time>
      </trkpt>
      <trkpt lat="42.8906" lon="2.07924">
        <ele>906.18</ele>
        <time>2012-07-10T07:37:28Z</time>
      </trkpt>
      <trkpt lat="42.89048" lon="2.07912">
        <ele>909.06</ele>
        <time>2012-07-10T07:37:48Z</time>
      </trkpt>
      <trkpt lat="42.89043" lon="2.07894">
        <ele>912.43</ele>
        <time>2012-07-10T07:38:12Z</time>
      </trkpt>
      <trkpt lat="42.89037" lon="2.07875">
        <ele>915.31</ele>
        <time>2012-07-10T07:38:34Z</time>
      </trkpt>
      <trkpt lat="42.89027" lon="2.07861">
        <ele>918.68</ele>
        <time>2012-07-10T07:38:56Z</time>
      </trkpt>
      <trkpt lat="42.89019" lon="2.07844">
        <ele>921.56</ele>
        <time>2012-07-10T07:39:19Z</time>
      </trkpt>
      <trkpt lat="42.89009" lon="2.07832">
        <ele>924.93</ele>
        <time>2012-07-10T07:39:43Z</time>
      </trkpt>
      <trkpt lat="42.89004" lon="2.07824">
        <ele>927.81</ele>
        <time>2012-07-10T07:40:02Z</time>
      </trkpt>
      <trkpt lat="42.88997" lon="2.07806">
        <ele>931.17</ele>
        <time>2012-07-10T07:40:26Z</time>
      </trkpt>
      <trkpt lat="42.88991" lon="2.07789">
        <ele>934.06</ele>
        <time>2012-07-10T07:40:46Z</time>
      </trkpt>
      <trkpt lat="42.88983" lon="2.07779">
        <ele>937.42</ele>
        <time>2012-07-10T07:41:07Z</time>
      </trkpt>
      <trkpt lat="42.88975" lon="2.07766">
        <ele>940.31</ele>
        <time>2012-07-10T07:41:27Z</time>
      </trkpt>
      <trkpt lat="42.88966" lon="2.07742">
        <ele>943.67</ele>
        <time>2012-07-10T07:41:49Z</time>
      </trkpt>
      <trkpt lat="42.88959" lon="2.07728">
        <ele>946.56</ele>
        <time>2012-07-10T07:42:09Z</time>
      </trkpt>
      <trkpt lat="42.8895" lon="2.07704">
        <ele>949.44</ele>
        <time>2012-07-10T07:42:31Z</time>
      </trkpt>
      <trkpt lat="42.88942" lon="2.07692">
        <ele>952.32</ele>
        <time>2012-07-10T07:42:51Z</time>
      </trkpt>
      <trkpt lat="42.88937" lon="2.07683">
        <ele>955.69</ele>
        <time>2012-07-10T07:43:07Z</time>
      </trkpt>
      <trkpt lat="42.88932" lon="2.07661">
        <ele>958.57</ele>
        <time>2012-07-10T07:43:30Z</time>
      </trkpt>
      <trkpt lat="42.88921" lon="2.07638">
        <ele>961.94</ele>
        <time>2012-07-10T07:43:56Z</time>
      </trkpt>
      <trkpt lat="42.88913" lon="2.07613">
        <ele>964.82</ele>
        <time>2012-07-10T07:44:21Z</time>
      </trkpt>
      <trkpt lat="42.88903" lon="2.07588">
        <ele>968.18</ele>
        <time>2012-07-10T07:44:49Z</time>
      </trkpt>
      <trkpt lat="42.88895" lon="2.07572">
        <ele>971.55</ele>
        <time>2012-07-10T07:45:11Z</time>
      </trkpt>
      <trkpt lat="42.88886" lon="2.07565">
        <ele>972.03</ele>
        <time>2012-07-10T07:45:26Z</time>
      </trkpt>
      <trkpt lat="42.88868" lon="2.07551">
        <ele>972.99</ele>
        <time>2012-07-10T07:45:42Z</time>
      </trkpt>
      <trkpt lat="42.88846" lon="2.07562">
        <ele>973.95</ele>
        <time>2012-07-10T07:46:00Z</time>
      </trkpt>
      <trkpt lat="42.88843" lon="2.07563">
        <ele>973.95</ele>
        <time>2012-07-10T07:46:02Z</time>
      </trkpt>
      <trkpt lat="42.88824" lon="2.07573">
        <ele>974.91</ele>
        <time>2012-07-10T07:46:17Z</time>
      </trkpt>
      <trkpt lat="42.88816" lon="2.07579">
        <ele>974.43</ele>
        <time>2012-07-10T07:46:21Z</time>
      </trkpt>
      <trkpt lat="42.88793" lon="2.07587">
        <ele>974.91</ele>
        <time>2012-07-10T07:46:35Z</time>
      </trkpt>
      <trkpt lat="42.88782" lon="2.07585">
        <ele>975.88</ele>
        <time>2012-07-10T07:46:42Z</time>
      </trkpt>
      <trkpt lat="42.88772" lon="2.07585">
        <ele>976.36</ele>
        <time>2012-07-10T07:46:49Z</time>
      </trkpt>
      <trkpt lat="42.88741" lon="2.07583">
        <ele>977.32</ele>
        <time>2012-07-10T07:47:07Z</time>
      </trkpt>
      <trkpt lat="42.88717" lon="2.0758">
        <ele>978.28</ele>
        <time>2012-07-10T07:47:22Z</time>
      </trkpt>
      <trkpt lat="42.88715" lon="2.07579">
        <ele>978.76</ele>
        <time>2012-07-10T07:47:23Z</time>
      </trkpt>
      <trkpt lat="42.88689" lon="2.0757">
        <ele>978.76</ele>
        <time>2012-07-10T07:47:40Z</time>
      </trkpt>
      <trkpt lat="42.88681" lon="2.07571">
        <ele>978.76</ele>
        <time>2012-07-10T07:47:52Z</time>
      </trkpt>
      <trkpt lat="42.88666" lon="2.07564">
        <ele>978.76</ele>
        <time>2012-07-10T07:48:11Z</time>
      </trkpt>
      <trkpt lat="42.88653" lon="2.07562">
        <ele>978.76</ele>
        <time>2012-07-10T07:48:28Z</time>
      </trkpt>
      <trkpt lat="42.88645" lon="2.07556">
        <ele>980.2</ele>
        <time>2012-07-10T07:48:40Z</time>
      </trkpt>
      <trkpt lat="42.88641" lon="2.07559">
        <ele>980.2</ele>
        <time>2012-07-10T07:49:00Z</time>
      </trkpt>
      <trkpt lat="42.88631" lon="2.07556">
        <ele>981.16</ele>
        <time>2012-07-10T07:49:16Z</time>
      </trkpt>
      <trkpt lat="42.88613" lon="2.07544">
        <ele>983.57</ele>
        <time>2012-07-10T07:49:30Z</time>
      </trkpt>
      <trkpt lat="42.88608" lon="2.07534">
        <ele>984.05</ele>
        <time>2012-07-10T07:49:40Z</time>
      </trkpt>
      <trkpt lat="42.88605" lon="2.07522">
        <ele>985.49</ele>
        <time>2012-07-10T07:49:54Z</time>
      </trkpt>
      <trkpt lat="42.88605" lon="2.07523">
        <ele>985.49</ele>
        <time>2012-07-10T07:50:05Z</time>
      </trkpt>
      <trkpt lat="42.88587" lon="2.07512">
        <ele>988.37</ele>
        <time>2012-07-10T07:50:18Z</time>
      </trkpt>
      <trkpt lat="42.88574" lon="2.07492">
        <ele>990.78</ele>
        <time>2012-07-10T07:50:31Z</time>
      </trkpt>
      <trkpt lat="42.88574" lon="2.07481">
        <ele>991.26</ele>
        <time>2012-07-10T07:50:36Z</time>
      </trkpt>
      <trkpt lat="42.88591" lon="2.07471">
        <ele>992.7</ele>
        <time>2012-07-10T07:50:49Z</time>
      </trkpt>
      <trkpt lat="42.88593" lon="2.07456">
        <ele>993.66</ele>
        <time>2012-07-10T07:50:56Z</time>
      </trkpt>
      <trkpt lat="42.88584" lon="2.07421">
        <ele>996.06</ele>
        <time>2012-07-10T07:51:13Z</time>
      </trkpt>
      <trkpt lat="42.88576" lon="2.07388">
        <ele>998.47</ele>
        <time>2012-07-10T07:51:29Z</time>
      </trkpt>
      <trkpt lat="42.88559" lon="2.07358">
        <ele>1000.87</ele>
        <time>2012-07-10T07:51:46Z</time>
      </trkpt>
      <trkpt lat="42.88535" lon="2.07345">
        <ele>1002.31</ele>
        <time>2012-07-10T07:52:01Z</time>
      </trkpt>
      <trkpt lat="42.88512" lon="2.07364">
        <ele>1004.72</ele>
        <time>2012-07-10T07:52:17Z</time>
      </trkpt>
      <trkpt lat="42.885" lon="2.0739">
        <ele>1006.64</ele>
        <time>2012-07-10T07:52:31Z</time>
      </trkpt>
      <trkpt lat="42.88486" lon="2.07419">
        <ele>1009.04</ele>
        <time>2012-07-10T07:52:48Z</time>
      </trkpt>
      <trkpt lat="42.88472" lon="2.07442">
        <ele>1011.44</ele>
        <time>2012-07-10T07:53:03Z</time>
      </trkpt>
      <trkpt lat="42.88445" lon="2.07465">
        <ele>1012.89</ele>
        <time>2012-07-10T07:53:21Z</time>
      </trkpt>
      <trkpt lat="42.88422" lon="2.07485">
        <ele>1014.33</ele>
        <time>2012-07-10T07:53:38Z</time>
      </trkpt>
      <trkpt lat="42.88406" lon="2.07502">
        <ele>1014.81</ele>
        <time>2012-07-10T07:53:49Z</time>
      </trkpt>
      <trkpt lat="42.88399" lon="2.07513">
        <ele>1015.77</ele>
        <time>2012-07-10T07:53:55Z</time>
      </trkpt>
      <trkpt lat="42.88371" lon="2.07543">
        <ele>1016.73</ele>
        <time>2012-07-10T07:54:15Z</time>
      </trkpt>
      <trkpt lat="42.88353" lon="2.07574">
        <ele>1018.65</ele>
        <time>2012-07-10T07:54:30Z</time>
      </trkpt>
      <trkpt lat="42.8833" lon="2.07616">
        <ele>1020.58</ele>
        <time>2012-07-10T07:54:47Z</time>
      </trkpt>
      <trkpt lat="42.88309" lon="2.07651">
        <ele>1022.5</ele>
        <time>2012-07-10T07:55:00Z</time>
      </trkpt>
      <trkpt lat="42.88282" lon="2.07692">
        <ele>1024.42</ele>
        <time>2012-07-10T07:55:16Z</time>
      </trkpt>
      <trkpt lat="42.88266" lon="2.07709">
        <ele>1025.38</ele>
        <time>2012-07-10T07:55:24Z</time>
      </trkpt>
      <trkpt lat="42.88243" lon="2.07709">
        <ele>1025.86</ele>
        <time>2012-07-10T07:55:33Z</time>
      </trkpt>
      <trkpt lat="42.88232" lon="2.07678">
        <ele>1026.83</ele>
        <time>2012-07-10T07:55:44Z</time>
      </trkpt>
      <trkpt lat="42.8823" lon="2.07656">
        <ele>1027.79</ele>
        <time>2012-07-10T07:55:50Z</time>
      </trkpt>
      <trkpt lat="42.88224" lon="2.07601">
        <ele>1028.27</ele>
        <time>2012-07-10T07:56:04Z</time>
      </trkpt>
      <trkpt lat="42.8822" lon="2.0758">
        <ele>1027.79</ele>
        <time>2012-07-10T07:56:08Z</time>
      </trkpt>
      <trkpt lat="42.88225" lon="2.07491">
        <ele>1026.83</ele>
        <time>2012-07-10T07:56:22Z</time>
      </trkpt>
      <trkpt lat="42.88232" lon="2.07433">
        <ele>1028.75</ele>
        <time>2012-07-10T07:56:37Z</time>
      </trkpt>
      <trkpt lat="42.8823" lon="2.07411">
        <ele>1029.71</ele>
        <time>2012-07-10T07:56:44Z</time>
      </trkpt>
      <trkpt lat="42.88226" lon="2.07367">
        <ele>1031.63</ele>
        <time>2012-07-10T07:56:57Z</time>
      </trkpt>
      <trkpt lat="42.88215" lon="2.07335">
        <ele>1031.15</ele>
        <time>2012-07-10T07:57:06Z</time>
      </trkpt>
      <trkpt lat="42.88197" lon="2.07334">
        <ele>1030.19</ele>
        <time>2012-07-10T07:57:10Z</time>
      </trkpt>
      <trkpt lat="42.88159" lon="2.07337">
        <ele>1029.23</ele>
        <time>2012-07-10T07:57:18Z</time>
      </trkpt>
      <trkpt lat="42.88139" lon="2.07333">
        <ele>1027.79</ele>
        <time>2012-07-10T07:57:22Z</time>
      </trkpt>
      <trkpt lat="42.88116" lon="2.07296">
        <ele>1024.42</ele>
        <time>2012-07-10T07:57:31Z</time>
      </trkpt>
      <trkpt lat="42.88107" lon="2.07279">
        <ele>1022.5</ele>
        <time>2012-07-10T07:57:43Z</time>
      </trkpt>
      <trkpt lat="42.88098" lon="2.07262">
        <ele>1022.5</ele>
        <time>2012-07-10T07:57:54Z</time>
      </trkpt>
      <trkpt lat="42.88072" lon="2.07245">
        <ele>1022.02</ele>
        <time>2012-07-10T07:58:03Z</time>
      </trkpt>
      <trkpt lat="42.88055" lon="2.07255">
        <ele>1021.54</ele>
        <time>2012-07-10T07:58:09Z</time>
      </trkpt>
      <trkpt lat="42.88023" lon="2.07282">
        <ele>1022.02</ele>
        <time>2012-07-10T07:58:21Z</time>
      </trkpt>
      <trkpt lat="42.87984" lon="2.07325">
        <ele>1023.46</ele>
        <time>2012-07-10T07:58:36Z</time>
      </trkpt>
      <trkpt lat="42.87941" lon="2.07366">
        <ele>1023.94</ele>
        <time>2012-07-10T07:58:52Z</time>
      </trkpt>
      <trkpt lat="42.87918" lon="2.07384">
        <ele>1023.46</ele>
        <time>2012-07-10T07:58:58Z</time>
      </trkpt>
      <trkpt lat="42.87887" lon="2.07414">
        <ele>1021.54</ele>
        <time>2012-07-10T07:59:04Z</time>
      </trkpt>
      <trkpt lat="42.87843" lon="2.07469">
        <ele>1017.69</ele>
        <time>2012-07-10T07:59:12Z</time>
      </trkpt>
      <trkpt lat="42.87831" lon="2.07484">
        <ele>1016.25</ele>
        <time>2012-07-10T07:59:14Z</time>
      </trkpt>
      <trkpt lat="42.87812" lon="2.07509">
        <ele>1014.81</ele>
        <time>2012-07-10T07:59:17Z</time>
      </trkpt>
      <trkpt lat="42.87789" lon="2.07542">
        <ele>1012.41</ele>
        <time>2012-07-10T07:59:21Z</time>
      </trkpt>
      <trkpt lat="42.87749" lon="2.07577">
        <ele>1008.08</ele>
        <time>2012-07-10T07:59:27Z</time>
      </trkpt>
      <trkpt lat="42.87708" lon="2.07608">
        <ele>1004.72</ele>
        <time>2012-07-10T07:59:33Z</time>
      </trkpt>
      <trkpt lat="42.8768" lon="2.07639">
        <ele>1001.83</ele>
        <time>2012-07-10T07:59:37Z</time>
      </trkpt>
      <trkpt lat="42.87673" lon="2.07647">
        <ele>1001.83</ele>
        <time>2012-07-10T07:59:38Z</time>
      </trkpt>
      <trkpt lat="42.87641" lon="2.07688">
        <ele>997.99</ele>
        <time>2012-07-10T07:59:43Z</time>
      </trkpt>
      <trkpt lat="42.87598" lon="2.07753">
        <ele>995.1</ele>
        <time>2012-07-10T07:59:51Z</time>
      </trkpt>
      <trkpt lat="42.87577" lon="2.07785">
        <ele>993.18</ele>
        <time>2012-07-10T07:59:58Z</time>
      </trkpt>
      <trkpt lat="42.87575" lon="2.07786">
        <ele>992.7</ele>
        <time>2012-07-10T08:00:10Z</time>
      </trkpt>
      <trkpt lat="42.87565" lon="2.07801">
        <ele>992.7</ele>
        <time>2012-07-10T08:00:18Z</time>
      </trkpt>
      <trkpt lat="42.87554" lon="2.07813">
        <ele>992.7</ele>
        <time>2012-07-10T08:00:22Z</time>
      </trkpt>
      <trkpt lat="42.87546" lon="2.07819">
        <ele>992.22</ele>
        <time>2012-07-10T08:00:24Z</time>
      </trkpt>
      <trkpt lat="42.87493" lon="2.07875">
        <ele>990.3</ele>
        <time>2012-07-10T08:00:37Z</time>
      </trkpt>
      <trkpt lat="42.87454" lon="2.07932">
        <ele>988.85</ele>
        <time>2012-07-10T08:00:48Z</time>
      </trkpt>
      <trkpt lat="42.87433" lon="2.07953">
        <ele>988.37</ele>
        <time>2012-07-10T08:00:52Z</time>
      </trkpt>
      <trkpt lat="42.87416" lon="2.07985">
        <ele>987.41</ele>
        <time>2012-07-10T08:00:57Z</time>
      </trkpt>
      <trkpt lat="42.87395" lon="2.08037">
        <ele>985.97</ele>
        <time>2012-07-10T08:01:04Z</time>
      </trkpt>
      <trkpt lat="42.87361" lon="2.08111">
        <ele>985.49</ele>
        <time>2012-07-10T08:01:14Z</time>
      </trkpt>
      <trkpt lat="42.87301" lon="2.08201">
        <ele>983.09</ele>
        <time>2012-07-10T08:01:27Z</time>
      </trkpt>
      <trkpt lat="42.87286" lon="2.08236">
        <ele>983.09</ele>
        <time>2012-07-10T08:01:32Z</time>
      </trkpt>
      <trkpt lat="42.87254" lon="2.08308">
        <ele>982.6</ele>
        <time>2012-07-10T08:01:42Z</time>
      </trkpt>
      <trkpt lat="42.87235" lon="2.08348">
        <ele>983.09</ele>
        <time>2012-07-10T08:01:48Z</time>
      </trkpt>
      <trkpt lat="42.87221" lon="2.08363">
        <ele>982.6</ele>
        <time>2012-07-10T08:01:51Z</time>
      </trkpt>
      <trkpt lat="42.87181" lon="2.08408">
        <ele>981.16</ele>
        <time>2012-07-10T08:02:01Z</time>
      </trkpt>
      <trkpt lat="42.87161" lon="2.08423">
        <ele>980.68</ele>
        <time>2012-07-10T08:02:04Z</time>
      </trkpt>
      <trkpt lat="42.87134" lon="2.08448">
        <ele>980.2</ele>
        <time>2012-07-10T08:02:08Z</time>
      </trkpt>
      <trkpt lat="42.87121" lon="2.08483">
        <ele>979.72</ele>
        <time>2012-07-10T08:02:12Z</time>
      </trkpt>
      <trkpt lat="42.87084" lon="2.08618">
        <ele>980.2</ele>
        <time>2012-07-10T08:02:28Z</time>
      </trkpt>
      <trkpt lat="42.87074" lon="2.08706">
        <ele>979.24</ele>
        <time>2012-07-10T08:02:38Z</time>
      </trkpt>
      <trkpt lat="42.87066" lon="2.08765">
        <ele>979.24</ele>
        <time>2012-07-10T08:02:45Z</time>
      </trkpt>
      <trkpt lat="42.87066" lon="2.08789">
        <ele>979.72</ele>
        <time>2012-07-10T08:02:48Z</time>
      </trkpt>
      <trkpt lat="42.8707" lon="2.08834">
        <ele>980.2</ele>
        <time>2012-07-10T08:02:54Z</time>
      </trkpt>
      <trkpt lat="42.87076" lon="2.08886">
        <ele>981.16</ele>
        <time>2012-07-10T08:03:01Z</time>
      </trkpt>
      <trkpt lat="42.87084" lon="2.08954">
        <ele>981.64</ele>
        <time>2012-07-10T08:03:10Z</time>
      </trkpt>
      <trkpt lat="42.87085" lon="2.08995">
        <ele>982.12</ele>
        <time>2012-07-10T08:03:16Z</time>
      </trkpt>
      <trkpt lat="42.87081" lon="2.09021">
        <ele>982.6</ele>
        <time>2012-07-10T08:03:20Z</time>
      </trkpt>
      <trkpt lat="42.87079" lon="2.09034">
        <ele>982.6</ele>
        <time>2012-07-10T08:03:22Z</time>
      </trkpt>
      <trkpt lat="42.87072" lon="2.09062">
        <ele>983.09</ele>
        <time>2012-07-10T08:03:27Z</time>
      </trkpt>
      <trkpt lat="42.8707" lon="2.09122">
        <ele>985.01</ele>
        <time>2012-07-10T08:03:39Z</time>
      </trkpt>
      <trkpt lat="42.87082" lon="2.09176">
        <ele>986.45</ele>
        <time>2012-07-10T08:03:53Z</time>
      </trkpt>
      <trkpt lat="42.87082" lon="2.0918">
        <ele>986.45</ele>
        <time>2012-07-10T08:04:04Z</time>
      </trkpt>
      <trkpt lat="42.87083" lon="2.09183">
        <ele>986.45</ele>
        <time>2012-07-10T08:04:19Z</time>
      </trkpt>
      <trkpt lat="42.87084" lon="2.09184">
        <ele>986.45</ele>
        <time>2012-07-10T08:04:22Z</time>
      </trkpt>
      <trkpt lat="42.87089" lon="2.09182">
        <ele>986.93</ele>
        <time>2012-07-10T08:04:34Z</time>
      </trkpt>
      <trkpt lat="42.8709" lon="2.09189">
        <ele>986.45</ele>
        <time>2012-07-10T08:04:39Z</time>
      </trkpt>
      <trkpt lat="42.87097" lon="2.0921">
        <ele>987.41</ele>
        <time>2012-07-10T08:04:56Z</time>
      </trkpt>
      <trkpt lat="42.87097" lon="2.09213">
        <ele>987.41</ele>
        <time>2012-07-10T08:04:58Z</time>
      </trkpt>
      <trkpt lat="42.871" lon="2.09231">
        <ele>987.89</ele>
        <time>2012-07-10T08:05:13Z</time>
      </trkpt>
      <trkpt lat="42.87102" lon="2.09244">
        <ele>987.89</ele>
        <time>2012-07-10T08:05:29Z</time>
      </trkpt>
      <trkpt lat="42.87099" lon="2.09234">
        <ele>987.89</ele>
        <time>2012-07-10T08:05:45Z</time>
      </trkpt>
      <trkpt lat="42.87095" lon="2.09226">
        <ele>987.41</ele>
        <time>2012-07-10T08:05:56Z</time>
      </trkpt>
      <trkpt lat="42.87093" lon="2.09209">
        <ele>987.41</ele>
        <time>2012-07-10T08:06:08Z</time>
      </trkpt>
      <trkpt lat="42.87091" lon="2.09203">
        <ele>987.41</ele>
        <time>2012-07-10T08:06:12Z</time>
      </trkpt>
      <trkpt lat="42.8709" lon="2.09191">
        <ele>987.41</ele>
        <time>2012-07-10T08:06:27Z</time>
      </trkpt>
      <trkpt lat="42.87084" lon="2.09182">
        <ele>987.41</ele>
        <time>2012-07-10T08:06:42Z</time>
      </trkpt>
      <trkpt lat="42.87084" lon="2.09183">
        <ele>986.93</ele>
        <time>2012-07-10T08:06:55Z</time>
      </trkpt>
      <trkpt lat="42.87084" lon="2.09183">
        <ele>986.45</ele>
        <time>2012-07-10T08:06:59Z</time>
      </trkpt>
      <trkpt lat="42.87095" lon="2.09221">
        <ele>987.89</ele>
        <time>2012-07-10T08:07:14Z</time>
      </trkpt>
      <trkpt lat="42.87097" lon="2.0928">
        <ele>988.37</ele>
        <time>2012-07-10T08:07:29Z</time>
      </trkpt>
      <trkpt lat="42.87083" lon="2.09337">
        <ele>987.89</ele>
        <time>2012-07-10T08:07:42Z</time>
      </trkpt>
      <trkpt lat="42.87056" lon="2.09433">
        <ele>986.45</ele>
        <time>2012-07-10T08:07:57Z</time>
      </trkpt>
      <trkpt lat="42.87041" lon="2.09497">
        <ele>985.01</ele>
        <time>2012-07-10T08:08:07Z</time>
      </trkpt>
      <trkpt lat="42.87037" lon="2.0952">
        <ele>984.53</ele>
        <time>2012-07-10T08:08:11Z</time>
      </trkpt>
      <trkpt lat="42.87034" lon="2.09532">
        <ele>984.53</ele>
        <time>2012-07-10T08:08:13Z</time>
      </trkpt>
      <trkpt lat="42.87018" lon="2.09615">
        <ele>981.16</ele>
        <time>2012-07-10T08:08:23Z</time>
      </trkpt>
      <trkpt lat="42.87016" lon="2.09691">
        <ele>977.8</ele>
        <time>2012-07-10T08:08:30Z</time>
      </trkpt>
      <trkpt lat="42.87014" lon="2.09732">
        <ele>975.88</ele>
        <time>2012-07-10T08:08:34Z</time>
      </trkpt>
      <trkpt lat="42.87007" lon="2.09766">
        <ele>973.47</ele>
        <time>2012-07-10T08:08:37Z</time>
      </trkpt>
      <trkpt lat="42.87005" lon="2.09814">
        <ele>970.59</ele>
        <time>2012-07-10T08:08:41Z</time>
      </trkpt>
      <trkpt lat="42.87009" lon="2.09869">
        <ele>967.22</ele>
        <time>2012-07-10T08:08:46Z</time>
      </trkpt>
      <trkpt lat="42.87003" lon="2.09918">
        <ele>963.38</ele>
        <time>2012-07-10T08:08:51Z</time>
      </trkpt>
      <trkpt lat="42.86998" lon="2.09936">
        <ele>962.9</ele>
        <time>2012-07-10T08:08:53Z</time>
      </trkpt>
      <trkpt lat="42.86993" lon="2.09953">
        <ele>961.46</ele>
        <time>2012-07-10T08:08:55Z</time>
      </trkpt>
      <trkpt lat="42.86974" lon="2.09997">
        <ele>957.61</ele>
        <time>2012-07-10T08:09:00Z</time>
      </trkpt>
      <trkpt lat="42.86951" lon="2.10035">
        <ele>955.21</ele>
        <time>2012-07-10T08:09:04Z</time>
      </trkpt>
      <trkpt lat="42.8692" lon="2.10088">
        <ele>951.84</ele>
        <time>2012-07-10T08:09:09Z</time>
      </trkpt>
      <trkpt lat="42.86888" lon="2.10144">
        <ele>948.48</ele>
        <time>2012-07-10T08:09:14Z</time>
      </trkpt>
      <trkpt lat="42.86844" lon="2.10206">
        <ele>945.11</ele>
        <time>2012-07-10T08:09:20Z</time>
      </trkpt>
      <trkpt lat="42.86812" lon="2.10245">
        <ele>941.75</ele>
        <time>2012-07-10T08:09:24Z</time>
      </trkpt>
      <trkpt lat="42.86795" lon="2.10266">
        <ele>941.27</ele>
        <time>2012-07-10T08:09:26Z</time>
      </trkpt>
      <trkpt lat="42.86753" lon="2.10317">
        <ele>937.9</ele>
        <time>2012-07-10T08:09:31Z</time>
      </trkpt>
      <trkpt lat="42.86712" lon="2.10371">
        <ele>934.54</ele>
        <time>2012-07-10T08:09:36Z</time>
      </trkpt>
      <trkpt lat="42.86705" lon="2.10384">
        <ele>934.54</ele>
        <time>2012-07-10T08:09:37Z</time>
      </trkpt>
      <trkpt lat="42.86679" lon="2.10434">
        <ele>931.65</ele>
        <time>2012-07-10T08:09:41Z</time>
      </trkpt>
      <trkpt lat="42.86656" lon="2.10477">
        <ele>927.81</ele>
        <time>2012-07-10T08:09:45Z</time>
      </trkpt>
      <trkpt lat="42.86651" lon="2.10486">
        <ele>927.33</ele>
        <time>2012-07-10T08:09:46Z</time>
      </trkpt>
      <trkpt lat="42.86659" lon="2.10532">
        <ele>924.45</ele>
        <time>2012-07-10T08:09:52Z</time>
      </trkpt>
      <trkpt lat="42.86686" lon="2.10554">
        <ele>922.52</ele>
        <time>2012-07-10T08:09:56Z</time>
      </trkpt>
      <trkpt lat="42.86695" lon="2.10606">
        <ele>919.64</ele>
        <time>2012-07-10T08:10:02Z</time>
      </trkpt>
      <trkpt lat="42.8668" lon="2.10622">
        <ele>918.68</ele>
        <time>2012-07-10T08:10:04Z</time>
      </trkpt>
      <trkpt lat="42.866" lon="2.10691">
        <ele>914.83</ele>
        <time>2012-07-10T08:10:15Z</time>
      </trkpt>
      <trkpt lat="42.86548" lon="2.10771">
        <ele>911.47</ele>
        <time>2012-07-10T08:10:24Z</time>
      </trkpt>
      <trkpt lat="42.86507" lon="2.1085">
        <ele>908.58</ele>
        <time>2012-07-10T08:10:32Z</time>
      </trkpt>
      <trkpt lat="42.8647" lon="2.10936">
        <ele>905.22</ele>
        <time>2012-07-10T08:10:40Z</time>
      </trkpt>
      <trkpt lat="42.86421" lon="2.11026">
        <ele>901.85</ele>
        <time>2012-07-10T08:10:49Z</time>
      </trkpt>
      <trkpt lat="42.86376" lon="2.11121">
        <ele>898.49</ele>
        <time>2012-07-10T08:10:58Z</time>
      </trkpt>
      <trkpt lat="42.86364" lon="2.11168">
        <ele>896.57</ele>
        <time>2012-07-10T08:11:02Z</time>
      </trkpt>
      <trkpt lat="42.8637" lon="2.11242">
        <ele>894.64</ele>
        <time>2012-07-10T08:11:08Z</time>
      </trkpt>
      <trkpt lat="42.86379" lon="2.11264">
        <ele>893.68</ele>
        <time>2012-07-10T08:11:10Z</time>
      </trkpt>
      <trkpt lat="42.86393" lon="2.11311">
        <ele>892.72</ele>
        <time>2012-07-10T08:11:14Z</time>
      </trkpt>
      <trkpt lat="42.86393" lon="2.11364">
        <ele>890.32</ele>
        <time>2012-07-10T08:11:18Z</time>
      </trkpt>
      <trkpt lat="42.86416" lon="2.11435">
        <ele>887.91</ele>
        <time>2012-07-10T08:11:24Z</time>
      </trkpt>
      <trkpt lat="42.86439" lon="2.11476">
        <ele>885.51</ele>
        <time>2012-07-10T08:11:28Z</time>
      </trkpt>
      <trkpt lat="42.86437" lon="2.11559">
        <ele>881.67</ele>
        <time>2012-07-10T08:11:34Z</time>
      </trkpt>
      <trkpt lat="42.86428" lon="2.11619">
        <ele>879.74</ele>
        <time>2012-07-10T08:11:39Z</time>
      </trkpt>
      <trkpt lat="42.86426" lon="2.11677">
        <ele>876.86</ele>
        <time>2012-07-10T08:11:45Z</time>
      </trkpt>
      <trkpt lat="42.86416" lon="2.11714">
        <ele>874.94</ele>
        <time>2012-07-10T08:11:54Z</time>
      </trkpt>
      <trkpt lat="42.86414" lon="2.11714">
        <ele>874.46</ele>
        <time>2012-07-10T08:12:06Z</time>
      </trkpt>
      <trkpt lat="42.86407" lon="2.11719">
        <ele>874.46</ele>
        <time>2012-07-10T08:12:11Z</time>
      </trkpt>
      <trkpt lat="42.86387" lon="2.11754">
        <ele>874.94</ele>
        <time>2012-07-10T08:12:26Z</time>
      </trkpt>
      <trkpt lat="42.86374" lon="2.11776">
        <ele>876.38</ele>
        <time>2012-07-10T08:12:39Z</time>
      </trkpt>
      <trkpt lat="42.86315" lon="2.11885">
        <ele>879.26</ele>
        <time>2012-07-10T08:13:02Z</time>
      </trkpt>
      <trkpt lat="42.86249" lon="2.12001">
        <ele>881.67</ele>
        <time>2012-07-10T08:13:29Z</time>
      </trkpt>
      <trkpt lat="42.86194" lon="2.121">
        <ele>883.59</ele>
        <time>2012-07-10T08:13:53Z</time>
      </trkpt>
      <trkpt lat="42.86179" lon="2.12129">
        <ele>883.59</ele>
        <time>2012-07-10T08:14:00Z</time>
      </trkpt>
      <trkpt lat="42.86168" lon="2.12106">
        <ele>883.11</ele>
        <time>2012-07-10T08:14:07Z</time>
      </trkpt>
      <trkpt lat="42.86175" lon="2.12048">
        <ele>880.22</ele>
        <time>2012-07-10T08:14:13Z</time>
      </trkpt>
      <trkpt lat="42.86181" lon="2.1201">
        <ele>877.34</ele>
        <time>2012-07-10T08:14:17Z</time>
      </trkpt>
      <trkpt lat="42.86186" lon="2.11981">
        <ele>873.98</ele>
        <time>2012-07-10T08:14:20Z</time>
      </trkpt>
      <trkpt lat="42.8619" lon="2.11962">
        <ele>871.57</ele>
        <time>2012-07-10T08:14:22Z</time>
      </trkpt>
      <trkpt lat="42.86205" lon="2.11931">
        <ele>868.21</ele>
        <time>2012-07-10T08:14:26Z</time>
      </trkpt>
      <trkpt lat="42.8621" lon="2.11925">
        <ele>867.25</ele>
        <time>2012-07-10T08:14:27Z</time>
      </trkpt>
      <trkpt lat="42.86229" lon="2.11879">
        <ele>862.92</ele>
        <time>2012-07-10T08:14:32Z</time>
      </trkpt>
      <trkpt lat="42.86235" lon="2.11862">
        <ele>861.96</ele>
        <time>2012-07-10T08:14:34Z</time>
      </trkpt>
      <trkpt lat="42.86246" lon="2.11811">
        <ele>858.11</ele>
        <time>2012-07-10T08:14:40Z</time>
      </trkpt>
      <trkpt lat="42.86259" lon="2.11744">
        <ele>855.23</ele>
        <time>2012-07-10T08:14:47Z</time>
      </trkpt>
      <trkpt lat="42.86263" lon="2.11716">
        <ele>854.27</ele>
        <time>2012-07-10T08:14:50Z</time>
      </trkpt>
      <trkpt lat="42.86285" lon="2.11644">
        <ele>852.35</ele>
        <time>2012-07-10T08:14:58Z</time>
      </trkpt>
      <trkpt lat="42.8629" lon="2.11624">
        <ele>851.38</ele>
        <time>2012-07-10T08:15:00Z</time>
      </trkpt>
      <trkpt lat="42.86291" lon="2.11532">
        <ele>848.98</ele>
        <time>2012-07-10T08:15:09Z</time>
      </trkpt>
      <trkpt lat="42.86278" lon="2.11501">
        <ele>848.98</ele>
        <time>2012-07-10T08:15:13Z</time>
      </trkpt>
      <trkpt lat="42.86183" lon="2.11362">
        <ele>847.06</ele>
        <time>2012-07-10T08:15:36Z</time>
      </trkpt>
      <trkpt lat="42.86102" lon="2.11221">
        <ele>847.06</ele>
        <time>2012-07-10T08:15:59Z</time>
      </trkpt>
      <trkpt lat="42.86035" lon="2.11123">
        <ele>845.14</ele>
        <time>2012-07-10T08:16:14Z</time>
      </trkpt>
      <trkpt lat="42.85944" lon="2.10991">
        <ele>843.21</ele>
        <time>2012-07-10T08:16:33Z</time>
      </trkpt>
      <trkpt lat="42.85827" lon="2.10858">
        <ele>841.77</ele>
        <time>2012-07-10T08:16:56Z</time>
      </trkpt>
      <trkpt lat="42.85742" lon="2.10747">
        <ele>838.41</ele>
        <time>2012-07-10T08:17:13Z</time>
      </trkpt>
      <trkpt lat="42.85649" lon="2.10657">
        <ele>835.04</ele>
        <time>2012-07-10T08:17:29Z</time>
      </trkpt>
      <trkpt lat="42.85594" lon="2.10583">
        <ele>834.08</ele>
        <time>2012-07-10T08:17:43Z</time>
      </trkpt>
      <trkpt lat="42.8559" lon="2.10573">
        <ele>833.6</ele>
        <time>2012-07-10T08:17:45Z</time>
      </trkpt>
      <trkpt lat="42.85583" lon="2.10551">
        <ele>833.6</ele>
        <time>2012-07-10T08:17:49Z</time>
      </trkpt>
      <trkpt lat="42.85577" lon="2.1044">
        <ele>833.6</ele>
        <time>2012-07-10T08:18:08Z</time>
      </trkpt>
      <trkpt lat="42.8558" lon="2.10344">
        <ele>835.52</ele>
        <time>2012-07-10T08:18:27Z</time>
      </trkpt>
      <trkpt lat="42.85571" lon="2.10301">
        <ele>838.41</ele>
        <time>2012-07-10T08:18:40Z</time>
      </trkpt>
      <trkpt lat="42.85549" lon="2.10271">
        <ele>841.29</ele>
        <time>2012-07-10T08:18:54Z</time>
      </trkpt>
      <trkpt lat="42.85511" lon="2.10266">
        <ele>843.69</ele>
        <time>2012-07-10T08:19:12Z</time>
      </trkpt>
      <trkpt lat="42.85494" lon="2.10278">
        <ele>845.14</ele>
        <time>2012-07-10T08:19:24Z</time>
      </trkpt>
      <trkpt lat="42.85491" lon="2.10284">
        <ele>846.58</ele>
        <time>2012-07-10T08:19:31Z</time>
      </trkpt>
      <trkpt lat="42.85488" lon="2.10285">
        <ele>846.58</ele>
        <time>2012-07-10T08:19:34Z</time>
      </trkpt>
      <trkpt lat="42.85477" lon="2.10294">
        <ele>849.46</ele>
        <time>2012-07-10T08:19:42Z</time>
      </trkpt>
      <trkpt lat="42.85472" lon="2.10296">
        <ele>849.46</ele>
        <time>2012-07-10T08:19:46Z</time>
      </trkpt>
      <trkpt lat="42.85456" lon="2.10304">
        <ele>850.9</ele>
        <time>2012-07-10T08:19:57Z</time>
      </trkpt>
      <trkpt lat="42.85441" lon="2.1032">
        <ele>852.83</ele>
        <time>2012-07-10T08:20:09Z</time>
      </trkpt>
      <trkpt lat="42.85435" lon="2.10327">
        <ele>853.31</ele>
        <time>2012-07-10T08:20:14Z</time>
      </trkpt>
      <trkpt lat="42.85413" lon="2.10336">
        <ele>853.31</ele>
        <time>2012-07-10T08:20:27Z</time>
      </trkpt>
      <trkpt lat="42.85409" lon="2.10339">
        <ele>853.31</ele>
        <time>2012-07-10T08:20:29Z</time>
      </trkpt>
      <trkpt lat="42.85402" lon="2.10344">
        <ele>853.79</ele>
        <time>2012-07-10T08:20:34Z</time>
      </trkpt>
      <trkpt lat="42.85397" lon="2.10352">
        <ele>854.75</ele>
        <time>2012-07-10T08:20:40Z</time>
      </trkpt>
      <trkpt lat="42.85385" lon="2.10364">
        <ele>856.67</ele>
        <time>2012-07-10T08:20:50Z</time>
      </trkpt>
      <trkpt lat="42.85373" lon="2.10386">
        <ele>858.59</ele>
        <time>2012-07-10T08:21:03Z</time>
      </trkpt>
      <trkpt lat="42.85356" lon="2.104">
        <ele>861</ele>
        <time>2012-07-10T08:21:15Z</time>
      </trkpt>
      <trkpt lat="42.85354" lon="2.104">
        <ele>861</ele>
        <time>2012-07-10T08:21:16Z</time>
      </trkpt>
      <trkpt lat="42.85344" lon="2.10402">
        <ele>861.96</ele>
        <time>2012-07-10T08:21:22Z</time>
      </trkpt>
      <trkpt lat="42.85332" lon="2.10411">
        <ele>862.44</ele>
        <time>2012-07-10T08:21:30Z</time>
      </trkpt>
      <trkpt lat="42.85324" lon="2.10415">
        <ele>862.44</ele>
        <time>2012-07-10T08:21:34Z</time>
      </trkpt>
      <trkpt lat="42.85287" lon="2.10422">
        <ele>862.92</ele>
        <time>2012-07-10T08:21:50Z</time>
      </trkpt>
      <trkpt lat="42.85251" lon="2.10425">
        <ele>862.92</ele>
        <time>2012-07-10T08:22:02Z</time>
      </trkpt>
      <trkpt lat="42.85223" lon="2.10425">
        <ele>863.4</ele>
        <time>2012-07-10T08:22:12Z</time>
      </trkpt>
      <trkpt lat="42.85192" lon="2.10423">
        <ele>866.29</ele>
        <time>2012-07-10T08:22:26Z</time>
      </trkpt>
      <trkpt lat="42.85153" lon="2.10409">
        <ele>869.17</ele>
        <time>2012-07-10T08:22:47Z</time>
      </trkpt>
      <trkpt lat="42.85115" lon="2.10403">
        <ele>870.13</ele>
        <time>2012-07-10T08:23:04Z</time>
      </trkpt>
      <trkpt lat="42.85104" lon="2.10401">
        <ele>870.13</ele>
        <time>2012-07-10T08:23:08Z</time>
      </trkpt>
      <trkpt lat="42.8506" lon="2.10383">
        <ele>870.61</ele>
        <time>2012-07-10T08:23:20Z</time>
      </trkpt>
      <trkpt lat="42.84962" lon="2.10333">
        <ele>872.53</ele>
        <time>2012-07-10T08:23:42Z</time>
      </trkpt>
      <trkpt lat="42.84954" lon="2.10328">
        <ele>872.53</ele>
        <time>2012-07-10T08:23:44Z</time>
      </trkpt>
      <trkpt lat="42.84941" lon="2.10313">
        <ele>873.01</ele>
        <time>2012-07-10T08:23:48Z</time>
      </trkpt>
      <trkpt lat="42.8491" lon="2.1024">
        <ele>874.46</ele>
        <time>2012-07-10T08:24:03Z</time>
      </trkpt>
      <trkpt lat="42.84878" lon="2.10194">
        <ele>875.9</ele>
        <time>2012-07-10T08:24:17Z</time>
      </trkpt>
      <trkpt lat="42.8485" lon="2.10155">
        <ele>876.86</ele>
        <time>2012-07-10T08:24:30Z</time>
      </trkpt>
      <trkpt lat="42.84848" lon="2.10153">
        <ele>876.86</ele>
        <time>2012-07-10T08:24:31Z</time>
      </trkpt>
      <trkpt lat="42.84819" lon="2.1013">
        <ele>877.34</ele>
        <time>2012-07-10T08:24:42Z</time>
      </trkpt>
      <trkpt lat="42.84774" lon="2.10121">
        <ele>878.78</ele>
        <time>2012-07-10T08:24:56Z</time>
      </trkpt>
      <trkpt lat="42.84728" lon="2.10138">
        <ele>880.22</ele>
        <time>2012-07-10T08:25:11Z</time>
      </trkpt>
      <trkpt lat="42.84667" lon="2.10123">
        <ele>882.15</ele>
        <time>2012-07-10T08:25:29Z</time>
      </trkpt>
      <trkpt lat="42.84647" lon="2.10118">
        <ele>882.63</ele>
        <time>2012-07-10T08:25:34Z</time>
      </trkpt>
      <trkpt lat="42.84624" lon="2.10106">
        <ele>883.59</ele>
        <time>2012-07-10T08:25:40Z</time>
      </trkpt>
      <trkpt lat="42.8455" lon="2.10045">
        <ele>886.47</ele>
        <time>2012-07-10T08:26:00Z</time>
      </trkpt>
      <trkpt lat="42.84483" lon="2.09983">
        <ele>889.84</ele>
        <time>2012-07-10T08:26:20Z</time>
      </trkpt>
      <trkpt lat="42.84417" lon="2.09916">
        <ele>892.72</ele>
        <time>2012-07-10T08:26:42Z</time>
      </trkpt>
      <trkpt lat="42.84396" lon="2.09849">
        <ele>895.12</ele>
        <time>2012-07-10T08:26:59Z</time>
      </trkpt>
      <trkpt lat="42.84417" lon="2.09754">
        <ele>895.61</ele>
        <time>2012-07-10T08:27:19Z</time>
      </trkpt>
      <trkpt lat="42.84423" lon="2.09632">
        <ele>894.64</ele>
        <time>2012-07-10T08:27:38Z</time>
      </trkpt>
      <trkpt lat="42.84429" lon="2.0948">
        <ele>893.68</ele>
        <time>2012-07-10T08:27:58Z</time>
      </trkpt>
      <trkpt lat="42.84439" lon="2.0928">
        <ele>891.76</ele>
        <time>2012-07-10T08:28:21Z</time>
      </trkpt>
      <trkpt lat="42.8445" lon="2.09039">
        <ele>890.8</ele>
        <time>2012-07-10T08:28:48Z</time>
      </trkpt>
      <trkpt lat="42.84461" lon="2.08782">
        <ele>888.88</ele>
        <time>2012-07-10T08:29:17Z</time>
      </trkpt>
      <trkpt lat="42.84471" lon="2.08588">
        <ele>888.4</ele>
        <time>2012-07-10T08:29:40Z</time>
      </trkpt>
      <trkpt lat="42.84457" lon="2.0857">
        <ele>888.88</ele>
        <time>2012-07-10T08:29:44Z</time>
      </trkpt>
      <trkpt lat="42.84346" lon="2.08478">
        <ele>885.99</ele>
        <time>2012-07-10T08:30:04Z</time>
      </trkpt>
      <trkpt lat="42.84215" lon="2.08362">
        <ele>885.51</ele>
        <time>2012-07-10T08:30:28Z</time>
      </trkpt>
      <trkpt lat="42.84071" lon="2.08243">
        <ele>884.55</ele>
        <time>2012-07-10T08:30:53Z</time>
      </trkpt>
      <trkpt lat="42.83947" lon="2.08218">
        <ele>885.51</ele>
        <time>2012-07-10T08:31:14Z</time>
      </trkpt>
      <trkpt lat="42.83812" lon="2.08233">
        <ele>887.91</ele>
        <time>2012-07-10T08:31:39Z</time>
      </trkpt>
      <trkpt lat="42.83718" lon="2.08243">
        <ele>890.32</ele>
        <time>2012-07-10T08:32:00Z</time>
      </trkpt>
      <trkpt lat="42.83669" lon="2.08259">
        <ele>891.28</ele>
        <time>2012-07-10T08:32:15Z</time>
      </trkpt>
      <trkpt lat="42.83659" lon="2.08275">
        <ele>891.28</ele>
        <time>2012-07-10T08:32:19Z</time>
      </trkpt>
      <trkpt lat="42.83636" lon="2.08284">
        <ele>889.84</ele>
        <time>2012-07-10T08:32:26Z</time>
      </trkpt>
      <trkpt lat="42.83636" lon="2.08276">
        <ele>889.36</ele>
        <time>2012-07-10T08:32:27Z</time>
      </trkpt>
      <trkpt lat="42.83664" lon="2.08199">
        <ele>885.03</ele>
        <time>2012-07-10T08:32:36Z</time>
      </trkpt>
      <trkpt lat="42.83681" lon="2.0814">
        <ele>881.19</ele>
        <time>2012-07-10T08:32:41Z</time>
      </trkpt>
      <trkpt lat="42.83688" lon="2.08115">
        <ele>880.71</ele>
        <time>2012-07-10T08:32:43Z</time>
      </trkpt>
      <trkpt lat="42.83701" lon="2.08062">
        <ele>876.86</ele>
        <time>2012-07-10T08:32:47Z</time>
      </trkpt>
      <trkpt lat="42.83713" lon="2.08023">
        <ele>873.98</ele>
        <time>2012-07-10T08:32:50Z</time>
      </trkpt>
      <trkpt lat="42.83727" lon="2.07984">
        <ele>872.05</ele>
        <time>2012-07-10T08:32:53Z</time>
      </trkpt>
      <trkpt lat="42.83748" lon="2.07932">
        <ele>868.21</ele>
        <time>2012-07-10T08:32:57Z</time>
      </trkpt>
      <trkpt lat="42.83762" lon="2.07894">
        <ele>864.84</ele>
        <time>2012-07-10T08:33:00Z</time>
      </trkpt>
      <trkpt lat="42.8377" lon="2.07872">
        <ele>863.88</ele>
        <time>2012-07-10T08:33:02Z</time>
      </trkpt>
      <trkpt lat="42.83786" lon="2.07839">
        <ele>860.52</ele>
        <time>2012-07-10T08:33:06Z</time>
      </trkpt>
      <trkpt lat="42.83777" lon="2.0782">
        <ele>857.15</ele>
        <time>2012-07-10T08:33:12Z</time>
      </trkpt>
      <trkpt lat="42.83766" lon="2.07835">
        <ele>856.67</ele>
        <time>2012-07-10T08:33:14Z</time>
      </trkpt>
      <trkpt lat="42.83759" lon="2.07852">
        <ele>855.23</ele>
        <time>2012-07-10T08:33:16Z</time>
      </trkpt>
      <trkpt lat="42.83734" lon="2.07882">
        <ele>853.31</ele>
        <time>2012-07-10T08:33:20Z</time>
      </trkpt>
      <trkpt lat="42.83675" lon="2.07928">
        <ele>848.98</ele>
        <time>2012-07-10T08:33:27Z</time>
      </trkpt>
      <trkpt lat="42.83643" lon="2.07959">
        <ele>845.62</ele>
        <time>2012-07-10T08:33:31Z</time>
      </trkpt>
      <trkpt lat="42.83625" lon="2.07988">
        <ele>843.21</ele>
        <time>2012-07-10T08:33:35Z</time>
      </trkpt>
      <trkpt lat="42.83614" lon="2.07981">
        <ele>840.33</ele>
        <time>2012-07-10T08:33:40Z</time>
      </trkpt>
      <trkpt lat="42.83628" lon="2.07948">
        <ele>838.89</ele>
        <time>2012-07-10T08:33:44Z</time>
      </trkpt>
      <trkpt lat="42.83652" lon="2.07891">
        <ele>834.56</ele>
        <time>2012-07-10T08:33:50Z</time>
      </trkpt>
      <trkpt lat="42.83656" lon="2.07879">
        <ele>834.56</ele>
        <time>2012-07-10T08:33:51Z</time>
      </trkpt>
      <trkpt lat="42.83676" lon="2.07829">
        <ele>831.2</ele>
        <time>2012-07-10T08:33:55Z</time>
      </trkpt>
      <trkpt lat="42.83697" lon="2.07775">
        <ele>827.35</ele>
        <time>2012-07-10T08:33:59Z</time>
      </trkpt>
      <trkpt lat="42.83702" lon="2.07762">
        <ele>827.35</ele>
        <time>2012-07-10T08:34:00Z</time>
      </trkpt>
      <trkpt lat="42.83718" lon="2.07724">
        <ele>823.99</ele>
        <time>2012-07-10T08:34:03Z</time>
      </trkpt>
      <trkpt lat="42.83736" lon="2.0767">
        <ele>820.14</ele>
        <time>2012-07-10T08:34:07Z</time>
      </trkpt>
      <trkpt lat="42.83746" lon="2.07623">
        <ele>816.78</ele>
        <time>2012-07-10T08:34:10Z</time>
      </trkpt>
      <trkpt lat="42.83749" lon="2.07607">
        <ele>816.78</ele>
        <time>2012-07-10T08:34:11Z</time>
      </trkpt>
      <trkpt lat="42.8376" lon="2.07558">
        <ele>813.41</ele>
        <time>2012-07-10T08:34:14Z</time>
      </trkpt>
      <trkpt lat="42.83773" lon="2.07513">
        <ele>810.05</ele>
        <time>2012-07-10T08:34:17Z</time>
      </trkpt>
      <trkpt lat="42.83785" lon="2.07473">
        <ele>806.2</ele>
        <time>2012-07-10T08:34:20Z</time>
      </trkpt>
      <trkpt lat="42.83788" lon="2.0746">
        <ele>806.2</ele>
        <time>2012-07-10T08:34:21Z</time>
      </trkpt>
      <trkpt lat="42.83798" lon="2.07429">
        <ele>803.32</ele>
        <time>2012-07-10T08:34:24Z</time>
      </trkpt>
      <trkpt lat="42.83786" lon="2.07415">
        <ele>799.95</ele>
        <time>2012-07-10T08:34:30Z</time>
      </trkpt>
      <trkpt lat="42.83778" lon="2.07433">
        <ele>799.47</ele>
        <time>2012-07-10T08:34:32Z</time>
      </trkpt>
      <trkpt lat="42.83771" lon="2.07452">
        <ele>798.03</ele>
        <time>2012-07-10T08:34:34Z</time>
      </trkpt>
      <trkpt lat="42.83741" lon="2.07497">
        <ele>794.19</ele>
        <time>2012-07-10T08:34:39Z</time>
      </trkpt>
      <trkpt lat="42.8372" lon="2.07523">
        <ele>792.74</ele>
        <time>2012-07-10T08:34:42Z</time>
      </trkpt>
      <trkpt lat="42.83709" lon="2.0754">
        <ele>790.82</ele>
        <time>2012-07-10T08:34:44Z</time>
      </trkpt>
      <trkpt lat="42.83687" lon="2.07543">
        <ele>787.46</ele>
        <time>2012-07-10T08:34:49Z</time>
      </trkpt>
      <trkpt lat="42.83693" lon="2.07516">
        <ele>785.05</ele>
        <time>2012-07-10T08:34:52Z</time>
      </trkpt>
      <trkpt lat="42.83722" lon="2.07454">
        <ele>781.69</ele>
        <time>2012-07-10T08:34:58Z</time>
      </trkpt>
      <trkpt lat="42.83733" lon="2.07402">
        <ele>778.32</ele>
        <time>2012-07-10T08:35:02Z</time>
      </trkpt>
      <trkpt lat="42.83737" lon="2.07373">
        <ele>777.36</ele>
        <time>2012-07-10T08:35:04Z</time>
      </trkpt>
      <trkpt lat="42.83742" lon="2.07327">
        <ele>774.48</ele>
        <time>2012-07-10T08:35:07Z</time>
      </trkpt>
      <trkpt lat="42.83745" lon="2.07276">
        <ele>771.11</ele>
        <time>2012-07-10T08:35:10Z</time>
      </trkpt>
      <trkpt lat="42.83745" lon="2.07258">
        <ele>770.15</ele>
        <time>2012-07-10T08:35:11Z</time>
      </trkpt>
      <trkpt lat="42.83752" lon="2.07186">
        <ele>765.35</ele>
        <time>2012-07-10T08:35:15Z</time>
      </trkpt>
      <trkpt lat="42.83754" lon="2.07168">
        <ele>765.35</ele>
        <time>2012-07-10T08:35:16Z</time>
      </trkpt>
      <trkpt lat="42.83759" lon="2.07112">
        <ele>761.5</ele>
        <time>2012-07-10T08:35:19Z</time>
      </trkpt>
      <trkpt lat="42.83763" lon="2.07056">
        <ele>757.66</ele>
        <time>2012-07-10T08:35:22Z</time>
      </trkpt>
      <trkpt lat="42.83767" lon="2.07009">
        <ele>753.33</ele>
        <time>2012-07-10T08:35:25Z</time>
      </trkpt>
      <trkpt lat="42.83767" lon="2.06995">
        <ele>752.37</ele>
        <time>2012-07-10T08:35:26Z</time>
      </trkpt>
      <trkpt lat="42.83768" lon="2.06954">
        <ele>749.97</ele>
        <time>2012-07-10T08:35:29Z</time>
      </trkpt>
      <trkpt lat="42.83782" lon="2.06892">
        <ele>745.16</ele>
        <time>2012-07-10T08:35:34Z</time>
      </trkpt>
      <trkpt lat="42.8379" lon="2.06848">
        <ele>741.79</ele>
        <time>2012-07-10T08:35:37Z</time>
      </trkpt>
      <trkpt lat="42.83794" lon="2.06817">
        <ele>740.83</ele>
        <time>2012-07-10T08:35:39Z</time>
      </trkpt>
      <trkpt lat="42.83798" lon="2.06786">
        <ele>738.43</ele>
        <time>2012-07-10T08:35:41Z</time>
      </trkpt>
      <trkpt lat="42.83812" lon="2.0673">
        <ele>734.58</ele>
        <time>2012-07-10T08:35:45Z</time>
      </trkpt>
      <trkpt lat="42.83817" lon="2.06718">
        <ele>733.62</ele>
        <time>2012-07-10T08:35:46Z</time>
      </trkpt>
      <trkpt lat="42.83853" lon="2.06672">
        <ele>729.78</ele>
        <time>2012-07-10T08:35:51Z</time>
      </trkpt>
      <trkpt lat="42.83861" lon="2.06665">
        <ele>728.82</ele>
        <time>2012-07-10T08:35:52Z</time>
      </trkpt>
      <trkpt lat="42.83868" lon="2.06634">
        <ele>724.49</ele>
        <time>2012-07-10T08:35:57Z</time>
      </trkpt>
      <trkpt lat="42.83845" lon="2.06622">
        <ele>722.57</ele>
        <time>2012-07-10T08:36:00Z</time>
      </trkpt>
      <trkpt lat="42.83819" lon="2.06611">
        <ele>720.65</ele>
        <time>2012-07-10T08:36:04Z</time>
      </trkpt>
      <trkpt lat="42.83817" lon="2.06601">
        <ele>719.68</ele>
        <time>2012-07-10T08:36:05Z</time>
      </trkpt>
      <trkpt lat="42.83813" lon="2.06529">
        <ele>715.36</ele>
        <time>2012-07-10T08:36:11Z</time>
      </trkpt>
      <trkpt lat="42.8381" lon="2.06491">
        <ele>713.44</ele>
        <time>2012-07-10T08:36:14Z</time>
      </trkpt>
      <trkpt lat="42.83811" lon="2.06468">
        <ele>712.47</ele>
        <time>2012-07-10T08:36:16Z</time>
      </trkpt>
      <trkpt lat="42.83819" lon="2.06446">
        <ele>711.03</ele>
        <time>2012-07-10T08:36:18Z</time>
      </trkpt>
      <trkpt lat="42.83852" lon="2.0639">
        <ele>706.71</ele>
        <time>2012-07-10T08:36:23Z</time>
      </trkpt>
      <trkpt lat="42.83876" lon="2.06348">
        <ele>703.82</ele>
        <time>2012-07-10T08:36:27Z</time>
      </trkpt>
      <trkpt lat="42.8388" lon="2.06299">
        <ele>699.98</ele>
        <time>2012-07-10T08:36:33Z</time>
      </trkpt>
      <trkpt lat="42.83852" lon="2.06298">
        <ele>697.09</ele>
        <time>2012-07-10T08:36:38Z</time>
      </trkpt>
      <trkpt lat="42.83803" lon="2.06355">
        <ele>692.77</ele>
        <time>2012-07-10T08:36:45Z</time>
      </trkpt>
      <trkpt lat="42.83773" lon="2.06391">
        <ele>690.36</ele>
        <time>2012-07-10T08:36:49Z</time>
      </trkpt>
      <trkpt lat="42.83766" lon="2.064">
        <ele>689.4</ele>
        <time>2012-07-10T08:36:50Z</time>
      </trkpt>
      <trkpt lat="42.83728" lon="2.06412">
        <ele>685.56</ele>
        <time>2012-07-10T08:36:56Z</time>
      </trkpt>
      <trkpt lat="42.83722" lon="2.06401">
        <ele>682.67</ele>
        <time>2012-07-10T08:37:07Z</time>
      </trkpt>
      <trkpt lat="42.83722" lon="2.064">
        <ele>682.67</ele>
        <time>2012-07-10T08:37:20Z</time>
      </trkpt>
      <trkpt lat="42.83703" lon="2.06439">
        <ele>682.19</ele>
        <time>2012-07-10T08:37:29Z</time>
      </trkpt>
      <trkpt lat="42.83699" lon="2.06447">
        <ele>681.71</ele>
        <time>2012-07-10T08:37:31Z</time>
      </trkpt>
      <trkpt lat="42.83675" lon="2.0646">
        <ele>681.23</ele>
        <time>2012-07-10T08:37:37Z</time>
      </trkpt>
      <trkpt lat="42.83631" lon="2.0645">
        <ele>680.27</ele>
        <time>2012-07-10T08:37:47Z</time>
      </trkpt>
      <trkpt lat="42.83602" lon="2.06465">
        <ele>679.31</ele>
        <time>2012-07-10T08:37:55Z</time>
      </trkpt>
      <trkpt lat="42.83584" lon="2.06485">
        <ele>679.31</ele>
        <time>2012-07-10T08:38:00Z</time>
      </trkpt>
      <trkpt lat="42.8357" lon="2.06508">
        <ele>678.83</ele>
        <time>2012-07-10T08:38:06Z</time>
      </trkpt>
      <trkpt lat="42.83555" lon="2.06553">
        <ele>677.87</ele>
        <time>2012-07-10T08:38:22Z</time>
      </trkpt>
      <trkpt lat="42.83547" lon="2.06549">
        <ele>677.39</ele>
        <time>2012-07-10T08:38:37Z</time>
      </trkpt>
      <trkpt lat="42.83537" lon="2.06555">
        <ele>676.91</ele>
        <time>2012-07-10T08:38:49Z</time>
      </trkpt>
      <trkpt lat="42.83524" lon="2.06563">
        <ele>676.91</ele>
        <time>2012-07-10T08:39:07Z</time>
      </trkpt>
      <trkpt lat="42.83521" lon="2.06567">
        <ele>677.87</ele>
        <time>2012-07-10T08:39:28Z</time>
      </trkpt>
      <trkpt lat="42.83519" lon="2.06573">
        <ele>677.87</ele>
        <time>2012-07-10T08:40:12Z</time>
      </trkpt>
      <trkpt lat="42.83509" lon="2.06587">
        <ele>679.79</ele>
        <time>2012-07-10T08:40:27Z</time>
      </trkpt>
      <trkpt lat="42.83504" lon="2.0659">
        <ele>681.23</ele>
        <time>2012-07-10T08:40:42Z</time>
      </trkpt>
      <trkpt lat="42.83503" lon="2.06586">
        <ele>681.23</ele>
        <time>2012-07-10T08:40:54Z</time>
      </trkpt>
      <trkpt lat="42.83506" lon="2.06588">
        <ele>681.71</ele>
        <time>2012-07-10T08:41:06Z</time>
      </trkpt>
      <trkpt lat="42.83506" lon="2.06585">
        <ele>681.23</ele>
        <time>2012-07-10T08:41:20Z</time>
      </trkpt>
      <trkpt lat="42.83507" lon="2.06591">
        <ele>681.23</ele>
        <time>2012-07-10T08:41:38Z</time>
      </trkpt>
      <trkpt lat="42.83506" lon="2.0659">
        <ele>681.23</ele>
        <time>2012-07-10T08:42:22Z</time>
      </trkpt>
      <trkpt lat="42.83509" lon="2.06587">
        <ele>681.23</ele>
        <time>2012-07-10T08:42:44Z</time>
      </trkpt>
      <trkpt lat="42.83509" lon="2.06588">
        <ele>680.75</ele>
        <time>2012-07-10T08:43:04Z</time>
      </trkpt>
      <trkpt lat="42.83504" lon="2.06588">
        <ele>680.27</ele>
        <time>2012-07-10T08:43:22Z</time>
      </trkpt>
      <trkpt lat="42.83504" lon="2.06588">
        <ele>680.27</ele>
        <time>2012-07-10T08:43:32Z</time>
      </trkpt>
      <trkpt lat="42.83512" lon="2.06583">
        <ele>679.79</ele>
        <time>2012-07-10T08:43:38Z</time>
      </trkpt>
      <trkpt lat="42.83514" lon="2.0658">
        <ele>679.79</ele>
        <time>2012-07-10T08:43:40Z</time>
      </trkpt>
      <trkpt lat="42.83521" lon="2.06565">
        <ele>676.91</ele>
        <time>2012-07-10T08:43:54Z</time>
      </trkpt>
      <trkpt lat="42.83518" lon="2.06572">
        <ele>676.91</ele>
        <time>2012-07-10T08:45:28Z</time>
      </trkpt>
      <trkpt lat="42.83515" lon="2.06577">
        <ele>677.39</ele>
        <time>2012-07-10T08:45:33Z</time>
      </trkpt>
      <trkpt lat="42.83505" lon="2.06587">
        <ele>679.79</ele>
        <time>2012-07-10T08:45:48Z</time>
      </trkpt>
      <trkpt lat="42.83501" lon="2.06587">
        <ele>679.31</ele>
        <time>2012-07-10T08:46:23Z</time>
      </trkpt>
      <trkpt lat="42.83483" lon="2.06583">
        <ele>682.67</ele>
        <time>2012-07-10T08:47:11Z</time>
      </trkpt>
      <trkpt lat="42.83485" lon="2.06584">
        <ele>643.26</ele>
        <time>2012-07-10T08:47:12Z</time>
      </trkpt>
      <trkpt lat="42.83497" lon="2.06583">
        <ele>644.22</ele>
        <time>2012-07-10T08:47:54Z</time>
      </trkpt>
      <trkpt lat="42.83497" lon="2.06585">
        <ele>644.22</ele>
        <time>2012-07-10T08:48:05Z</time>
      </trkpt>
      <trkpt lat="42.83498" lon="2.06585">
        <ele>644.7</ele>
        <time>2012-07-10T08:48:21Z</time>
      </trkpt>
      <trkpt lat="42.83484" lon="2.06587">
        <ele>646.62</ele>
        <time>2012-07-10T08:48:35Z</time>
      </trkpt>
      <trkpt lat="42.83472" lon="2.06599">
        <ele>649.03</ele>
        <time>2012-07-10T08:48:53Z</time>
      </trkpt>
      <trkpt lat="42.83457" lon="2.06609">
        <ele>647.1</ele>
        <time>2012-07-10T08:49:06Z</time>
      </trkpt>
      <trkpt lat="42.83441" lon="2.06625">
        <ele>648.07</ele>
        <time>2012-07-10T08:49:20Z</time>
      </trkpt>
      <trkpt lat="42.83434" lon="2.06633">
        <ele>649.03</ele>
        <time>2012-07-10T08:49:28Z</time>
      </trkpt>
      <trkpt lat="42.83421" lon="2.06631">
        <ele>650.95</ele>
        <time>2012-07-10T08:49:37Z</time>
      </trkpt>
      <trkpt lat="42.83411" lon="2.06637">
        <ele>653.83</ele>
        <time>2012-07-10T08:49:52Z</time>
      </trkpt>
      <trkpt lat="42.83412" lon="2.06639">
        <ele>653.83</ele>
        <time>2012-07-10T08:50:00Z</time>
      </trkpt>
      <trkpt lat="42.83409" lon="2.06645">
        <ele>655.28</ele>
        <time>2012-07-10T08:50:13Z</time>
      </trkpt>
      <trkpt lat="42.83403" lon="2.06649">
        <ele>655.76</ele>
        <time>2012-07-10T08:50:18Z</time>
      </trkpt>
      <trkpt lat="42.83384" lon="2.06673">
        <ele>658.64</ele>
        <time>2012-07-10T08:50:34Z</time>
      </trkpt>
      <trkpt lat="42.83378" lon="2.06681">
        <ele>660.56</ele>
        <time>2012-07-10T08:50:41Z</time>
      </trkpt>
      <trkpt lat="42.83377" lon="2.06709">
        <ele>663.45</ele>
        <time>2012-07-10T08:50:55Z</time>
      </trkpt>
      <trkpt lat="42.83378" lon="2.06718">
        <ele>664.89</ele>
        <time>2012-07-10T08:50:59Z</time>
      </trkpt>
      <trkpt lat="42.83381" lon="2.06736">
        <ele>667.77</ele>
        <time>2012-07-10T08:51:13Z</time>
      </trkpt>
      <trkpt lat="42.83378" lon="2.06751">
        <ele>669.7</ele>
        <time>2012-07-10T08:51:32Z</time>
      </trkpt>
      <trkpt lat="42.83371" lon="2.06771">
        <ele>670.66</ele>
        <time>2012-07-10T08:51:50Z</time>
      </trkpt>
      <trkpt lat="42.83369" lon="2.06777">
        <ele>669.22</ele>
        <time>2012-07-10T08:51:59Z</time>
      </trkpt>
      <trkpt lat="42.83358" lon="2.06783">
        <ele>665.85</ele>
        <time>2012-07-10T08:52:11Z</time>
      </trkpt>
      <trkpt lat="42.83356" lon="2.06785">
        <ele>664.89</ele>
        <time>2012-07-10T08:52:18Z</time>
      </trkpt>
      <trkpt lat="42.83336" lon="2.06786">
        <ele>661.52</ele>
        <time>2012-07-10T08:52:31Z</time>
      </trkpt>
      <trkpt lat="42.83317" lon="2.06789">
        <ele>657.68</ele>
        <time>2012-07-10T08:52:41Z</time>
      </trkpt>
      <trkpt lat="42.83307" lon="2.06793">
        <ele>655.76</ele>
        <time>2012-07-10T08:52:47Z</time>
      </trkpt>
      <trkpt lat="42.83297" lon="2.06787">
        <ele>654.31</ele>
        <time>2012-07-10T08:52:54Z</time>
      </trkpt>
      <trkpt lat="42.83286" lon="2.06767">
        <ele>650.95</ele>
        <time>2012-07-10T08:53:05Z</time>
      </trkpt>
      <trkpt lat="42.83284" lon="2.06765">
        <ele>650.95</ele>
        <time>2012-07-10T08:53:06Z</time>
      </trkpt>
      <trkpt lat="42.83268" lon="2.06748">
        <ele>648.07</ele>
        <time>2012-07-10T08:53:18Z</time>
      </trkpt>
      <trkpt lat="42.83265" lon="2.06746">
        <ele>647.1</ele>
        <time>2012-07-10T08:53:22Z</time>
      </trkpt>
      <trkpt lat="42.83259" lon="2.06752">
        <ele>645.18</ele>
        <time>2012-07-10T08:53:27Z</time>
      </trkpt>
      <trkpt lat="42.83257" lon="2.06767">
        <ele>643.26</ele>
        <time>2012-07-10T08:53:34Z</time>
      </trkpt>
      <trkpt lat="42.83256" lon="2.06775">
        <ele>641.82</ele>
        <time>2012-07-10T08:53:38Z</time>
      </trkpt>
      <trkpt lat="42.83253" lon="2.068">
        <ele>638.45</ele>
        <time>2012-07-10T08:53:47Z</time>
      </trkpt>
      <trkpt lat="42.83242" lon="2.06826">
        <ele>635.09</ele>
        <time>2012-07-10T08:53:57Z</time>
      </trkpt>
      <trkpt lat="42.83232" lon="2.06849">
        <ele>631.72</ele>
        <time>2012-07-10T08:54:06Z</time>
      </trkpt>
      <trkpt lat="42.83231" lon="2.06869">
        <ele>628.36</ele>
        <time>2012-07-10T08:54:14Z</time>
      </trkpt>
      <trkpt lat="42.83223" lon="2.06897">
        <ele>625.47</ele>
        <time>2012-07-10T08:54:23Z</time>
      </trkpt>
      <trkpt lat="42.83218" lon="2.06919">
        <ele>621.63</ele>
        <time>2012-07-10T08:54:33Z</time>
      </trkpt>
      <trkpt lat="42.83208" lon="2.06948">
        <ele>618.26</ele>
        <time>2012-07-10T08:54:43Z</time>
      </trkpt>
      <trkpt lat="42.83196" lon="2.06976">
        <ele>614.9</ele>
        <time>2012-07-10T08:54:51Z</time>
      </trkpt>
      <trkpt lat="42.83184" lon="2.07013">
        <ele>612.02</ele>
        <time>2012-07-10T08:55:01Z</time>
      </trkpt>
      <trkpt lat="42.83173" lon="2.07042">
        <ele>608.65</ele>
        <time>2012-07-10T08:55:10Z</time>
      </trkpt>
      <trkpt lat="42.83165" lon="2.07063">
        <ele>606.25</ele>
        <time>2012-07-10T08:55:16Z</time>
      </trkpt>
      <trkpt lat="42.83154" lon="2.0708">
        <ele>604.33</ele>
        <time>2012-07-10T08:55:24Z</time>
      </trkpt>
      <trkpt lat="42.83149" lon="2.07084">
        <ele>604.81</ele>
        <time>2012-07-10T08:55:41Z</time>
      </trkpt>
      <trkpt lat="42.83149" lon="2.07087">
        <ele>603.85</ele>
        <time>2012-07-10T08:55:55Z</time>
      </trkpt>
      <trkpt lat="42.83138" lon="2.07127">
        <ele>602.88</ele>
        <time>2012-07-10T08:56:10Z</time>
      </trkpt>
      <trkpt lat="42.83127" lon="2.07155">
        <ele>603.36</ele>
        <time>2012-07-10T08:56:25Z</time>
      </trkpt>
      <trkpt lat="42.83118" lon="2.07186">
        <ele>604.33</ele>
        <time>2012-07-10T08:56:40Z</time>
      </trkpt>
      <trkpt lat="42.83109" lon="2.07207">
        <ele>603.85</ele>
        <time>2012-07-10T08:56:51Z</time>
      </trkpt>
      <trkpt lat="42.83093" lon="2.07238">
        <ele>604.33</ele>
        <time>2012-07-10T08:57:03Z</time>
      </trkpt>
      <trkpt lat="42.8308" lon="2.0727">
        <ele>603.85</ele>
        <time>2012-07-10T08:57:16Z</time>
      </trkpt>
      <trkpt lat="42.83066" lon="2.07314">
        <ele>603.36</ele>
        <time>2012-07-10T08:57:29Z</time>
      </trkpt>
      <trkpt lat="42.83051" lon="2.07337">
        <ele>601.44</ele>
        <time>2012-07-10T08:57:38Z</time>
      </trkpt>
      <trkpt lat="42.83039" lon="2.07374">
        <ele>601.44</ele>
        <time>2012-07-10T08:57:49Z</time>
      </trkpt>
      <trkpt lat="42.83033" lon="2.07385">
        <ele>601.44</ele>
        <time>2012-07-10T08:57:55Z</time>
      </trkpt>
      <trkpt lat="42.83024" lon="2.07397">
        <ele>601.44</ele>
        <time>2012-07-10T08:58:00Z</time>
      </trkpt>
      <trkpt lat="42.83016" lon="2.07408">
        <ele>601.44</ele>
        <time>2012-07-10T08:58:05Z</time>
      </trkpt>
      <trkpt lat="42.8301" lon="2.07427">
        <ele>600.96</ele>
        <time>2012-07-10T08:58:10Z</time>
      </trkpt>
      <trkpt lat="42.83001" lon="2.0745">
        <ele>599.52</ele>
        <time>2012-07-10T08:58:23Z</time>
      </trkpt>
      <trkpt lat="42.82995" lon="2.07465">
        <ele>599.04</ele>
        <time>2012-07-10T08:58:36Z</time>
      </trkpt>
      <trkpt lat="42.82988" lon="2.0748">
        <ele>598.08</ele>
        <time>2012-07-10T08:58:49Z</time>
      </trkpt>
      <trkpt lat="42.8297" lon="2.07517">
        <ele>597.12</ele>
        <time>2012-07-10T08:59:04Z</time>
      </trkpt>
      <trkpt lat="42.82948" lon="2.07568">
        <ele>594.71</ele>
        <time>2012-07-10T08:59:19Z</time>
      </trkpt>
      <trkpt lat="42.82933" lon="2.07601">
        <ele>592.31</ele>
        <time>2012-07-10T08:59:30Z</time>
      </trkpt>
      <trkpt lat="42.82932" lon="2.07603">
        <ele>592.31</ele>
        <time>2012-07-10T08:59:54Z</time>
      </trkpt>
      <trkpt lat="42.8293" lon="2.07606">
        <ele>592.79</ele>
        <time>2012-07-10T09:00:06Z</time>
      </trkpt>
      <trkpt lat="42.82926" lon="2.07614">
        <ele>593.27</ele>
        <time>2012-07-10T09:00:17Z</time>
      </trkpt>
      <trkpt lat="42.82925" lon="2.07616">
        <ele>593.27</ele>
        <time>2012-07-10T09:00:18Z</time>
      </trkpt>
      <trkpt lat="42.82923" lon="2.07623">
        <ele>593.75</ele>
        <time>2012-07-10T09:00:22Z</time>
      </trkpt>
      <trkpt lat="42.82922" lon="2.07627">
        <ele>594.23</ele>
        <time>2012-07-10T09:00:24Z</time>
      </trkpt>
      <trkpt lat="42.8292" lon="2.07634">
        <ele>594.71</ele>
        <time>2012-07-10T09:00:28Z</time>
      </trkpt>
      <trkpt lat="42.8291" lon="2.07648">
        <ele>596.15</ele>
        <time>2012-07-10T09:00:37Z</time>
      </trkpt>
      <trkpt lat="42.82906" lon="2.07655">
        <ele>595.67</ele>
        <time>2012-07-10T09:00:41Z</time>
      </trkpt>
      <trkpt lat="42.82885" lon="2.07668">
        <ele>594.71</ele>
        <time>2012-07-10T09:00:53Z</time>
      </trkpt>
      <trkpt lat="42.82878" lon="2.07681">
        <ele>592.79</ele>
        <time>2012-07-10T09:01:08Z</time>
      </trkpt>
      <trkpt lat="42.82871" lon="2.07694">
        <ele>590.39</ele>
        <time>2012-07-10T09:01:16Z</time>
      </trkpt>
      <trkpt lat="42.82865" lon="2.07702">
        <ele>589.43</ele>
        <time>2012-07-10T09:01:20Z</time>
      </trkpt>
      <trkpt lat="42.82848" lon="2.07738">
        <ele>586.54</ele>
        <time>2012-07-10T09:01:33Z</time>
      </trkpt>
      <trkpt lat="42.82865" lon="2.07764">
        <ele>586.54</ele>
        <time>2012-07-10T09:01:46Z</time>
      </trkpt>
      <trkpt lat="42.82859" lon="2.07792">
        <ele>588.46</ele>
        <time>2012-07-10T09:02:00Z</time>
      </trkpt>
      <trkpt lat="42.82847" lon="2.07839">
        <ele>587.98</ele>
        <time>2012-07-10T09:02:15Z</time>
      </trkpt>
      <trkpt lat="42.82841" lon="2.07859">
        <ele>587.02</ele>
        <time>2012-07-10T09:02:19Z</time>
      </trkpt>
      <trkpt lat="42.82827" lon="2.07875">
        <ele>587.02</ele>
        <time>2012-07-10T09:02:25Z</time>
      </trkpt>
      <trkpt lat="42.8282" lon="2.07889">
        <ele>586.06</ele>
        <time>2012-07-10T09:02:30Z</time>
      </trkpt>
      <trkpt lat="42.82827" lon="2.07934">
        <ele>586.06</ele>
        <time>2012-07-10T09:02:44Z</time>
      </trkpt>
      <trkpt lat="42.82826" lon="2.07982">
        <ele>587.02</ele>
        <time>2012-07-10T09:03:01Z</time>
      </trkpt>
      <trkpt lat="42.8281" lon="2.08026">
        <ele>588.46</ele>
        <time>2012-07-10T09:03:21Z</time>
      </trkpt>
      <trkpt lat="42.82808" lon="2.08034">
        <ele>588.95</ele>
        <time>2012-07-10T09:03:25Z</time>
      </trkpt>
      <trkpt lat="42.82796" lon="2.0807">
        <ele>591.35</ele>
        <time>2012-07-10T09:03:44Z</time>
      </trkpt>
      <trkpt lat="42.82784" lon="2.0812">
        <ele>590.39</ele>
        <time>2012-07-10T09:03:57Z</time>
      </trkpt>
      <trkpt lat="42.82773" lon="2.0816">
        <ele>589.43</ele>
        <time>2012-07-10T09:04:08Z</time>
      </trkpt>
      <trkpt lat="42.82767" lon="2.08192">
        <ele>586.06</ele>
        <time>2012-07-10T09:04:20Z</time>
      </trkpt>
      <trkpt lat="42.82766" lon="2.08215">
        <ele>582.7</ele>
        <time>2012-07-10T09:04:29Z</time>
      </trkpt>
      <trkpt lat="42.82765" lon="2.08242">
        <ele>579.33</ele>
        <time>2012-07-10T09:04:40Z</time>
      </trkpt>
      <trkpt lat="42.82771" lon="2.08267">
        <ele>576.93</ele>
        <time>2012-07-10T09:04:51Z</time>
      </trkpt>
      <trkpt lat="42.82769" lon="2.08294">
        <ele>575.01</ele>
        <time>2012-07-10T09:05:01Z</time>
      </trkpt>
      <trkpt lat="42.82766" lon="2.08307">
        <ele>573.08</ele>
        <time>2012-07-10T09:05:07Z</time>
      </trkpt>
      <trkpt lat="42.82757" lon="2.08321">
        <ele>571.64</ele>
        <time>2012-07-10T09:05:13Z</time>
      </trkpt>
      <trkpt lat="42.82762" lon="2.08345">
        <ele>571.64</ele>
        <time>2012-07-10T09:05:25Z</time>
      </trkpt>
      <trkpt lat="42.8277" lon="2.08361">
        <ele>572.6</ele>
        <time>2012-07-10T09:05:34Z</time>
      </trkpt>
      <trkpt lat="42.82776" lon="2.08397">
        <ele>574.04</ele>
        <time>2012-07-10T09:05:49Z</time>
      </trkpt>
      <trkpt lat="42.82777" lon="2.08401">
        <ele>574.53</ele>
        <time>2012-07-10T09:05:51Z</time>
      </trkpt>
      <trkpt lat="42.82778" lon="2.08413">
        <ele>575.01</ele>
        <time>2012-07-10T09:06:05Z</time>
      </trkpt>
      <trkpt lat="42.82774" lon="2.08437">
        <ele>573.56</ele>
        <time>2012-07-10T09:06:20Z</time>
      </trkpt>
      <trkpt lat="42.82742" lon="2.08482">
        <ele>571.64</ele>
        <time>2012-07-10T09:06:34Z</time>
      </trkpt>
      <trkpt lat="42.82719" lon="2.08506">
        <ele>569.72</ele>
        <time>2012-07-10T09:06:45Z</time>
      </trkpt>
      <trkpt lat="42.82706" lon="2.0856">
        <ele>566.83</ele>
        <time>2012-07-10T09:06:57Z</time>
      </trkpt>
      <trkpt lat="42.82672" lon="2.08609">
        <ele>565.87</ele>
        <time>2012-07-10T09:07:11Z</time>
      </trkpt>
      <trkpt lat="42.82659" lon="2.08675">
        <ele>565.39</ele>
        <time>2012-07-10T09:07:28Z</time>
      </trkpt>
      <trkpt lat="42.82656" lon="2.08684">
        <ele>565.39</ele>
        <time>2012-07-10T09:07:32Z</time>
      </trkpt>
      <trkpt lat="42.82657" lon="2.08677">
        <ele>565.39</ele>
        <time>2012-07-10T09:07:37Z</time>
      </trkpt>
      <trkpt lat="42.8266" lon="2.08668">
        <ele>565.39</ele>
        <time>2012-07-10T09:07:53Z</time>
      </trkpt>
      <trkpt lat="42.82659" lon="2.08669">
        <ele>564.91</ele>
        <time>2012-07-10T09:07:58Z</time>
      </trkpt>
      <trkpt lat="42.82663" lon="2.08667">
        <ele>565.39</ele>
        <time>2012-07-10T09:08:08Z</time>
      </trkpt>
      <trkpt lat="42.82662" lon="2.08665">
        <ele>566.35</ele>
        <time>2012-07-10T09:08:30Z</time>
      </trkpt>
      <trkpt lat="42.82662" lon="2.08664">
        <ele>566.35</ele>
        <time>2012-07-10T09:08:39Z</time>
      </trkpt>
      <trkpt lat="42.8266" lon="2.08669">
        <ele>565.39</ele>
        <time>2012-07-10T09:08:57Z</time>
      </trkpt>
      <trkpt lat="42.82662" lon="2.0867">
        <ele>565.87</ele>
        <time>2012-07-10T09:09:16Z</time>
      </trkpt>
      <trkpt lat="42.82662" lon="2.08672">
        <ele>565.87</ele>
        <time>2012-07-10T09:09:31Z</time>
      </trkpt>
      <trkpt lat="42.82662" lon="2.08675">
        <ele>565.87</ele>
        <time>2012-07-10T09:09:42Z</time>
      </trkpt>
      <trkpt lat="42.8265" lon="2.08715">
        <ele>565.87</ele>
        <time>2012-07-10T09:09:57Z</time>
      </trkpt>
      <trkpt lat="42.82651" lon="2.08743">
        <ele>566.83</ele>
        <time>2012-07-10T09:10:10Z</time>
      </trkpt>
      <trkpt lat="42.82651" lon="2.08745">
        <ele>566.83</ele>
        <time>2012-07-10T09:10:13Z</time>
      </trkpt>
      <trkpt lat="42.82652" lon="2.08747">
        <ele>566.83</ele>
        <time>2012-07-10T09:10:16Z</time>
      </trkpt>
      <trkpt lat="42.82637" lon="2.08753">
        <ele>566.83</ele>
        <time>2012-07-10T09:10:26Z</time>
      </trkpt>
      <trkpt lat="42.82629" lon="2.08755">
        <ele>567.32</ele>
        <time>2012-07-10T09:10:30Z</time>
      </trkpt>
      <trkpt lat="42.82612" lon="2.08776">
        <ele>569.72</ele>
        <time>2012-07-10T09:10:46Z</time>
      </trkpt>
      <trkpt lat="42.8259" lon="2.08786">
        <ele>572.6</ele>
        <time>2012-07-10T09:11:02Z</time>
      </trkpt>
      <trkpt lat="42.82586" lon="2.08787">
        <ele>573.08</ele>
        <time>2012-07-10T09:11:05Z</time>
      </trkpt>
      <trkpt lat="42.82577" lon="2.08788">
        <ele>574.53</ele>
        <time>2012-07-10T09:11:12Z</time>
      </trkpt>
      <trkpt lat="42.82575" lon="2.08788">
        <ele>574.53</ele>
        <time>2012-07-10T09:11:14Z</time>
      </trkpt>
      <trkpt lat="42.8257" lon="2.08791">
        <ele>575.01</ele>
        <time>2012-07-10T09:11:19Z</time>
      </trkpt>
      <trkpt lat="42.82568" lon="2.08799">
        <ele>575.97</ele>
        <time>2012-07-10T09:11:24Z</time>
      </trkpt>
      <trkpt lat="42.82574" lon="2.08819">
        <ele>577.41</ele>
        <time>2012-07-10T09:11:37Z</time>
      </trkpt>
      <trkpt lat="42.82572" lon="2.08847">
        <ele>579.33</ele>
        <time>2012-07-10T09:11:52Z</time>
      </trkpt>
      <trkpt lat="42.82573" lon="2.08883">
        <ele>579.33</ele>
        <time>2012-07-10T09:12:04Z</time>
      </trkpt>
      <trkpt lat="42.82573" lon="2.08911">
        <ele>580.29</ele>
        <time>2012-07-10T09:12:16Z</time>
      </trkpt>
      <trkpt lat="42.8257" lon="2.08917">
        <ele>580.77</ele>
        <time>2012-07-10T09:12:20Z</time>
      </trkpt>
      <trkpt lat="42.82563" lon="2.08921">
        <ele>581.73</ele>
        <time>2012-07-10T09:12:26Z</time>
      </trkpt>
      <trkpt lat="42.82568" lon="2.08917">
        <ele>581.73</ele>
        <time>2012-07-10T09:12:30Z</time>
      </trkpt>
      <trkpt lat="42.82572" lon="2.08904">
        <ele>581.25</ele>
        <time>2012-07-10T09:12:33Z</time>
      </trkpt>
      <trkpt lat="42.82573" lon="2.08892">
        <ele>580.29</ele>
        <time>2012-07-10T09:12:35Z</time>
      </trkpt>
      <trkpt lat="42.82569" lon="2.08835">
        <ele>579.33</ele>
        <time>2012-07-10T09:12:44Z</time>
      </trkpt>
      <trkpt lat="42.82571" lon="2.08817">
        <ele>579.33</ele>
        <time>2012-07-10T09:12:48Z</time>
      </trkpt>
      <trkpt lat="42.82571" lon="2.08799">
        <ele>578.37</ele>
        <time>2012-07-10T09:12:51Z</time>
      </trkpt>
      <trkpt lat="42.82596" lon="2.08784">
        <ele>574.04</ele>
        <time>2012-07-10T09:12:57Z</time>
      </trkpt>
      <trkpt lat="42.82606" lon="2.08781">
        <ele>573.08</ele>
        <time>2012-07-10T09:13:00Z</time>
      </trkpt>
      <trkpt lat="42.82608" lon="2.08781">
        <ele>572.12</ele>
        <time>2012-07-10T09:13:01Z</time>
      </trkpt>
      <trkpt lat="42.82623" lon="2.08757">
        <ele>569.72</ele>
        <time>2012-07-10T09:13:10Z</time>
      </trkpt>
      <trkpt lat="42.82639" lon="2.08753">
        <ele>568.28</ele>
        <time>2012-07-10T09:13:14Z</time>
      </trkpt>
      <trkpt lat="42.82644" lon="2.08753">
        <ele>567.8</ele>
        <time>2012-07-10T09:13:16Z</time>
      </trkpt>
      <trkpt lat="42.8265" lon="2.08745">
        <ele>568.28</ele>
        <time>2012-07-10T09:13:31Z</time>
      </trkpt>
      <trkpt lat="42.8265" lon="2.08745">
        <ele>568.76</ele>
        <time>2012-07-10T09:14:01Z</time>
      </trkpt>
      <trkpt lat="42.82649" lon="2.08745">
        <ele>567.8</ele>
        <time>2012-07-10T09:14:23Z</time>
      </trkpt>
      <trkpt lat="42.82652" lon="2.0875">
        <ele>568.76</ele>
        <time>2012-07-10T09:14:27Z</time>
      </trkpt>
      <trkpt lat="42.82661" lon="2.08752">
        <ele>568.76</ele>
        <time>2012-07-10T09:14:31Z</time>
      </trkpt>
      <trkpt lat="42.82684" lon="2.08768">
        <ele>568.28</ele>
        <time>2012-07-10T09:14:45Z</time>
      </trkpt>
      <trkpt lat="42.82696" lon="2.08801">
        <ele>567.8</ele>
        <time>2012-07-10T09:14:58Z</time>
      </trkpt>
      <trkpt lat="42.8271" lon="2.08835">
        <ele>570.68</ele>
        <time>2012-07-10T09:15:14Z</time>
      </trkpt>
      <trkpt lat="42.82723" lon="2.08866">
        <ele>572.6</ele>
        <time>2012-07-10T09:15:30Z</time>
      </trkpt>
      <trkpt lat="42.82725" lon="2.08869">
        <ele>573.08</ele>
        <time>2012-07-10T09:15:32Z</time>
      </trkpt>
      <trkpt lat="42.82735" lon="2.0891">
        <ele>574.04</ele>
        <time>2012-07-10T09:15:44Z</time>
      </trkpt>
      <trkpt lat="42.82717" lon="2.09003">
        <ele>571.64</ele>
        <time>2012-07-10T09:15:58Z</time>
      </trkpt>
      <trkpt lat="42.82701" lon="2.09056">
        <ele>570.2</ele>
        <time>2012-07-10T09:16:05Z</time>
      </trkpt>
      <trkpt lat="42.82695" lon="2.09079">
        <ele>569.24</ele>
        <time>2012-07-10T09:16:08Z</time>
      </trkpt>
      <trkpt lat="42.82709" lon="2.092">
        <ele>567.8</ele>
        <time>2012-07-10T09:16:22Z</time>
      </trkpt>
      <trkpt lat="42.8272" lon="2.09251">
        <ele>566.35</ele>
        <time>2012-07-10T09:16:28Z</time>
      </trkpt>
      <trkpt lat="42.82721" lon="2.09286">
        <ele>565.87</ele>
        <time>2012-07-10T09:16:32Z</time>
      </trkpt>
      <trkpt lat="42.82711" lon="2.09412">
        <ele>562.03</ele>
        <time>2012-07-10T09:16:46Z</time>
      </trkpt>
      <trkpt lat="42.82711" lon="2.09422">
        <ele>562.03</ele>
        <time>2012-07-10T09:16:47Z</time>
      </trkpt>
      <trkpt lat="42.82693" lon="2.09485">
        <ele>561.07</ele>
        <time>2012-07-10T09:16:54Z</time>
      </trkpt>
      <trkpt lat="42.82694" lon="2.09539">
        <ele>560.11</ele>
        <time>2012-07-10T09:17:00Z</time>
      </trkpt>
      <trkpt lat="42.82717" lon="2.09588">
        <ele>559.14</ele>
        <time>2012-07-10T09:17:06Z</time>
      </trkpt>
      <trkpt lat="42.82727" lon="2.0961">
        <ele>558.66</ele>
        <time>2012-07-10T09:17:09Z</time>
      </trkpt>
      <trkpt lat="42.8274" lon="2.09627">
        <ele>556.74</ele>
        <time>2012-07-10T09:17:13Z</time>
      </trkpt>
      <trkpt lat="42.82742" lon="2.09628">
        <ele>556.26</ele>
        <time>2012-07-10T09:17:22Z</time>
      </trkpt>
      <trkpt lat="42.82743" lon="2.09621">
        <ele>555.78</ele>
        <time>2012-07-10T09:17:28Z</time>
      </trkpt>
      <trkpt lat="42.82742" lon="2.09619">
        <ele>555.78</ele>
        <time>2012-07-10T09:17:30Z</time>
      </trkpt>
      <trkpt lat="42.82745" lon="2.09622">
        <ele>557.7</ele>
        <time>2012-07-10T09:17:35Z</time>
      </trkpt>
      <trkpt lat="42.82746" lon="2.09621">
        <ele>559.14</ele>
        <time>2012-07-10T09:17:53Z</time>
      </trkpt>
      <trkpt lat="42.82746" lon="2.09623">
        <ele>558.66</ele>
        <time>2012-07-10T09:18:26Z</time>
      </trkpt>
      <trkpt lat="42.82744" lon="2.09621">
        <ele>558.66</ele>
        <time>2012-07-10T09:19:05Z</time>
      </trkpt>
      <trkpt lat="42.82743" lon="2.09622">
        <ele>558.18</ele>
        <time>2012-07-10T09:19:07Z</time>
      </trkpt>
      <trkpt lat="42.82741" lon="2.09628">
        <ele>555.78</ele>
        <time>2012-07-10T09:19:22Z</time>
      </trkpt>
      <trkpt lat="42.82741" lon="2.09628">
        <ele>556.74</ele>
        <time>2012-07-10T09:19:42Z</time>
      </trkpt>
      <trkpt lat="42.82741" lon="2.09628">
        <ele>556.74</ele>
        <time>2012-07-10T09:19:46Z</time>
      </trkpt>
      <trkpt lat="42.82759" lon="2.09642">
        <ele>556.26</ele>
        <time>2012-07-10T09:19:53Z</time>
      </trkpt>
      <trkpt lat="42.82818" lon="2.09719">
        <ele>555.3</ele>
        <time>2012-07-10T09:20:07Z</time>
      </trkpt>
      <trkpt lat="42.82894" lon="2.09835">
        <ele>552.41</ele>
        <time>2012-07-10T09:20:23Z</time>
      </trkpt>
      <trkpt lat="42.82961" lon="2.09949">
        <ele>549.05</ele>
        <time>2012-07-10T09:20:39Z</time>
      </trkpt>
      <trkpt lat="42.82966" lon="2.09956">
        <ele>549.05</ele>
        <time>2012-07-10T09:20:40Z</time>
      </trkpt>
      <trkpt lat="42.82985" lon="2.0998">
        <ele>549.05</ele>
        <time>2012-07-10T09:20:44Z</time>
      </trkpt>
      <trkpt lat="42.83005" lon="2.10025">
        <ele>548.09</ele>
        <time>2012-07-10T09:20:50Z</time>
      </trkpt>
      <trkpt lat="42.8301" lon="2.10059">
        <ele>546.65</ele>
        <time>2012-07-10T09:20:54Z</time>
      </trkpt>
      <trkpt lat="42.83013" lon="2.10102">
        <ele>546.17</ele>
        <time>2012-07-10T09:20:59Z</time>
      </trkpt>
      <trkpt lat="42.8301" lon="2.10127">
        <ele>546.65</ele>
        <time>2012-07-10T09:21:02Z</time>
      </trkpt>
      <trkpt lat="42.83012" lon="2.10159">
        <ele>545.69</ele>
        <time>2012-07-10T09:21:06Z</time>
      </trkpt>
      <trkpt lat="42.83036" lon="2.10211">
        <ele>544.72</ele>
        <time>2012-07-10T09:21:13Z</time>
      </trkpt>
      <trkpt lat="42.83093" lon="2.10281">
        <ele>540.88</ele>
        <time>2012-07-10T09:21:24Z</time>
      </trkpt>
      <trkpt lat="42.83153" lon="2.10352">
        <ele>538.48</ele>
        <time>2012-07-10T09:21:35Z</time>
      </trkpt>
      <trkpt lat="42.83174" lon="2.10396">
        <ele>537.99</ele>
        <time>2012-07-10T09:21:40Z</time>
      </trkpt>
      <trkpt lat="42.832" lon="2.10499">
        <ele>536.55</ele>
        <time>2012-07-10T09:21:51Z</time>
      </trkpt>
      <trkpt lat="42.83239" lon="2.10582">
        <ele>536.07</ele>
        <time>2012-07-10T09:22:02Z</time>
      </trkpt>
      <trkpt lat="42.83252" lon="2.10603">
        <ele>536.07</ele>
        <time>2012-07-10T09:22:05Z</time>
      </trkpt>
      <trkpt lat="42.83266" lon="2.10636">
        <ele>535.11</ele>
        <time>2012-07-10T09:22:09Z</time>
      </trkpt>
      <trkpt lat="42.83275" lon="2.1069">
        <ele>534.63</ele>
        <time>2012-07-10T09:22:15Z</time>
      </trkpt>
      <trkpt lat="42.83272" lon="2.10736">
        <ele>534.63</ele>
        <time>2012-07-10T09:22:20Z</time>
      </trkpt>
      <trkpt lat="42.83247" lon="2.10869">
        <ele>532.71</ele>
        <time>2012-07-10T09:22:35Z</time>
      </trkpt>
      <trkpt lat="42.83241" lon="2.10893">
        <ele>532.71</ele>
        <time>2012-07-10T09:22:38Z</time>
      </trkpt>
      <trkpt lat="42.83224" lon="2.10919">
        <ele>532.23</ele>
        <time>2012-07-10T09:22:42Z</time>
      </trkpt>
      <trkpt lat="42.83214" lon="2.1093">
        <ele>531.75</ele>
        <time>2012-07-10T09:22:44Z</time>
      </trkpt>
      <trkpt lat="42.83181" lon="2.10996">
        <ele>530.3</ele>
        <time>2012-07-10T09:22:53Z</time>
      </trkpt>
      <trkpt lat="42.83163" lon="2.11068">
        <ele>530.79</ele>
        <time>2012-07-10T09:23:01Z</time>
      </trkpt>
      <trkpt lat="42.8316" lon="2.11085">
        <ele>530.3</ele>
        <time>2012-07-10T09:23:03Z</time>
      </trkpt>
      <trkpt lat="42.83162" lon="2.11122">
        <ele>530.79</ele>
        <time>2012-07-10T09:23:07Z</time>
      </trkpt>
      <trkpt lat="42.83166" lon="2.11149">
        <ele>530.3</ele>
        <time>2012-07-10T09:23:10Z</time>
      </trkpt>
      <trkpt lat="42.83165" lon="2.11187">
        <ele>529.34</ele>
        <time>2012-07-10T09:23:14Z</time>
      </trkpt>
      <trkpt lat="42.83139" lon="2.11312">
        <ele>528.38</ele>
        <time>2012-07-10T09:23:29Z</time>
      </trkpt>
      <trkpt lat="42.83111" lon="2.11497">
        <ele>526.46</ele>
        <time>2012-07-10T09:23:50Z</time>
      </trkpt>
      <trkpt lat="42.83074" lon="2.11619">
        <ele>524.54</ele>
        <time>2012-07-10T09:24:05Z</time>
      </trkpt>
      <trkpt lat="42.83055" lon="2.11666">
        <ele>525.02</ele>
        <time>2012-07-10T09:24:11Z</time>
      </trkpt>
      <trkpt lat="42.83047" lon="2.11757">
        <ele>523.58</ele>
        <time>2012-07-10T09:24:21Z</time>
      </trkpt>
      <trkpt lat="42.83076" lon="2.11857">
        <ele>522.61</ele>
        <time>2012-07-10T09:24:33Z</time>
      </trkpt>
      <trkpt lat="42.83057" lon="2.11975">
        <ele>521.65</ele>
        <time>2012-07-10T09:24:46Z</time>
      </trkpt>
      <trkpt lat="42.83044" lon="2.12026">
        <ele>521.65</ele>
        <time>2012-07-10T09:24:52Z</time>
      </trkpt>
      <trkpt lat="42.82996" lon="2.12104">
        <ele>519.25</ele>
        <time>2012-07-10T09:25:03Z</time>
      </trkpt>
      <trkpt lat="42.82988" lon="2.1214">
        <ele>519.25</ele>
        <time>2012-07-10T09:25:07Z</time>
      </trkpt>
      <trkpt lat="42.82983" lon="2.12289">
        <ele>518.29</ele>
        <time>2012-07-10T09:25:24Z</time>
      </trkpt>
      <trkpt lat="42.8297" lon="2.12328">
        <ele>518.77</ele>
        <time>2012-07-10T09:25:29Z</time>
      </trkpt>
      <trkpt lat="42.82959" lon="2.12348">
        <ele>519.25</ele>
        <time>2012-07-10T09:25:32Z</time>
      </trkpt>
      <trkpt lat="42.82944" lon="2.12398">
        <ele>517.81</ele>
        <time>2012-07-10T09:25:38Z</time>
      </trkpt>
      <trkpt lat="42.82912" lon="2.12505">
        <ele>517.33</ele>
        <time>2012-07-10T09:25:51Z</time>
      </trkpt>
      <trkpt lat="42.8286" lon="2.12625">
        <ele>515.4</ele>
        <time>2012-07-10T09:26:07Z</time>
      </trkpt>
      <trkpt lat="42.82859" lon="2.12777">
        <ele>513.96</ele>
        <time>2012-07-10T09:26:24Z</time>
      </trkpt>
      <trkpt lat="42.8286" lon="2.12812">
        <ele>513.96</ele>
        <time>2012-07-10T09:26:28Z</time>
      </trkpt>
      <trkpt lat="42.82883" lon="2.12931">
        <ele>514.92</ele>
        <time>2012-07-10T09:26:42Z</time>
      </trkpt>
      <trkpt lat="42.82872" lon="2.13057">
        <ele>511.56</ele>
        <time>2012-07-10T09:26:56Z</time>
      </trkpt>
      <trkpt lat="42.82863" lon="2.1321">
        <ele>511.08</ele>
        <time>2012-07-10T09:27:13Z</time>
      </trkpt>
      <trkpt lat="42.82803" lon="2.13367">
        <ele>510.12</ele>
        <time>2012-07-10T09:27:33Z</time>
      </trkpt>
      <trkpt lat="42.82801" lon="2.13375">
        <ele>509.64</ele>
        <time>2012-07-10T09:27:34Z</time>
      </trkpt>
      <trkpt lat="42.82795" lon="2.1341">
        <ele>510.12</ele>
        <time>2012-07-10T09:27:38Z</time>
      </trkpt>
      <trkpt lat="42.82795" lon="2.13428">
        <ele>510.12</ele>
        <time>2012-07-10T09:27:40Z</time>
      </trkpt>
      <trkpt lat="42.82816" lon="2.13539">
        <ele>507.23</ele>
        <time>2012-07-10T09:27:53Z</time>
      </trkpt>
      <trkpt lat="42.82833" lon="2.13713">
        <ele>507.23</ele>
        <time>2012-07-10T09:28:12Z</time>
      </trkpt>
      <trkpt lat="42.82807" lon="2.13797">
        <ele>505.79</ele>
        <time>2012-07-10T09:28:22Z</time>
      </trkpt>
      <trkpt lat="42.82785" lon="2.13864">
        <ele>505.79</ele>
        <time>2012-07-10T09:28:30Z</time>
      </trkpt>
      <trkpt lat="42.82786" lon="2.13982">
        <ele>503.39</ele>
        <time>2012-07-10T09:28:43Z</time>
      </trkpt>
      <trkpt lat="42.82797" lon="2.14093">
        <ele>504.83</ele>
        <time>2012-07-10T09:28:56Z</time>
      </trkpt>
      <trkpt lat="42.82802" lon="2.14119">
        <ele>504.35</ele>
        <time>2012-07-10T09:28:59Z</time>
      </trkpt>
      <trkpt lat="42.82803" lon="2.14137">
        <ele>503.39</ele>
        <time>2012-07-10T09:29:01Z</time>
      </trkpt>
      <trkpt lat="42.82784" lon="2.14226">
        <ele>503.87</ele>
        <time>2012-07-10T09:29:11Z</time>
      </trkpt>
      <trkpt lat="42.82776" lon="2.14251">
        <ele>503.39</ele>
        <time>2012-07-10T09:29:14Z</time>
      </trkpt>
      <trkpt lat="42.82757" lon="2.14274">
        <ele>502.91</ele>
        <time>2012-07-10T09:29:18Z</time>
      </trkpt>
      <trkpt lat="42.82747" lon="2.14283">
        <ele>503.39</ele>
        <time>2012-07-10T09:29:20Z</time>
      </trkpt>
      <trkpt lat="42.82721" lon="2.14296">
        <ele>501.95</ele>
        <time>2012-07-10T09:29:25Z</time>
      </trkpt>
      <trkpt lat="42.82702" lon="2.143">
        <ele>501.95</ele>
        <time>2012-07-10T09:29:28Z</time>
      </trkpt>
      <trkpt lat="42.82668" lon="2.14309">
        <ele>500.98</ele>
        <time>2012-07-10T09:29:34Z</time>
      </trkpt>
      <trkpt lat="42.82624" lon="2.14332">
        <ele>500.5</ele>
        <time>2012-07-10T09:29:42Z</time>
      </trkpt>
      <trkpt lat="42.8261" lon="2.14341">
        <ele>500.5</ele>
        <time>2012-07-10T09:29:44Z</time>
      </trkpt>
      <trkpt lat="42.82589" lon="2.14364">
        <ele>500.5</ele>
        <time>2012-07-10T09:29:48Z</time>
      </trkpt>
      <trkpt lat="42.82514" lon="2.14401">
        <ele>498.58</ele>
        <time>2012-07-10T09:29:59Z</time>
      </trkpt>
      <trkpt lat="42.82494" lon="2.14403">
        <ele>499.06</ele>
        <time>2012-07-10T09:30:03Z</time>
      </trkpt>
      <trkpt lat="42.82478" lon="2.14407">
        <ele>498.58</ele>
        <time>2012-07-10T09:30:06Z</time>
      </trkpt>
      <trkpt lat="42.82462" lon="2.14418">
        <ele>499.06</ele>
        <time>2012-07-10T09:30:09Z</time>
      </trkpt>
      <trkpt lat="42.82416" lon="2.14447">
        <ele>497.62</ele>
        <time>2012-07-10T09:30:16Z</time>
      </trkpt>
      <trkpt lat="42.8238" lon="2.14484">
        <ele>498.1</ele>
        <time>2012-07-10T09:30:23Z</time>
      </trkpt>
      <trkpt lat="42.8236" lon="2.14504">
        <ele>499.06</ele>
        <time>2012-07-10T09:30:27Z</time>
      </trkpt>
      <trkpt lat="42.82335" lon="2.14612">
        <ele>498.1</ele>
        <time>2012-07-10T09:30:42Z</time>
      </trkpt>
      <trkpt lat="42.82337" lon="2.14671">
        <ele>496.18</ele>
        <time>2012-07-10T09:30:49Z</time>
      </trkpt>
      <trkpt lat="42.82348" lon="2.14851">
        <ele>495.22</ele>
        <time>2012-07-10T09:31:09Z</time>
      </trkpt>
      <trkpt lat="42.82332" lon="2.14902">
        <ele>494.26</ele>
        <time>2012-07-10T09:31:15Z</time>
      </trkpt>
      <trkpt lat="42.82278" lon="2.15012">
        <ele>490.89</ele>
        <time>2012-07-10T09:31:29Z</time>
      </trkpt>
      <trkpt lat="42.82275" lon="2.15031">
        <ele>489.93</ele>
        <time>2012-07-10T09:31:31Z</time>
      </trkpt>
      <trkpt lat="42.82267" lon="2.15235">
        <ele>488.49</ele>
        <time>2012-07-10T09:31:52Z</time>
      </trkpt>
      <trkpt lat="42.8226" lon="2.15399">
        <ele>486.08</ele>
        <time>2012-07-10T09:32:11Z</time>
      </trkpt>
      <trkpt lat="42.82259" lon="2.15424">
        <ele>485.6</ele>
        <time>2012-07-10T09:32:14Z</time>
      </trkpt>
      <trkpt lat="42.82267" lon="2.15461">
        <ele>485.12</ele>
        <time>2012-07-10T09:32:19Z</time>
      </trkpt>
      <trkpt lat="42.82294" lon="2.15503">
        <ele>485.6</ele>
        <time>2012-07-10T09:32:26Z</time>
      </trkpt>
      <trkpt lat="42.82306" lon="2.15542">
        <ele>485.12</ele>
        <time>2012-07-10T09:32:31Z</time>
      </trkpt>
      <trkpt lat="42.82306" lon="2.15672">
        <ele>487.05</ele>
        <time>2012-07-10T09:32:49Z</time>
      </trkpt>
      <trkpt lat="42.82308" lon="2.15691">
        <ele>487.05</ele>
        <time>2012-07-10T09:32:52Z</time>
      </trkpt>
      <trkpt lat="42.82318" lon="2.15722">
        <ele>487.53</ele>
        <time>2012-07-10T09:32:57Z</time>
      </trkpt>
      <trkpt lat="42.82327" lon="2.15732">
        <ele>487.05</ele>
        <time>2012-07-10T09:32:59Z</time>
      </trkpt>
      <trkpt lat="42.82359" lon="2.15842">
        <ele>485.12</ele>
        <time>2012-07-10T09:33:13Z</time>
      </trkpt>
      <trkpt lat="42.82366" lon="2.1591">
        <ele>484.64</ele>
        <time>2012-07-10T09:33:21Z</time>
      </trkpt>
      <trkpt lat="42.82361" lon="2.15955">
        <ele>483.2</ele>
        <time>2012-07-10T09:33:26Z</time>
      </trkpt>
      <trkpt lat="42.82334" lon="2.16028">
        <ele>483.68</ele>
        <time>2012-07-10T09:33:35Z</time>
      </trkpt>
      <trkpt lat="42.82329" lon="2.16062">
        <ele>481.76</ele>
        <time>2012-07-10T09:33:39Z</time>
      </trkpt>
      <trkpt lat="42.82337" lon="2.16137">
        <ele>480.32</ele>
        <time>2012-07-10T09:33:47Z</time>
      </trkpt>
      <trkpt lat="42.82326" lon="2.16178">
        <ele>479.35</ele>
        <time>2012-07-10T09:33:52Z</time>
      </trkpt>
      <trkpt lat="42.82307" lon="2.16196">
        <ele>478.87</ele>
        <time>2012-07-10T09:33:55Z</time>
      </trkpt>
      <trkpt lat="42.8229" lon="2.16239">
        <ele>477.91</ele>
        <time>2012-07-10T09:34:00Z</time>
      </trkpt>
      <trkpt lat="42.82309" lon="2.1631">
        <ele>476.47</ele>
        <time>2012-07-10T09:34:08Z</time>
      </trkpt>
      <trkpt lat="42.8232" lon="2.16324">
        <ele>475.99</ele>
        <time>2012-07-10T09:34:10Z</time>
      </trkpt>
      <trkpt lat="42.82356" lon="2.16441">
        <ele>473.59</ele>
        <time>2012-07-10T09:34:23Z</time>
      </trkpt>
      <trkpt lat="42.8237" lon="2.16617">
        <ele>471.18</ele>
        <time>2012-07-10T09:34:40Z</time>
      </trkpt>
      <trkpt lat="42.82392" lon="2.16756">
        <ele>469.74</ele>
        <time>2012-07-10T09:34:54Z</time>
      </trkpt>
      <trkpt lat="42.82399" lon="2.16931">
        <ele>467.34</ele>
        <time>2012-07-10T09:35:11Z</time>
      </trkpt>
      <trkpt lat="42.82376" lon="2.17032">
        <ele>466.86</ele>
        <time>2012-07-10T09:35:22Z</time>
      </trkpt>
      <trkpt lat="42.82371" lon="2.1707">
        <ele>466.86</ele>
        <time>2012-07-10T09:35:26Z</time>
      </trkpt>
      <trkpt lat="42.82385" lon="2.17241">
        <ele>463.97</ele>
        <time>2012-07-10T09:35:43Z</time>
      </trkpt>
      <trkpt lat="42.82381" lon="2.173">
        <ele>463.49</ele>
        <time>2012-07-10T09:35:49Z</time>
      </trkpt>
      <trkpt lat="42.82347" lon="2.17415">
        <ele>460.13</ele>
        <time>2012-07-10T09:36:02Z</time>
      </trkpt>
      <trkpt lat="42.82344" lon="2.17463">
        <ele>460.13</ele>
        <time>2012-07-10T09:36:07Z</time>
      </trkpt>
      <trkpt lat="42.82351" lon="2.175">
        <ele>459.65</ele>
        <time>2012-07-10T09:36:11Z</time>
      </trkpt>
      <trkpt lat="42.82382" lon="2.17543">
        <ele>459.17</ele>
        <time>2012-07-10T09:36:17Z</time>
      </trkpt>
      <trkpt lat="42.824" lon="2.17625">
        <ele>457.24</ele>
        <time>2012-07-10T09:36:26Z</time>
      </trkpt>
      <trkpt lat="42.82393" lon="2.17643">
        <ele>457.24</ele>
        <time>2012-07-10T09:36:28Z</time>
      </trkpt>
      <trkpt lat="42.82385" lon="2.1766">
        <ele>456.76</ele>
        <time>2012-07-10T09:36:30Z</time>
      </trkpt>
      <trkpt lat="42.82375" lon="2.17707">
        <ele>455.8</ele>
        <time>2012-07-10T09:36:35Z</time>
      </trkpt>
      <trkpt lat="42.82374" lon="2.1778">
        <ele>455.32</ele>
        <time>2012-07-10T09:36:43Z</time>
      </trkpt>
      <trkpt lat="42.82366" lon="2.17816">
        <ele>453.88</ele>
        <time>2012-07-10T09:36:47Z</time>
      </trkpt>
      <trkpt lat="42.82353" lon="2.17841">
        <ele>453.4</ele>
        <time>2012-07-10T09:36:50Z</time>
      </trkpt>
      <trkpt lat="42.82308" lon="2.17951">
        <ele>451.48</ele>
        <time>2012-07-10T09:37:02Z</time>
      </trkpt>
      <trkpt lat="42.82304" lon="2.17982">
        <ele>451.48</ele>
        <time>2012-07-10T09:37:05Z</time>
      </trkpt>
      <trkpt lat="42.82304" lon="2.18156">
        <ele>450.52</ele>
        <time>2012-07-10T09:37:22Z</time>
      </trkpt>
      <trkpt lat="42.82271" lon="2.1827">
        <ele>448.11</ele>
        <time>2012-07-10T09:37:34Z</time>
      </trkpt>
      <trkpt lat="42.82265" lon="2.18309">
        <ele>448.11</ele>
        <time>2012-07-10T09:37:38Z</time>
      </trkpt>
      <trkpt lat="42.82246" lon="2.18351">
        <ele>448.11</ele>
        <time>2012-07-10T09:37:43Z</time>
      </trkpt>
      <trkpt lat="42.82209" lon="2.18383">
        <ele>447.63</ele>
        <time>2012-07-10T09:37:49Z</time>
      </trkpt>
      <trkpt lat="42.82159" lon="2.18504">
        <ele>445.71</ele>
        <time>2012-07-10T09:38:04Z</time>
      </trkpt>
      <trkpt lat="42.82166" lon="2.18559">
        <ele>445.23</ele>
        <time>2012-07-10T09:38:10Z</time>
      </trkpt>
      <trkpt lat="42.82188" lon="2.18609">
        <ele>444.75</ele>
        <time>2012-07-10T09:38:16Z</time>
      </trkpt>
      <trkpt lat="42.82195" lon="2.18633">
        <ele>444.27</ele>
        <time>2012-07-10T09:38:19Z</time>
      </trkpt>
      <trkpt lat="42.8218" lon="2.1873">
        <ele>442.82</ele>
        <time>2012-07-10T09:38:30Z</time>
      </trkpt>
      <trkpt lat="42.82172" lon="2.18744">
        <ele>442.82</ele>
        <time>2012-07-10T09:38:32Z</time>
      </trkpt>
      <trkpt lat="42.82139" lon="2.18788">
        <ele>442.34</ele>
        <time>2012-07-10T09:38:39Z</time>
      </trkpt>
      <trkpt lat="42.82126" lon="2.18809">
        <ele>442.34</ele>
        <time>2012-07-10T09:38:42Z</time>
      </trkpt>
      <trkpt lat="42.82115" lon="2.18842">
        <ele>441.86</ele>
        <time>2012-07-10T09:38:46Z</time>
      </trkpt>
      <trkpt lat="42.82121" lon="2.18903">
        <ele>442.34</ele>
        <time>2012-07-10T09:38:53Z</time>
      </trkpt>
      <trkpt lat="42.82173" lon="2.18979">
        <ele>440.42</ele>
        <time>2012-07-10T09:39:04Z</time>
      </trkpt>
      <trkpt lat="42.82189" lon="2.19029">
        <ele>439.46</ele>
        <time>2012-07-10T09:39:10Z</time>
      </trkpt>
      <trkpt lat="42.82149" lon="2.19041">
        <ele>438.5</ele>
        <time>2012-07-10T09:39:15Z</time>
      </trkpt>
      <trkpt lat="42.82127" lon="2.19033">
        <ele>437.54</ele>
        <time>2012-07-10T09:39:18Z</time>
      </trkpt>
      <trkpt lat="42.82072" lon="2.19061">
        <ele>437.06</ele>
        <time>2012-07-10T09:39:26Z</time>
      </trkpt>
      <trkpt lat="42.82064" lon="2.19116">
        <ele>436.1</ele>
        <time>2012-07-10T09:39:32Z</time>
      </trkpt>
      <trkpt lat="42.82073" lon="2.19132">
        <ele>436.1</ele>
        <time>2012-07-10T09:39:34Z</time>
      </trkpt>
      <trkpt lat="42.82139" lon="2.19215">
        <ele>435.13</ele>
        <time>2012-07-10T09:39:46Z</time>
      </trkpt>
      <trkpt lat="42.82164" lon="2.19243">
        <ele>434.65</ele>
        <time>2012-07-10T09:39:51Z</time>
      </trkpt>
      <trkpt lat="42.82176" lon="2.19284">
        <ele>433.21</ele>
        <time>2012-07-10T09:39:56Z</time>
      </trkpt>
      <trkpt lat="42.82174" lon="2.19303">
        <ele>433.21</ele>
        <time>2012-07-10T09:39:58Z</time>
      </trkpt>
      <trkpt lat="42.82141" lon="2.19349">
        <ele>431.77</ele>
        <time>2012-07-10T09:40:05Z</time>
      </trkpt>
      <trkpt lat="42.82037" lon="2.19348">
        <ele>431.77</ele>
        <time>2012-07-10T09:40:19Z</time>
      </trkpt>
      <trkpt lat="42.82023" lon="2.19353">
        <ele>431.77</ele>
        <time>2012-07-10T09:40:21Z</time>
      </trkpt>
      <trkpt lat="42.81987" lon="2.19415">
        <ele>428.89</ele>
        <time>2012-07-10T09:40:29Z</time>
      </trkpt>
      <trkpt lat="42.81987" lon="2.19436">
        <ele>428.89</ele>
        <time>2012-07-10T09:40:31Z</time>
      </trkpt>
      <trkpt lat="42.8199" lon="2.19456">
        <ele>428.89</ele>
        <time>2012-07-10T09:40:33Z</time>
      </trkpt>
      <trkpt lat="42.81984" lon="2.19499">
        <ele>426.48</ele>
        <time>2012-07-10T09:40:38Z</time>
      </trkpt>
      <trkpt lat="42.81964" lon="2.19535">
        <ele>426</ele>
        <time>2012-07-10T09:40:43Z</time>
      </trkpt>
      <trkpt lat="42.81887" lon="2.19609">
        <ele>425.52</ele>
        <time>2012-07-10T09:40:57Z</time>
      </trkpt>
      <trkpt lat="42.81868" lon="2.19645">
        <ele>425.04</ele>
        <time>2012-07-10T09:41:02Z</time>
      </trkpt>
      <trkpt lat="42.81862" lon="2.19671">
        <ele>424.56</ele>
        <time>2012-07-10T09:41:05Z</time>
      </trkpt>
      <trkpt lat="42.8187" lon="2.19727">
        <ele>424.56</ele>
        <time>2012-07-10T09:41:11Z</time>
      </trkpt>
      <trkpt lat="42.81888" lon="2.19767">
        <ele>423.6</ele>
        <time>2012-07-10T09:41:16Z</time>
      </trkpt>
      <trkpt lat="42.81877" lon="2.19838">
        <ele>422.16</ele>
        <time>2012-07-10T09:41:24Z</time>
      </trkpt>
      <trkpt lat="42.81793" lon="2.19933">
        <ele>420.23</ele>
        <time>2012-07-10T09:41:39Z</time>
      </trkpt>
      <trkpt lat="42.81766" lon="2.19991">
        <ele>419.27</ele>
        <time>2012-07-10T09:41:46Z</time>
      </trkpt>
      <trkpt lat="42.81724" lon="2.20013">
        <ele>417.83</ele>
        <time>2012-07-10T09:41:52Z</time>
      </trkpt>
      <trkpt lat="42.81701" lon="2.20005">
        <ele>416.39</ele>
        <time>2012-07-10T09:41:55Z</time>
      </trkpt>
      <trkpt lat="42.81686" lon="2.20001">
        <ele>415.91</ele>
        <time>2012-07-10T09:41:57Z</time>
      </trkpt>
      <trkpt lat="42.81635" lon="2.20037">
        <ele>415.43</ele>
        <time>2012-07-10T09:42:05Z</time>
      </trkpt>
      <trkpt lat="42.81628" lon="2.20056">
        <ele>414.95</ele>
        <time>2012-07-10T09:42:07Z</time>
      </trkpt>
      <trkpt lat="42.81614" lon="2.20109">
        <ele>413.98</ele>
        <time>2012-07-10T09:42:12Z</time>
      </trkpt>
      <trkpt lat="42.81611" lon="2.20155">
        <ele>413.02</ele>
        <time>2012-07-10T09:42:16Z</time>
      </trkpt>
      <trkpt lat="42.81643" lon="2.20229">
        <ele>410.62</ele>
        <time>2012-07-10T09:42:24Z</time>
      </trkpt>
      <trkpt lat="42.81658" lon="2.2024">
        <ele>410.14</ele>
        <time>2012-07-10T09:42:26Z</time>
      </trkpt>
      <trkpt lat="42.81679" lon="2.20294">
        <ele>409.66</ele>
        <time>2012-07-10T09:42:32Z</time>
      </trkpt>
      <trkpt lat="42.81675" lon="2.20304">
        <ele>409.66</ele>
        <time>2012-07-10T09:42:33Z</time>
      </trkpt>
      <trkpt lat="42.81647" lon="2.2036">
        <ele>407.74</ele>
        <time>2012-07-10T09:42:39Z</time>
      </trkpt>
      <trkpt lat="42.81656" lon="2.20423">
        <ele>407.74</ele>
        <time>2012-07-10T09:42:46Z</time>
      </trkpt>
      <trkpt lat="42.81663" lon="2.20428">
        <ele>407.74</ele>
        <time>2012-07-10T09:42:47Z</time>
      </trkpt>
      <trkpt lat="42.81676" lon="2.20437">
        <ele>407.74</ele>
        <time>2012-07-10T09:42:49Z</time>
      </trkpt>
      <trkpt lat="42.81719" lon="2.20442">
        <ele>407.74</ele>
        <time>2012-07-10T09:42:55Z</time>
      </trkpt>
      <trkpt lat="42.81747" lon="2.20472">
        <ele>406.77</ele>
        <time>2012-07-10T09:43:01Z</time>
      </trkpt>
      <trkpt lat="42.81746" lon="2.20506">
        <ele>406.29</ele>
        <time>2012-07-10T09:43:04Z</time>
      </trkpt>
      <trkpt lat="42.81699" lon="2.20669">
        <ele>405.81</ele>
        <time>2012-07-10T09:43:22Z</time>
      </trkpt>
      <trkpt lat="42.81678" lon="2.20811">
        <ele>404.37</ele>
        <time>2012-07-10T09:43:37Z</time>
      </trkpt>
      <trkpt lat="42.81678" lon="2.20838">
        <ele>403.89</ele>
        <time>2012-07-10T09:43:40Z</time>
      </trkpt>
      <trkpt lat="42.81664" lon="2.20897">
        <ele>402.93</ele>
        <time>2012-07-10T09:43:47Z</time>
      </trkpt>
      <trkpt lat="42.81608" lon="2.20952">
        <ele>401.49</ele>
        <time>2012-07-10T09:43:57Z</time>
      </trkpt>
      <trkpt lat="42.8159" lon="2.20982">
        <ele>400.53</ele>
        <time>2012-07-10T09:44:01Z</time>
      </trkpt>
      <trkpt lat="42.81579" lon="2.21038">
        <ele>399.57</ele>
        <time>2012-07-10T09:44:07Z</time>
      </trkpt>
      <trkpt lat="42.8158" lon="2.21069">
        <ele>399.08</ele>
        <time>2012-07-10T09:44:10Z</time>
      </trkpt>
      <trkpt lat="42.81608" lon="2.21166">
        <ele>397.64</ele>
        <time>2012-07-10T09:44:20Z</time>
      </trkpt>
      <trkpt lat="42.81617" lon="2.21208">
        <ele>397.16</ele>
        <time>2012-07-10T09:44:24Z</time>
      </trkpt>
      <trkpt lat="42.81616" lon="2.21263">
        <ele>396.68</ele>
        <time>2012-07-10T09:44:29Z</time>
      </trkpt>
      <trkpt lat="42.81579" lon="2.21429">
        <ele>394.76</ele>
        <time>2012-07-10T09:44:46Z</time>
      </trkpt>
      <trkpt lat="42.81604" lon="2.21542">
        <ele>393.8</ele>
        <time>2012-07-10T09:44:58Z</time>
      </trkpt>
      <trkpt lat="42.81608" lon="2.21593">
        <ele>393.32</ele>
        <time>2012-07-10T09:45:03Z</time>
      </trkpt>
      <trkpt lat="42.81583" lon="2.21677">
        <ele>392.36</ele>
        <time>2012-07-10T09:45:12Z</time>
      </trkpt>
      <trkpt lat="42.81577" lon="2.21684">
        <ele>392.36</ele>
        <time>2012-07-10T09:45:13Z</time>
      </trkpt>
      <trkpt lat="42.8153" lon="2.2174">
        <ele>392.36</ele>
        <time>2012-07-10T09:45:22Z</time>
      </trkpt>
      <trkpt lat="42.81523" lon="2.21756">
        <ele>392.84</ele>
        <time>2012-07-10T09:45:24Z</time>
      </trkpt>
      <trkpt lat="42.81517" lon="2.21788">
        <ele>391.87</ele>
        <time>2012-07-10T09:45:28Z</time>
      </trkpt>
      <trkpt lat="42.81518" lon="2.21864">
        <ele>390.43</ele>
        <time>2012-07-10T09:45:36Z</time>
      </trkpt>
      <trkpt lat="42.81529" lon="2.21909">
        <ele>390.43</ele>
        <time>2012-07-10T09:45:41Z</time>
      </trkpt>
      <trkpt lat="42.81519" lon="2.21974">
        <ele>389.47</ele>
        <time>2012-07-10T09:45:48Z</time>
      </trkpt>
      <trkpt lat="42.81498" lon="2.21988">
        <ele>388.99</ele>
        <time>2012-07-10T09:45:51Z</time>
      </trkpt>
      <trkpt lat="42.81461" lon="2.22002">
        <ele>388.51</ele>
        <time>2012-07-10T09:45:56Z</time>
      </trkpt>
      <trkpt lat="42.8142" lon="2.2207">
        <ele>387.07</ele>
        <time>2012-07-10T09:46:05Z</time>
      </trkpt>
      <trkpt lat="42.81418" lon="2.22111">
        <ele>386.59</ele>
        <time>2012-07-10T09:46:09Z</time>
      </trkpt>
      <trkpt lat="42.81459" lon="2.22174">
        <ele>385.15</ele>
        <time>2012-07-10T09:46:18Z</time>
      </trkpt>
      <trkpt lat="42.81474" lon="2.22177">
        <ele>384.66</ele>
        <time>2012-07-10T09:46:20Z</time>
      </trkpt>
      <trkpt lat="42.81505" lon="2.22181">
        <ele>384.18</ele>
        <time>2012-07-10T09:46:24Z</time>
      </trkpt>
      <trkpt lat="42.81536" lon="2.22226">
        <ele>383.22</ele>
        <time>2012-07-10T09:46:31Z</time>
      </trkpt>
      <trkpt lat="42.81535" lon="2.22236">
        <ele>383.22</ele>
        <time>2012-07-10T09:46:32Z</time>
      </trkpt>
      <trkpt lat="42.81515" lon="2.22305">
        <ele>383.22</ele>
        <time>2012-07-10T09:46:39Z</time>
      </trkpt>
      <trkpt lat="42.81509" lon="2.22345">
        <ele>382.74</ele>
        <time>2012-07-10T09:46:43Z</time>
      </trkpt>
      <trkpt lat="42.8151" lon="2.22377">
        <ele>381.78</ele>
        <time>2012-07-10T09:46:46Z</time>
      </trkpt>
      <trkpt lat="42.815" lon="2.22425">
        <ele>381.3</ele>
        <time>2012-07-10T09:46:51Z</time>
      </trkpt>
      <trkpt lat="42.81429" lon="2.22562">
        <ele>381.3</ele>
        <time>2012-07-10T09:47:09Z</time>
      </trkpt>
      <trkpt lat="42.81418" lon="2.22602">
        <ele>380.82</ele>
        <time>2012-07-10T09:47:14Z</time>
      </trkpt>
      <trkpt lat="42.81439" lon="2.22676">
        <ele>380.82</ele>
        <time>2012-07-10T09:47:24Z</time>
      </trkpt>
      <trkpt lat="42.81497" lon="2.22724">
        <ele>380.34</ele>
        <time>2012-07-10T09:47:37Z</time>
      </trkpt>
      <trkpt lat="42.8154" lon="2.22754">
        <ele>378.9</ele>
        <time>2012-07-10T09:47:50Z</time>
      </trkpt>
      <trkpt lat="42.81542" lon="2.22756">
        <ele>379.38</ele>
        <time>2012-07-10T09:48:03Z</time>
      </trkpt>
      <trkpt lat="42.81544" lon="2.22762">
        <ele>379.86</ele>
        <time>2012-07-10T09:48:16Z</time>
      </trkpt>
      <trkpt lat="42.81545" lon="2.22762">
        <ele>379.38</ele>
        <time>2012-07-10T09:48:20Z</time>
      </trkpt>
      <trkpt lat="42.81554" lon="2.22769">
        <ele>379.86</ele>
        <time>2012-07-10T09:48:25Z</time>
      </trkpt>
      <trkpt lat="42.81589" lon="2.2277">
        <ele>379.38</ele>
        <time>2012-07-10T09:48:33Z</time>
      </trkpt>
      <trkpt lat="42.81603" lon="2.22778">
        <ele>378.9</ele>
        <time>2012-07-10T09:48:36Z</time>
      </trkpt>
      <trkpt lat="42.81623" lon="2.22802">
        <ele>378.42</ele>
        <time>2012-07-10T09:48:41Z</time>
      </trkpt>
      <trkpt lat="42.8166" lon="2.22872">
        <ele>378.42</ele>
        <time>2012-07-10T09:48:52Z</time>
      </trkpt>
      <trkpt lat="42.81712" lon="2.22888">
        <ele>377.94</ele>
        <time>2012-07-10T09:49:02Z</time>
      </trkpt>
      <trkpt lat="42.81729" lon="2.22878">
        <ele>377.94</ele>
        <time>2012-07-10T09:49:05Z</time>
      </trkpt>
      <trkpt lat="42.81833" lon="2.22806">
        <ele>376.01</ele>
        <time>2012-07-10T09:49:22Z</time>
      </trkpt>
      <trkpt lat="42.81943" lon="2.228">
        <ele>375.05</ele>
        <time>2012-07-10T09:49:38Z</time>
      </trkpt>
      <trkpt lat="42.82003" lon="2.22763">
        <ele>374.09</ele>
        <time>2012-07-10T09:49:48Z</time>
      </trkpt>
      <trkpt lat="42.8201" lon="2.22746">
        <ele>374.09</ele>
        <time>2012-07-10T09:49:50Z</time>
      </trkpt>
      <trkpt lat="42.82067" lon="2.22583">
        <ele>371.69</ele>
        <time>2012-07-10T09:50:08Z</time>
      </trkpt>
      <trkpt lat="42.82117" lon="2.22506">
        <ele>371.21</ele>
        <time>2012-07-10T09:50:18Z</time>
      </trkpt>
      <trkpt lat="42.82143" lon="2.22483">
        <ele>371.21</ele>
        <time>2012-07-10T09:50:22Z</time>
      </trkpt>
      <trkpt lat="42.82206" lon="2.22489">
        <ele>370.24</ele>
        <time>2012-07-10T09:50:30Z</time>
      </trkpt>
      <trkpt lat="42.82258" lon="2.22531">
        <ele>369.76</ele>
        <time>2012-07-10T09:50:38Z</time>
      </trkpt>
      <trkpt lat="42.82288" lon="2.22586">
        <ele>368.8</ele>
        <time>2012-07-10T09:50:45Z</time>
      </trkpt>
      <trkpt lat="42.82301" lon="2.22636">
        <ele>368.32</ele>
        <time>2012-07-10T09:50:50Z</time>
      </trkpt>
      <trkpt lat="42.82303" lon="2.22679">
        <ele>367.84</ele>
        <time>2012-07-10T09:50:54Z</time>
      </trkpt>
      <trkpt lat="42.8229" lon="2.22728">
        <ele>366.88</ele>
        <time>2012-07-10T09:50:59Z</time>
      </trkpt>
      <trkpt lat="42.8228" lon="2.22746">
        <ele>366.88</ele>
        <time>2012-07-10T09:51:01Z</time>
      </trkpt>
      <trkpt lat="42.82267" lon="2.22794">
        <ele>365.92</ele>
        <time>2012-07-10T09:51:06Z</time>
      </trkpt>
      <trkpt lat="42.82274" lon="2.22851">
        <ele>365.44</ele>
        <time>2012-07-10T09:51:12Z</time>
      </trkpt>
      <trkpt lat="42.82307" lon="2.22879">
        <ele>364.48</ele>
        <time>2012-07-10T09:51:17Z</time>
      </trkpt>
      <trkpt lat="42.82331" lon="2.22881">
        <ele>363.04</ele>
        <time>2012-07-10T09:51:20Z</time>
      </trkpt>
      <trkpt lat="42.82427" lon="2.22838">
        <ele>362.07</ele>
        <time>2012-07-10T09:51:33Z</time>
      </trkpt>
      <trkpt lat="42.82499" lon="2.22781">
        <ele>362.07</ele>
        <time>2012-07-10T09:51:44Z</time>
      </trkpt>
      <trkpt lat="42.82546" lon="2.2272">
        <ele>361.11</ele>
        <time>2012-07-10T09:51:53Z</time>
      </trkpt>
      <trkpt lat="42.82641" lon="2.22628">
        <ele>360.63</ele>
        <time>2012-07-10T09:52:10Z</time>
      </trkpt>
      <trkpt lat="42.82716" lon="2.22576">
        <ele>360.63</ele>
        <time>2012-07-10T09:52:23Z</time>
      </trkpt>
      <trkpt lat="42.82731" lon="2.22584">
        <ele>359.67</ele>
        <time>2012-07-10T09:52:29Z</time>
      </trkpt>
      <trkpt lat="42.82728" lon="2.22582">
        <ele>357.27</ele>
        <time>2012-07-10T09:52:43Z</time>
      </trkpt>
      <trkpt lat="42.82728" lon="2.22582">
        <ele>359.67</ele>
        <time>2012-07-10T09:52:51Z</time>
      </trkpt>
      <trkpt lat="42.82729" lon="2.22584">
        <ele>359.19</ele>
        <time>2012-07-10T09:53:03Z</time>
      </trkpt>
      <trkpt lat="42.8273" lon="2.22587">
        <ele>359.19</ele>
        <time>2012-07-10T09:53:11Z</time>
      </trkpt>
      <trkpt lat="42.82726" lon="2.22588">
        <ele>358.71</ele>
        <time>2012-07-10T09:53:27Z</time>
      </trkpt>
      <trkpt lat="42.82724" lon="2.22594">
        <ele>359.19</ele>
        <time>2012-07-10T09:53:48Z</time>
      </trkpt>
      <trkpt lat="42.82724" lon="2.22594">
        <ele>359.67</ele>
        <time>2012-07-10T09:54:00Z</time>
      </trkpt>
      <trkpt lat="42.82725" lon="2.22596">
        <ele>360.63</ele>
        <time>2012-07-10T09:54:22Z</time>
      </trkpt>
      <trkpt lat="42.82726" lon="2.226">
        <ele>360.15</ele>
        <time>2012-07-10T09:54:37Z</time>
      </trkpt>
      <trkpt lat="42.82731" lon="2.22601">
        <ele>361.11</ele>
        <time>2012-07-10T09:54:44Z</time>
      </trkpt>
      <trkpt lat="42.82735" lon="2.22601">
        <ele>360.63</ele>
        <time>2012-07-10T09:54:50Z</time>
      </trkpt>
      <trkpt lat="42.82731" lon="2.22595">
        <ele>360.15</ele>
        <time>2012-07-10T09:54:56Z</time>
      </trkpt>
      <trkpt lat="42.82731" lon="2.22592">
        <ele>360.63</ele>
        <time>2012-07-10T09:54:59Z</time>
      </trkpt>
      <trkpt lat="42.82731" lon="2.22593">
        <ele>360.63</ele>
        <time>2012-07-10T09:55:12Z</time>
      </trkpt>
      <trkpt lat="42.82737" lon="2.22592">
        <ele>361.11</ele>
        <time>2012-07-10T09:55:38Z</time>
      </trkpt>
      <trkpt lat="42.82735" lon="2.22597">
        <ele>361.11</ele>
        <time>2012-07-10T09:55:49Z</time>
      </trkpt>
      <trkpt lat="42.82735" lon="2.22596">
        <ele>361.11</ele>
        <time>2012-07-10T09:56:03Z</time>
      </trkpt>
      <trkpt lat="42.82733" lon="2.22593">
        <ele>362.07</ele>
        <time>2012-07-10T09:57:03Z</time>
      </trkpt>
      <trkpt lat="42.82734" lon="2.22587">
        <ele>362.07</ele>
        <time>2012-07-10T09:57:20Z</time>
      </trkpt>
      <trkpt lat="42.82736" lon="2.22576">
        <ele>361.59</ele>
        <time>2012-07-10T09:57:27Z</time>
      </trkpt>
      <trkpt lat="42.82773" lon="2.22563">
        <ele>361.59</ele>
        <time>2012-07-10T09:57:33Z</time>
      </trkpt>
      <trkpt lat="42.82871" lon="2.22479">
        <ele>363.04</ele>
        <time>2012-07-10T09:57:49Z</time>
      </trkpt>
      <trkpt lat="42.82934" lon="2.22401">
        <ele>361.59</ele>
        <time>2012-07-10T09:58:01Z</time>
      </trkpt>
      <trkpt lat="42.82948" lon="2.22295">
        <ele>362.55</ele>
        <time>2012-07-10T09:58:14Z</time>
      </trkpt>
      <trkpt lat="42.82928" lon="2.2211">
        <ele>362.55</ele>
        <time>2012-07-10T09:58:38Z</time>
      </trkpt>
      <trkpt lat="42.82931" lon="2.21903">
        <ele>360.63</ele>
        <time>2012-07-10T09:59:01Z</time>
      </trkpt>
      <trkpt lat="42.82967" lon="2.21685">
        <ele>359.67</ele>
        <time>2012-07-10T09:59:25Z</time>
      </trkpt>
      <trkpt lat="42.8296" lon="2.21536">
        <ele>358.71</ele>
        <time>2012-07-10T09:59:42Z</time>
      </trkpt>
      <trkpt lat="42.82947" lon="2.21317">
        <ele>356.31</ele>
        <time>2012-07-10T10:00:07Z</time>
      </trkpt>
      <trkpt lat="42.82991" lon="2.21179">
        <ele>353.42</ele>
        <time>2012-07-10T10:00:21Z</time>
      </trkpt>
      <trkpt lat="42.83073" lon="2.21062">
        <ele>351.98</ele>
        <time>2012-07-10T10:00:36Z</time>
      </trkpt>
      <trkpt lat="42.83163" lon="2.20922">
        <ele>349.1</ele>
        <time>2012-07-10T10:00:54Z</time>
      </trkpt>
      <trkpt lat="42.83179" lon="2.20899">
        <ele>349.1</ele>
        <time>2012-07-10T10:00:57Z</time>
      </trkpt>
      <trkpt lat="42.83207" lon="2.20881">
        <ele>348.62</ele>
        <time>2012-07-10T10:01:00Z</time>
      </trkpt>
      <trkpt lat="42.8326" lon="2.20808">
        <ele>344.77</ele>
        <time>2012-07-10T10:01:09Z</time>
      </trkpt>
      <trkpt lat="42.83293" lon="2.20788">
        <ele>343.81</ele>
        <time>2012-07-10T10:01:13Z</time>
      </trkpt>
      <trkpt lat="42.8337" lon="2.20694">
        <ele>341.89</ele>
        <time>2012-07-10T10:01:26Z</time>
      </trkpt>
      <trkpt lat="42.8338" lon="2.20678">
        <ele>341.89</ele>
        <time>2012-07-10T10:01:28Z</time>
      </trkpt>
      <trkpt lat="42.83485" lon="2.20534">
        <ele>339.48</ele>
        <time>2012-07-10T10:01:47Z</time>
      </trkpt>
      <trkpt lat="42.83563" lon="2.20472">
        <ele>338.52</ele>
        <time>2012-07-10T10:01:58Z</time>
      </trkpt>
      <trkpt lat="42.83597" lon="2.2046">
        <ele>337.56</ele>
        <time>2012-07-10T10:02:02Z</time>
      </trkpt>
      <trkpt lat="42.83728" lon="2.20425">
        <ele>334.68</ele>
        <time>2012-07-10T10:02:17Z</time>
      </trkpt>
      <trkpt lat="42.83741" lon="2.2042">
        <ele>334.2</ele>
        <time>2012-07-10T10:02:19Z</time>
      </trkpt>
      <trkpt lat="42.83754" lon="2.20409">
        <ele>333.71</ele>
        <time>2012-07-10T10:02:22Z</time>
      </trkpt>
      <trkpt lat="42.83779" lon="2.20376">
        <ele>333.23</ele>
        <time>2012-07-10T10:02:31Z</time>
      </trkpt>
      <trkpt lat="42.83836" lon="2.20296">
        <ele>332.75</ele>
        <time>2012-07-10T10:02:42Z</time>
      </trkpt>
      <trkpt lat="42.83901" lon="2.20237">
        <ele>332.27</ele>
        <time>2012-07-10T10:02:53Z</time>
      </trkpt>
      <trkpt lat="42.83933" lon="2.20228">
        <ele>330.83</ele>
        <time>2012-07-10T10:02:58Z</time>
      </trkpt>
      <trkpt lat="42.83952" lon="2.20232">
        <ele>330.83</ele>
        <time>2012-07-10T10:03:01Z</time>
      </trkpt>
      <trkpt lat="42.83964" lon="2.20237">
        <ele>330.35</ele>
        <time>2012-07-10T10:03:03Z</time>
      </trkpt>
      <trkpt lat="42.8398" lon="2.20247">
        <ele>330.35</ele>
        <time>2012-07-10T10:03:06Z</time>
      </trkpt>
      <trkpt lat="42.84012" lon="2.20275">
        <ele>329.87</ele>
        <time>2012-07-10T10:03:12Z</time>
      </trkpt>
      <trkpt lat="42.84108" lon="2.20281">
        <ele>329.39</ele>
        <time>2012-07-10T10:03:27Z</time>
      </trkpt>
      <trkpt lat="42.84159" lon="2.20267">
        <ele>327.47</ele>
        <time>2012-07-10T10:03:34Z</time>
      </trkpt>
      <trkpt lat="42.84208" lon="2.20276">
        <ele>326.99</ele>
        <time>2012-07-10T10:03:40Z</time>
      </trkpt>
      <trkpt lat="42.84239" lon="2.20298">
        <ele>326.02</ele>
        <time>2012-07-10T10:03:44Z</time>
      </trkpt>
      <trkpt lat="42.84285" lon="2.20331">
        <ele>324.58</ele>
        <time>2012-07-10T10:03:50Z</time>
      </trkpt>
      <trkpt lat="42.84311" lon="2.20342">
        <ele>323.14</ele>
        <time>2012-07-10T10:03:53Z</time>
      </trkpt>
      <trkpt lat="42.84384" lon="2.2032">
        <ele>322.18</ele>
        <time>2012-07-10T10:04:02Z</time>
      </trkpt>
      <trkpt lat="42.84533" lon="2.203">
        <ele>320.74</ele>
        <time>2012-07-10T10:04:21Z</time>
      </trkpt>
      <trkpt lat="42.84614" lon="2.2032">
        <ele>319.78</ele>
        <time>2012-07-10T10:04:32Z</time>
      </trkpt>
      <trkpt lat="42.84716" lon="2.20308">
        <ele>318.81</ele>
        <time>2012-07-10T10:04:46Z</time>
      </trkpt>
      <trkpt lat="42.84765" lon="2.20295">
        <ele>319.3</ele>
        <time>2012-07-10T10:04:53Z</time>
      </trkpt>
      <trkpt lat="42.84871" lon="2.20338">
        <ele>319.78</ele>
        <time>2012-07-10T10:05:09Z</time>
      </trkpt>
      <trkpt lat="42.84884" lon="2.20345">
        <ele>319.3</ele>
        <time>2012-07-10T10:05:11Z</time>
      </trkpt>
      <trkpt lat="42.84968" lon="2.20342">
        <ele>320.26</ele>
        <time>2012-07-10T10:05:24Z</time>
      </trkpt>
      <trkpt lat="42.85048" lon="2.20296">
        <ele>319.3</ele>
        <time>2012-07-10T10:05:37Z</time>
      </trkpt>
      <trkpt lat="42.85159" lon="2.20188">
        <ele>318.33</ele>
        <time>2012-07-10T10:05:58Z</time>
      </trkpt>
      <trkpt lat="42.85242" lon="2.20108">
        <ele>317.37</ele>
        <time>2012-07-10T10:06:13Z</time>
      </trkpt>
      <trkpt lat="42.85266" lon="2.20093">
        <ele>317.37</ele>
        <time>2012-07-10T10:06:17Z</time>
      </trkpt>
      <trkpt lat="42.85367" lon="2.20075">
        <ele>315.93</ele>
        <time>2012-07-10T10:06:32Z</time>
      </trkpt>
      <trkpt lat="42.8539" lon="2.20064">
        <ele>315.93</ele>
        <time>2012-07-10T10:06:36Z</time>
      </trkpt>
      <trkpt lat="42.85457" lon="2.19948">
        <ele>314.97</ele>
        <time>2012-07-10T10:06:52Z</time>
      </trkpt>
      <trkpt lat="42.85534" lon="2.19673">
        <ele>313.05</ele>
        <time>2012-07-10T10:07:22Z</time>
      </trkpt>
      <trkpt lat="42.8559" lon="2.1952">
        <ele>310.16</ele>
        <time>2012-07-10T10:07:39Z</time>
      </trkpt>
      <trkpt lat="42.85695" lon="2.19359">
        <ele>308.24</ele>
        <time>2012-07-10T10:07:59Z</time>
      </trkpt>
      <trkpt lat="42.85838" lon="2.19174">
        <ele>306.32</ele>
        <time>2012-07-10T10:08:24Z</time>
      </trkpt>
      <trkpt lat="42.85893" lon="2.1908">
        <ele>306.8</ele>
        <time>2012-07-10T10:08:37Z</time>
      </trkpt>
      <trkpt lat="42.85919" lon="2.18996">
        <ele>304.88</ele>
        <time>2012-07-10T10:08:46Z</time>
      </trkpt>
      <trkpt lat="42.85955" lon="2.189">
        <ele>303.43</ele>
        <time>2012-07-10T10:08:56Z</time>
      </trkpt>
      <trkpt lat="42.85993" lon="2.18858">
        <ele>303.91</ele>
        <time>2012-07-10T10:09:03Z</time>
      </trkpt>
      <trkpt lat="42.86056" lon="2.18851">
        <ele>304.88</ele>
        <time>2012-07-10T10:09:13Z</time>
      </trkpt>
      <trkpt lat="42.86123" lon="2.18917">
        <ele>303.91</ele>
        <time>2012-07-10T10:09:25Z</time>
      </trkpt>
      <trkpt lat="42.86155" lon="2.19034">
        <ele>302.47</ele>
        <time>2012-07-10T10:09:38Z</time>
      </trkpt>
      <trkpt lat="42.86185" lon="2.19145">
        <ele>302.95</ele>
        <time>2012-07-10T10:09:51Z</time>
      </trkpt>
      <trkpt lat="42.86234" lon="2.19205">
        <ele>301.03</ele>
        <time>2012-07-10T10:10:01Z</time>
      </trkpt>
      <trkpt lat="42.86255" lon="2.19203">
        <ele>300.07</ele>
        <time>2012-07-10T10:10:04Z</time>
      </trkpt>
      <trkpt lat="42.86326" lon="2.19181">
        <ele>299.11</ele>
        <time>2012-07-10T10:10:14Z</time>
      </trkpt>
      <trkpt lat="42.86367" lon="2.1914">
        <ele>298.15</ele>
        <time>2012-07-10T10:10:21Z</time>
      </trkpt>
      <trkpt lat="42.86391" lon="2.19049">
        <ele>296.7</ele>
        <time>2012-07-10T10:10:30Z</time>
      </trkpt>
      <trkpt lat="42.86383" lon="2.18933">
        <ele>295.74</ele>
        <time>2012-07-10T10:10:42Z</time>
      </trkpt>
      <trkpt lat="42.86378" lon="2.18896">
        <ele>295.74</ele>
        <time>2012-07-10T10:10:46Z</time>
      </trkpt>
      <trkpt lat="42.86352" lon="2.18727">
        <ele>295.74</ele>
        <time>2012-07-10T10:11:05Z</time>
      </trkpt>
      <trkpt lat="42.86354" lon="2.1864">
        <ele>297.18</ele>
        <time>2012-07-10T10:11:16Z</time>
      </trkpt>
      <trkpt lat="42.86356" lon="2.18614">
        <ele>297.18</ele>
        <time>2012-07-10T10:11:20Z</time>
      </trkpt>
      <trkpt lat="42.86378" lon="2.18565">
        <ele>298.15</ele>
        <time>2012-07-10T10:11:29Z</time>
      </trkpt>
      <trkpt lat="42.86476" lon="2.18461">
        <ele>299.11</ele>
        <time>2012-07-10T10:11:55Z</time>
      </trkpt>
      <trkpt lat="42.86499" lon="2.18438">
        <ele>300.07</ele>
        <time>2012-07-10T10:12:00Z</time>
      </trkpt>
      <trkpt lat="42.86589" lon="2.18398">
        <ele>296.7</ele>
        <time>2012-07-10T10:12:16Z</time>
      </trkpt>
      <trkpt lat="42.86706" lon="2.18395">
        <ele>295.74</ele>
        <time>2012-07-10T10:12:35Z</time>
      </trkpt>
      <trkpt lat="42.86801" lon="2.18379">
        <ele>293.82</ele>
        <time>2012-07-10T10:12:50Z</time>
      </trkpt>
      <trkpt lat="42.86832" lon="2.18374">
        <ele>292.38</ele>
        <time>2012-07-10T10:12:55Z</time>
      </trkpt>
      <trkpt lat="42.87004" lon="2.1834">
        <ele>291.9</ele>
        <time>2012-07-10T10:13:24Z</time>
      </trkpt>
      <trkpt lat="42.87113" lon="2.18321">
        <ele>291.9</ele>
        <time>2012-07-10T10:13:44Z</time>
      </trkpt>
      <trkpt lat="42.87213" lon="2.18302">
        <ele>292.86</ele>
        <time>2012-07-10T10:14:05Z</time>
      </trkpt>
      <trkpt lat="42.8733" lon="2.1828">
        <ele>291.42</ele>
        <time>2012-07-10T10:14:29Z</time>
      </trkpt>
      <trkpt lat="42.87369" lon="2.18271">
        <ele>292.38</ele>
        <time>2012-07-10T10:14:38Z</time>
      </trkpt>
      <trkpt lat="42.87389" lon="2.18259">
        <ele>291.9</ele>
        <time>2012-07-10T10:14:44Z</time>
      </trkpt>
      <trkpt lat="42.87391" lon="2.18248">
        <ele>291.9</ele>
        <time>2012-07-10T10:14:46Z</time>
      </trkpt>
      <trkpt lat="42.87436" lon="2.18237">
        <ele>290.46</ele>
        <time>2012-07-10T10:15:00Z</time>
      </trkpt>
      <trkpt lat="42.87444" lon="2.18235">
        <ele>290.46</ele>
        <time>2012-07-10T10:15:03Z</time>
      </trkpt>
      <trkpt lat="42.8745" lon="2.18227">
        <ele>290.46</ele>
        <time>2012-07-10T10:15:07Z</time>
      </trkpt>
      <trkpt lat="42.87444" lon="2.18209">
        <ele>289.97</ele>
        <time>2012-07-10T10:15:20Z</time>
      </trkpt>
      <trkpt lat="42.87444" lon="2.18212">
        <ele>290.94</ele>
        <time>2012-07-10T10:15:34Z</time>
      </trkpt>
      <trkpt lat="42.87444" lon="2.18211">
        <ele>290.94</ele>
        <time>2012-07-10T10:16:02Z</time>
      </trkpt>
      <trkpt lat="42.87447" lon="2.18213">
        <ele>289.97</ele>
        <time>2012-07-10T10:16:34Z</time>
      </trkpt>
      <trkpt lat="42.87449" lon="2.18217">
        <ele>289.97</ele>
        <time>2012-07-10T10:17:09Z</time>
      </trkpt>
      <trkpt lat="42.87447" lon="2.18219">
        <ele>289.97</ele>
        <time>2012-07-10T10:17:19Z</time>
      </trkpt>
      <trkpt lat="42.87446" lon="2.18218">
        <ele>290.46</ele>
        <time>2012-07-10T10:17:51Z</time>
      </trkpt>
      <trkpt lat="42.87445" lon="2.1822">
        <ele>290.94</ele>
        <time>2012-07-10T10:34:30Z</time>
      </trkpt>
      <trkpt lat="42.87446" lon="2.18217">
        <ele>290.94</ele>
        <time>2012-07-10T10:34:50Z</time>
      </trkpt>
      <trkpt lat="42.87447" lon="2.18218">
        <ele>290.94</ele>
        <time>2012-07-10T10:35:41Z</time>
      </trkpt>
      <trkpt lat="42.8745" lon="2.18229">
        <ele>290.94</ele>
        <time>2012-07-10T10:35:55Z</time>
      </trkpt>
      <trkpt lat="42.87455" lon="2.18233">
        <ele>289.97</ele>
        <time>2012-07-10T10:35:59Z</time>
      </trkpt>
      <trkpt lat="42.87486" lon="2.18225">
        <ele>289.97</ele>
        <time>2012-07-10T10:36:13Z</time>
      </trkpt>
      <trkpt lat="42.87525" lon="2.18219">
        <ele>289.01</ele>
        <time>2012-07-10T10:36:28Z</time>
      </trkpt>
      <trkpt lat="42.87544" lon="2.18224">
        <ele>289.01</ele>
        <time>2012-07-10T10:36:38Z</time>
      </trkpt>
      <trkpt lat="42.87549" lon="2.18228">
        <ele>288.05</ele>
        <time>2012-07-10T10:36:50Z</time>
      </trkpt>
      <trkpt lat="42.87548" lon="2.18229">
        <ele>289.01</ele>
        <time>2012-07-10T10:36:54Z</time>
      </trkpt>
      <trkpt lat="42.87555" lon="2.18234">
        <ele>289.01</ele>
        <time>2012-07-10T10:37:00Z</time>
      </trkpt>
      <trkpt lat="42.87615" lon="2.18236">
        <ele>287.57</ele>
        <time>2012-07-10T10:37:19Z</time>
      </trkpt>
      <trkpt lat="42.87651" lon="2.18247">
        <ele>288.05</ele>
        <time>2012-07-10T10:37:30Z</time>
      </trkpt>
      <trkpt lat="42.87696" lon="2.1828">
        <ele>287.09</ele>
        <time>2012-07-10T10:37:43Z</time>
      </trkpt>
      <trkpt lat="42.87731" lon="2.18328">
        <ele>286.61</ele>
        <time>2012-07-10T10:37:55Z</time>
      </trkpt>
      <trkpt lat="42.87737" lon="2.18338">
        <ele>286.13</ele>
        <time>2012-07-10T10:37:57Z</time>
      </trkpt>
      <trkpt lat="42.87749" lon="2.18367">
        <ele>285.65</ele>
        <time>2012-07-10T10:38:02Z</time>
      </trkpt>
      <trkpt lat="42.8777" lon="2.18388">
        <ele>285.65</ele>
        <time>2012-07-10T10:38:09Z</time>
      </trkpt>
      <trkpt lat="42.87813" lon="2.18358">
        <ele>288.53</ele>
        <time>2012-07-10T10:38:25Z</time>
      </trkpt>
      <trkpt lat="42.87823" lon="2.18306">
        <ele>289.49</ele>
        <time>2012-07-10T10:38:39Z</time>
      </trkpt>
      <trkpt lat="42.87818" lon="2.18248">
        <ele>292.38</ele>
        <time>2012-07-10T10:38:56Z</time>
      </trkpt>
      <trkpt lat="42.87802" lon="2.18166">
        <ele>295.26</ele>
        <time>2012-07-10T10:39:22Z</time>
      </trkpt>
      <trkpt lat="42.87791" lon="2.18111">
        <ele>298.63</ele>
        <time>2012-07-10T10:39:39Z</time>
      </trkpt>
      <trkpt lat="42.87793" lon="2.18053">
        <ele>301.51</ele>
        <time>2012-07-10T10:39:58Z</time>
      </trkpt>
      <trkpt lat="42.87807" lon="2.17993">
        <ele>304.39</ele>
        <time>2012-07-10T10:40:19Z</time>
      </trkpt>
      <trkpt lat="42.87831" lon="2.17937">
        <ele>307.28</ele>
        <time>2012-07-10T10:40:41Z</time>
      </trkpt>
      <trkpt lat="42.87863" lon="2.17897">
        <ele>310.64</ele>
        <time>2012-07-10T10:41:01Z</time>
      </trkpt>
      <trkpt lat="42.87898" lon="2.17858">
        <ele>313.53</ele>
        <time>2012-07-10T10:41:21Z</time>
      </trkpt>
      <trkpt lat="42.87908" lon="2.17805">
        <ele>315.93</ele>
        <time>2012-07-10T10:41:40Z</time>
      </trkpt>
      <trkpt lat="42.87924" lon="2.17746">
        <ele>319.3</ele>
        <time>2012-07-10T10:42:01Z</time>
      </trkpt>
      <trkpt lat="42.87926" lon="2.17741">
        <ele>319.78</ele>
        <time>2012-07-10T10:42:03Z</time>
      </trkpt>
      <trkpt lat="42.87957" lon="2.17687">
        <ele>323.14</ele>
        <time>2012-07-10T10:42:26Z</time>
      </trkpt>
      <trkpt lat="42.87987" lon="2.17636">
        <ele>326.5</ele>
        <time>2012-07-10T10:42:49Z</time>
      </trkpt>
      <trkpt lat="42.88019" lon="2.17598">
        <ele>329.87</ele>
        <time>2012-07-10T10:43:10Z</time>
      </trkpt>
      <trkpt lat="42.88048" lon="2.17553">
        <ele>332.75</ele>
        <time>2012-07-10T10:43:32Z</time>
      </trkpt>
      <trkpt lat="42.88065" lon="2.17504">
        <ele>336.12</ele>
        <time>2012-07-10T10:43:53Z</time>
      </trkpt>
      <trkpt lat="42.88053" lon="2.1747">
        <ele>337.08</ele>
        <time>2012-07-10T10:44:09Z</time>
      </trkpt>
      <trkpt lat="42.88005" lon="2.17456">
        <ele>340.44</ele>
        <time>2012-07-10T10:44:34Z</time>
      </trkpt>
      <trkpt lat="42.87953" lon="2.17464">
        <ele>343.33</ele>
        <time>2012-07-10T10:44:59Z</time>
      </trkpt>
      <trkpt lat="42.87903" lon="2.1745">
        <ele>346.69</ele>
        <time>2012-07-10T10:45:24Z</time>
      </trkpt>
      <trkpt lat="42.87868" lon="2.17429">
        <ele>349.58</ele>
        <time>2012-07-10T10:45:43Z</time>
      </trkpt>
      <trkpt lat="42.87847" lon="2.1738">
        <ele>351.98</ele>
        <time>2012-07-10T10:46:05Z</time>
      </trkpt>
      <trkpt lat="42.87858" lon="2.17322">
        <ele>355.34</ele>
        <time>2012-07-10T10:46:27Z</time>
      </trkpt>
      <trkpt lat="42.87885" lon="2.17278">
        <ele>358.71</ele>
        <time>2012-07-10T10:46:50Z</time>
      </trkpt>
      <trkpt lat="42.87921" lon="2.17228">
        <ele>361.11</ele>
        <time>2012-07-10T10:47:20Z</time>
      </trkpt>
      <trkpt lat="42.87946" lon="2.1719">
        <ele>364.48</ele>
        <time>2012-07-10T10:47:42Z</time>
      </trkpt>
      <trkpt lat="42.87966" lon="2.17156">
        <ele>366.88</ele>
        <time>2012-07-10T10:48:01Z</time>
      </trkpt>
      <trkpt lat="42.87984" lon="2.17114">
        <ele>369.76</ele>
        <time>2012-07-10T10:48:22Z</time>
      </trkpt>
      <trkpt lat="42.87997" lon="2.17062">
        <ele>372.17</ele>
        <time>2012-07-10T10:48:45Z</time>
      </trkpt>
      <trkpt lat="42.87996" lon="2.17005">
        <ele>374.57</ele>
        <time>2012-07-10T10:49:09Z</time>
      </trkpt>
      <trkpt lat="42.87965" lon="2.16981">
        <ele>375.53</ele>
        <time>2012-07-10T10:49:29Z</time>
      </trkpt>
      <trkpt lat="42.87954" lon="2.16977">
        <ele>376.49</ele>
        <time>2012-07-10T10:49:36Z</time>
      </trkpt>
      <trkpt lat="42.87941" lon="2.16978">
        <ele>377.94</ele>
        <time>2012-07-10T10:49:43Z</time>
      </trkpt>
      <trkpt lat="42.87923" lon="2.1695">
        <ele>381.3</ele>
        <time>2012-07-10T10:49:59Z</time>
      </trkpt>
      <trkpt lat="42.87921" lon="2.16948">
        <ele>381.78</ele>
        <time>2012-07-10T10:50:12Z</time>
      </trkpt>
      <trkpt lat="42.87921" lon="2.16952">
        <ele>380.34</ele>
        <time>2012-07-10T10:50:32Z</time>
      </trkpt>
      <trkpt lat="42.87918" lon="2.16958">
        <ele>381.3</ele>
        <time>2012-07-10T10:50:53Z</time>
      </trkpt>
      <trkpt lat="42.87916" lon="2.16955">
        <ele>381.78</ele>
        <time>2012-07-10T10:51:10Z</time>
      </trkpt>
      <trkpt lat="42.87917" lon="2.16954">
        <ele>381.3</ele>
        <time>2012-07-10T10:52:35Z</time>
      </trkpt>
      <trkpt lat="42.8792" lon="2.16948">
        <ele>380.34</ele>
        <time>2012-07-10T10:52:49Z</time>
      </trkpt>
      <trkpt lat="42.8792" lon="2.16947">
        <ele>381.3</ele>
        <time>2012-07-10T10:53:26Z</time>
      </trkpt>
      <trkpt lat="42.87922" lon="2.16948">
        <ele>381.78</ele>
        <time>2012-07-10T10:54:16Z</time>
      </trkpt>
      <trkpt lat="42.87922" lon="2.16948">
        <ele>380.82</ele>
        <time>2012-07-10T10:54:23Z</time>
      </trkpt>
      <trkpt lat="42.87937" lon="2.16923">
        <ele>381.3</ele>
        <time>2012-07-10T10:54:37Z</time>
      </trkpt>
      <trkpt lat="42.8796" lon="2.16871">
        <ele>384.18</ele>
        <time>2012-07-10T10:55:02Z</time>
      </trkpt>
      <trkpt lat="42.87966" lon="2.16817">
        <ele>387.07</ele>
        <time>2012-07-10T10:55:25Z</time>
      </trkpt>
      <trkpt lat="42.87965" lon="2.16786">
        <ele>389.95</ele>
        <time>2012-07-10T10:55:38Z</time>
      </trkpt>
      <trkpt lat="42.87988" lon="2.1675">
        <ele>392.36</ele>
        <time>2012-07-10T10:55:59Z</time>
      </trkpt>
      <trkpt lat="42.88021" lon="2.16713">
        <ele>395.24</ele>
        <time>2012-07-10T10:56:24Z</time>
      </trkpt>
      <trkpt lat="42.88021" lon="2.16667">
        <ele>398.12</ele>
        <time>2012-07-10T10:56:43Z</time>
      </trkpt>
      <trkpt lat="42.88013" lon="2.16615">
        <ele>400.53</ele>
        <time>2012-07-10T10:57:05Z</time>
      </trkpt>
      <trkpt lat="42.88001" lon="2.16557">
        <ele>403.41</ele>
        <time>2012-07-10T10:57:30Z</time>
      </trkpt>
      <trkpt lat="42.87999" lon="2.16502">
        <ele>406.77</ele>
        <time>2012-07-10T10:57:53Z</time>
      </trkpt>
      <trkpt lat="42.87997" lon="2.1646">
        <ele>410.14</ele>
        <time>2012-07-10T10:58:11Z</time>
      </trkpt>
      <trkpt lat="42.87993" lon="2.16423">
        <ele>411.1</ele>
        <time>2012-07-10T10:58:27Z</time>
      </trkpt>
      <trkpt lat="42.87988" lon="2.16388">
        <ele>413.5</ele>
        <time>2012-07-10T10:58:43Z</time>
      </trkpt>
      <trkpt lat="42.87971" lon="2.16337">
        <ele>416.39</ele>
        <time>2012-07-10T10:59:08Z</time>
      </trkpt>
      <trkpt lat="42.87941" lon="2.16337">
        <ele>417.83</ele>
        <time>2012-07-10T10:59:26Z</time>
      </trkpt>
      <trkpt lat="42.8791" lon="2.16379">
        <ele>420.23</ele>
        <time>2012-07-10T10:59:50Z</time>
      </trkpt>
      <trkpt lat="42.87879" lon="2.16418">
        <ele>422.16</ele>
        <time>2012-07-10T11:00:14Z</time>
      </trkpt>
      <trkpt lat="42.87839" lon="2.16439">
        <ele>425.04</ele>
        <time>2012-07-10T11:00:39Z</time>
      </trkpt>
      <trkpt lat="42.87799" lon="2.1645">
        <ele>427.92</ele>
        <time>2012-07-10T11:01:02Z</time>
      </trkpt>
      <trkpt lat="42.87758" lon="2.1649">
        <ele>430.81</ele>
        <time>2012-07-10T11:01:30Z</time>
      </trkpt>
      <trkpt lat="42.87724" lon="2.16519">
        <ele>433.21</ele>
        <time>2012-07-10T11:01:53Z</time>
      </trkpt>
      <trkpt lat="42.87698" lon="2.16496">
        <ele>435.61</ele>
        <time>2012-07-10T11:02:11Z</time>
      </trkpt>
      <trkpt lat="42.87666" lon="2.16489">
        <ele>438.02</ele>
        <time>2012-07-10T11:02:30Z</time>
      </trkpt>
      <trkpt lat="42.8763" lon="2.16468">
        <ele>440.9</ele>
        <time>2012-07-10T11:02:52Z</time>
      </trkpt>
      <trkpt lat="42.87617" lon="2.1642">
        <ele>443.79</ele>
        <time>2012-07-10T11:03:13Z</time>
      </trkpt>
      <trkpt lat="42.87608" lon="2.16364">
        <ele>446.67</ele>
        <time>2012-07-10T11:03:40Z</time>
      </trkpt>
      <trkpt lat="42.87587" lon="2.16328">
        <ele>449.07</ele>
        <time>2012-07-10T11:04:02Z</time>
      </trkpt>
      <trkpt lat="42.87556" lon="2.16319">
        <ele>451</ele>
        <time>2012-07-10T11:04:23Z</time>
      </trkpt>
      <trkpt lat="42.87519" lon="2.16335">
        <ele>452.44</ele>
        <time>2012-07-10T11:04:47Z</time>
      </trkpt>
      <trkpt lat="42.87514" lon="2.16333">
        <ele>453.88</ele>
        <time>2012-07-10T11:04:50Z</time>
      </trkpt>
      <trkpt lat="42.87494" lon="2.16301">
        <ele>455.8</ele>
        <time>2012-07-10T11:05:10Z</time>
      </trkpt>
      <trkpt lat="42.87468" lon="2.16257">
        <ele>458.69</ele>
        <time>2012-07-10T11:05:36Z</time>
      </trkpt>
      <trkpt lat="42.87433" lon="2.16218">
        <ele>461.57</ele>
        <time>2012-07-10T11:06:04Z</time>
      </trkpt>
      <trkpt lat="42.87389" lon="2.16206">
        <ele>463.97</ele>
        <time>2012-07-10T11:06:33Z</time>
      </trkpt>
      <trkpt lat="42.87378" lon="2.16169">
        <ele>466.86</ele>
        <time>2012-07-10T11:06:52Z</time>
      </trkpt>
      <trkpt lat="42.87381" lon="2.16113">
        <ele>469.26</ele>
        <time>2012-07-10T11:07:19Z</time>
      </trkpt>
      <trkpt lat="42.87381" lon="2.16111">
        <ele>469.26</ele>
        <time>2012-07-10T11:07:20Z</time>
      </trkpt>
      <trkpt lat="42.87388" lon="2.16102">
        <ele>471.66</ele>
        <time>2012-07-10T11:07:34Z</time>
      </trkpt>
      <trkpt lat="42.87389" lon="2.16101">
        <ele>471.18</ele>
        <time>2012-07-10T11:07:42Z</time>
      </trkpt>
      <trkpt lat="42.87384" lon="2.16084">
        <ele>472.14</ele>
        <time>2012-07-10T11:07:57Z</time>
      </trkpt>
      <trkpt lat="42.87384" lon="2.16063">
        <ele>473.59</ele>
        <time>2012-07-10T11:08:13Z</time>
      </trkpt>
      <trkpt lat="42.87383" lon="2.16054">
        <ele>474.55</ele>
        <time>2012-07-10T11:08:28Z</time>
      </trkpt>
      <trkpt lat="42.8738" lon="2.16019">
        <ele>476.47</ele>
        <time>2012-07-10T11:08:51Z</time>
      </trkpt>
      <trkpt lat="42.87378" lon="2.16011">
        <ele>478.87</ele>
        <time>2012-07-10T11:09:07Z</time>
      </trkpt>
      <trkpt lat="42.87374" lon="2.1599">
        <ele>477.43</ele>
        <time>2012-07-10T11:09:23Z</time>
      </trkpt>
      <trkpt lat="42.87376" lon="2.1597">
        <ele>477.43</ele>
        <time>2012-07-10T11:09:40Z</time>
      </trkpt>
      <trkpt lat="42.87378" lon="2.15962">
        <ele>478.87</ele>
        <time>2012-07-10T11:09:56Z</time>
      </trkpt>
      <trkpt lat="42.87374" lon="2.1595">
        <ele>482.24</ele>
        <time>2012-07-10T11:10:10Z</time>
      </trkpt>
      <trkpt lat="42.87372" lon="2.15947">
        <ele>481.76</ele>
        <time>2012-07-10T11:10:15Z</time>
      </trkpt>
      <trkpt lat="42.87362" lon="2.15927">
        <ele>481.76</ele>
        <time>2012-07-10T11:10:33Z</time>
      </trkpt>
      <trkpt lat="42.87358" lon="2.15906">
        <ele>483.68</ele>
        <time>2012-07-10T11:10:52Z</time>
      </trkpt>
      <trkpt lat="42.87355" lon="2.15885">
        <ele>484.64</ele>
        <time>2012-07-10T11:11:09Z</time>
      </trkpt>
      <trkpt lat="42.87354" lon="2.15868">
        <ele>485.12</ele>
        <time>2012-07-10T11:11:24Z</time>
      </trkpt>
      <trkpt lat="42.87356" lon="2.15854">
        <ele>486.56</ele>
        <time>2012-07-10T11:11:37Z</time>
      </trkpt>
      <trkpt lat="42.87356" lon="2.15852">
        <ele>486.56</ele>
        <time>2012-07-10T11:11:38Z</time>
      </trkpt>
      <trkpt lat="42.87354" lon="2.15835">
        <ele>487.05</ele>
        <time>2012-07-10T11:11:52Z</time>
      </trkpt>
      <trkpt lat="42.87349" lon="2.15829">
        <ele>486.08</ele>
        <time>2012-07-10T11:12:05Z</time>
      </trkpt>
      <trkpt lat="42.87346" lon="2.15828">
        <ele>484.64</ele>
        <time>2012-07-10T11:12:18Z</time>
      </trkpt>
      <trkpt lat="42.87346" lon="2.15828">
        <ele>484.64</ele>
        <time>2012-07-10T11:12:22Z</time>
      </trkpt>
      <trkpt lat="42.87332" lon="2.15809">
        <ele>485.6</ele>
        <time>2012-07-10T11:12:35Z</time>
      </trkpt>
      <trkpt lat="42.87303" lon="2.15787">
        <ele>486.56</ele>
        <time>2012-07-10T11:12:54Z</time>
      </trkpt>
      <trkpt lat="42.87287" lon="2.15741">
        <ele>489.93</ele>
        <time>2012-07-10T11:13:14Z</time>
      </trkpt>
      <trkpt lat="42.8728" lon="2.15691">
        <ele>493.29</ele>
        <time>2012-07-10T11:13:35Z</time>
      </trkpt>
      <trkpt lat="42.87271" lon="2.1563">
        <ele>495.22</ele>
        <time>2012-07-10T11:14:01Z</time>
      </trkpt>
      <trkpt lat="42.87262" lon="2.15583">
        <ele>498.58</ele>
        <time>2012-07-10T11:14:21Z</time>
      </trkpt>
      <trkpt lat="42.87239" lon="2.15524">
        <ele>501.46</ele>
        <time>2012-07-10T11:14:48Z</time>
      </trkpt>
      <trkpt lat="42.87233" lon="2.15482">
        <ele>505.31</ele>
        <time>2012-07-10T11:15:08Z</time>
      </trkpt>
      <trkpt lat="42.87233" lon="2.1548">
        <ele>505.31</ele>
        <time>2012-07-10T11:15:09Z</time>
      </trkpt>
      <trkpt lat="42.87219" lon="2.15429">
        <ele>506.75</ele>
        <time>2012-07-10T11:15:33Z</time>
      </trkpt>
      <trkpt lat="42.87203" lon="2.15412">
        <ele>509.64</ele>
        <time>2012-07-10T11:15:45Z</time>
      </trkpt>
      <trkpt lat="42.87173" lon="2.15399">
        <ele>510.12</ele>
        <time>2012-07-10T11:16:04Z</time>
      </trkpt>
      <trkpt lat="42.87148" lon="2.15404">
        <ele>511.56</ele>
        <time>2012-07-10T11:16:20Z</time>
      </trkpt>
      <trkpt lat="42.87145" lon="2.15372">
        <ele>513</ele>
        <time>2012-07-10T11:16:35Z</time>
      </trkpt>
      <trkpt lat="42.87178" lon="2.15366">
        <ele>514.92</ele>
        <time>2012-07-10T11:16:53Z</time>
      </trkpt>
      <trkpt lat="42.87222" lon="2.15396">
        <ele>517.81</ele>
        <time>2012-07-10T11:17:18Z</time>
      </trkpt>
      <trkpt lat="42.87254" lon="2.15439">
        <ele>520.69</ele>
        <time>2012-07-10T11:17:42Z</time>
      </trkpt>
      <trkpt lat="42.87274" lon="2.15483">
        <ele>523.09</ele>
        <time>2012-07-10T11:18:03Z</time>
      </trkpt>
      <trkpt lat="42.87296" lon="2.15529">
        <ele>526.46</ele>
        <time>2012-07-10T11:18:26Z</time>
      </trkpt>
      <trkpt lat="42.87314" lon="2.15567">
        <ele>529.34</ele>
        <time>2012-07-10T11:18:46Z</time>
      </trkpt>
      <trkpt lat="42.87339" lon="2.15614">
        <ele>531.27</ele>
        <time>2012-07-10T11:19:12Z</time>
      </trkpt>
      <trkpt lat="42.87375" lon="2.15644">
        <ele>533.67</ele>
        <time>2012-07-10T11:19:37Z</time>
      </trkpt>
      <trkpt lat="42.87416" lon="2.15633">
        <ele>536.07</ele>
        <time>2012-07-10T11:20:00Z</time>
      </trkpt>
      <trkpt lat="42.87445" lon="2.15648">
        <ele>538.96</ele>
        <time>2012-07-10T11:20:17Z</time>
      </trkpt>
      <trkpt lat="42.87467" lon="2.15693">
        <ele>541.84</ele>
        <time>2012-07-10T11:20:40Z</time>
      </trkpt>
      <trkpt lat="42.87492" lon="2.15725">
        <ele>544.24</ele>
        <time>2012-07-10T11:20:59Z</time>
      </trkpt>
      <trkpt lat="42.87523" lon="2.1573">
        <ele>546.17</ele>
        <time>2012-07-10T11:21:18Z</time>
      </trkpt>
      <trkpt lat="42.87553" lon="2.15751">
        <ele>548.09</ele>
        <time>2012-07-10T11:21:36Z</time>
      </trkpt>
      <trkpt lat="42.87588" lon="2.15772">
        <ele>550.49</ele>
        <time>2012-07-10T11:21:57Z</time>
      </trkpt>
      <trkpt lat="42.87625" lon="2.15756">
        <ele>551.93</ele>
        <time>2012-07-10T11:22:19Z</time>
      </trkpt>
      <trkpt lat="42.8766" lon="2.15769">
        <ele>554.34</ele>
        <time>2012-07-10T11:22:39Z</time>
      </trkpt>
      <trkpt lat="42.87683" lon="2.15815">
        <ele>555.78</ele>
        <time>2012-07-10T11:23:00Z</time>
      </trkpt>
      <trkpt lat="42.87687" lon="2.1583">
        <ele>557.22</ele>
        <time>2012-07-10T11:23:06Z</time>
      </trkpt>
      <trkpt lat="42.87711" lon="2.15884">
        <ele>560.59</ele>
        <time>2012-07-10T11:23:29Z</time>
      </trkpt>
      <trkpt lat="42.87746" lon="2.15905">
        <ele>562.03</ele>
        <time>2012-07-10T11:23:49Z</time>
      </trkpt>
      <trkpt lat="42.87785" lon="2.15914">
        <ele>564.91</ele>
        <time>2012-07-10T11:24:10Z</time>
      </trkpt>
      <trkpt lat="42.8783" lon="2.15898">
        <ele>566.83</ele>
        <time>2012-07-10T11:24:34Z</time>
      </trkpt>
      <trkpt lat="42.87865" lon="2.15867">
        <ele>568.76</ele>
        <time>2012-07-10T11:24:53Z</time>
      </trkpt>
      <trkpt lat="42.8789" lon="2.15816">
        <ele>571.64</ele>
        <time>2012-07-10T11:25:15Z</time>
      </trkpt>
      <trkpt lat="42.87907" lon="2.15753">
        <ele>573.08</ele>
        <time>2012-07-10T11:25:40Z</time>
      </trkpt>
      <trkpt lat="42.87922" lon="2.15695">
        <ele>575.97</ele>
        <time>2012-07-10T11:26:03Z</time>
      </trkpt>
      <trkpt lat="42.87941" lon="2.15635">
        <ele>579.33</ele>
        <time>2012-07-10T11:26:28Z</time>
      </trkpt>
      <trkpt lat="42.87964" lon="2.15566">
        <ele>582.22</ele>
        <time>2012-07-10T11:26:57Z</time>
      </trkpt>
      <trkpt lat="42.87984" lon="2.15503">
        <ele>584.62</ele>
        <time>2012-07-10T11:27:22Z</time>
      </trkpt>
      <trkpt lat="42.87985" lon="2.15455">
        <ele>587.5</ele>
        <time>2012-07-10T11:27:42Z</time>
      </trkpt>
      <trkpt lat="42.87983" lon="2.15418">
        <ele>589.91</ele>
        <time>2012-07-10T11:27:57Z</time>
      </trkpt>
      <trkpt lat="42.87979" lon="2.15379">
        <ele>589.91</ele>
        <time>2012-07-10T11:28:11Z</time>
      </trkpt>
      <trkpt lat="42.87975" lon="2.15332">
        <ele>591.35</ele>
        <time>2012-07-10T11:28:30Z</time>
      </trkpt>
      <trkpt lat="42.87968" lon="2.15263">
        <ele>591.35</ele>
        <time>2012-07-10T11:28:49Z</time>
      </trkpt>
      <trkpt lat="42.87959" lon="2.15198">
        <ele>590.87</ele>
        <time>2012-07-10T11:29:08Z</time>
      </trkpt>
      <trkpt lat="42.87948" lon="2.15155">
        <ele>591.35</ele>
        <time>2012-07-10T11:29:22Z</time>
      </trkpt>
      <trkpt lat="42.87929" lon="2.15058">
        <ele>589.91</ele>
        <time>2012-07-10T11:29:41Z</time>
      </trkpt>
      <trkpt lat="42.87913" lon="2.14938">
        <ele>589.43</ele>
        <time>2012-07-10T11:29:58Z</time>
      </trkpt>
      <trkpt lat="42.87916" lon="2.14788">
        <ele>587.98</ele>
        <time>2012-07-10T11:30:17Z</time>
      </trkpt>
      <trkpt lat="42.87945" lon="2.14619">
        <ele>586.54</ele>
        <time>2012-07-10T11:30:38Z</time>
      </trkpt>
      <trkpt lat="42.87951" lon="2.1443">
        <ele>584.62</ele>
        <time>2012-07-10T11:31:00Z</time>
      </trkpt>
      <trkpt lat="42.8796" lon="2.14256">
        <ele>583.18</ele>
        <time>2012-07-10T11:31:20Z</time>
      </trkpt>
      <trkpt lat="42.8801" lon="2.14049">
        <ele>581.73</ele>
        <time>2012-07-10T11:31:45Z</time>
      </trkpt>
      <trkpt lat="42.88071" lon="2.13848">
        <ele>578.85</ele>
        <time>2012-07-10T11:32:08Z</time>
      </trkpt>
      <trkpt lat="42.88117" lon="2.13722">
        <ele>581.73</ele>
        <time>2012-07-10T11:32:26Z</time>
      </trkpt>
      <trkpt lat="42.8817" lon="2.13595">
        <ele>583.18</ele>
        <time>2012-07-10T11:32:48Z</time>
      </trkpt>
      <trkpt lat="42.88235" lon="2.13532">
        <ele>580.29</ele>
        <time>2012-07-10T11:33:02Z</time>
      </trkpt>
      <trkpt lat="42.88241" lon="2.13529">
        <ele>580.29</ele>
        <time>2012-07-10T11:33:03Z</time>
      </trkpt>
      <trkpt lat="42.88297" lon="2.13513">
        <ele>577.89</ele>
        <time>2012-07-10T11:33:10Z</time>
      </trkpt>
      <trkpt lat="42.88341" lon="2.13496">
        <ele>575.49</ele>
        <time>2012-07-10T11:33:15Z</time>
      </trkpt>
      <trkpt lat="42.88377" lon="2.13469">
        <ele>574.04</ele>
        <time>2012-07-10T11:33:19Z</time>
      </trkpt>
      <trkpt lat="42.88413" lon="2.13417">
        <ele>569.24</ele>
        <time>2012-07-10T11:33:24Z</time>
      </trkpt>
      <trkpt lat="42.88437" lon="2.13368">
        <ele>567.8</ele>
        <time>2012-07-10T11:33:28Z</time>
      </trkpt>
      <trkpt lat="42.88474" lon="2.13297">
        <ele>563.95</ele>
        <time>2012-07-10T11:33:34Z</time>
      </trkpt>
      <trkpt lat="42.88499" lon="2.13252">
        <ele>562.03</ele>
        <time>2012-07-10T11:33:38Z</time>
      </trkpt>
      <trkpt lat="42.88523" lon="2.13207">
        <ele>560.59</ele>
        <time>2012-07-10T11:33:42Z</time>
      </trkpt>
      <trkpt lat="42.88575" lon="2.1311">
        <ele>557.7</ele>
        <time>2012-07-10T11:33:51Z</time>
      </trkpt>
      <trkpt lat="42.88652" lon="2.12968">
        <ele>554.34</ele>
        <time>2012-07-10T11:34:06Z</time>
      </trkpt>
      <trkpt lat="42.88732" lon="2.12817">
        <ele>552.41</ele>
        <time>2012-07-10T11:34:26Z</time>
      </trkpt>
      <trkpt lat="42.88824" lon="2.12645">
        <ele>551.45</ele>
        <time>2012-07-10T11:34:53Z</time>
      </trkpt>
      <trkpt lat="42.889" lon="2.12504">
        <ele>551.93</ele>
        <time>2012-07-10T11:35:18Z</time>
      </trkpt>
      <trkpt lat="42.88982" lon="2.12352">
        <ele>551.93</ele>
        <time>2012-07-10T11:35:49Z</time>
      </trkpt>
      <trkpt lat="42.89061" lon="2.12205">
        <ele>553.38</ele>
        <time>2012-07-10T11:36:19Z</time>
      </trkpt>
      <trkpt lat="42.89123" lon="2.12088">
        <ele>552.9</ele>
        <time>2012-07-10T11:36:45Z</time>
      </trkpt>
      <trkpt lat="42.89184" lon="2.11974">
        <ele>554.34</ele>
        <time>2012-07-10T11:37:11Z</time>
      </trkpt>
      <trkpt lat="42.89243" lon="2.11865">
        <ele>553.86</ele>
        <time>2012-07-10T11:37:38Z</time>
      </trkpt>
      <trkpt lat="42.89254" lon="2.11844">
        <ele>556.26</ele>
        <time>2012-07-10T11:37:43Z</time>
      </trkpt>
      <trkpt lat="42.89311" lon="2.1177">
        <ele>556.26</ele>
        <time>2012-07-10T11:38:04Z</time>
      </trkpt>
      <trkpt lat="42.89378" lon="2.11754">
        <ele>556.74</ele>
        <time>2012-07-10T11:38:24Z</time>
      </trkpt>
      <trkpt lat="42.89424" lon="2.11745">
        <ele>559.14</ele>
        <time>2012-07-10T11:38:42Z</time>
      </trkpt>
      <trkpt lat="42.89453" lon="2.11739">
        <ele>560.59</ele>
        <time>2012-07-10T11:38:56Z</time>
      </trkpt>
      <trkpt lat="42.89509" lon="2.11725">
        <ele>562.51</ele>
        <time>2012-07-10T11:39:22Z</time>
      </trkpt>
      <trkpt lat="42.89556" lon="2.11715">
        <ele>564.91</ele>
        <time>2012-07-10T11:39:45Z</time>
      </trkpt>
      <trkpt lat="42.89592" lon="2.11707">
        <ele>566.83</ele>
        <time>2012-07-10T11:40:03Z</time>
      </trkpt>
      <trkpt lat="42.89635" lon="2.11694">
        <ele>569.24</ele>
        <time>2012-07-10T11:40:26Z</time>
      </trkpt>
      <trkpt lat="42.89648" lon="2.11683">
        <ele>571.64</ele>
        <time>2012-07-10T11:40:34Z</time>
      </trkpt>
      <trkpt lat="42.89666" lon="2.11644">
        <ele>573.56</ele>
        <time>2012-07-10T11:40:52Z</time>
      </trkpt>
      <trkpt lat="42.89671" lon="2.11638">
        <ele>573.56</ele>
        <time>2012-07-10T11:40:56Z</time>
      </trkpt>
      <trkpt lat="42.8968" lon="2.11659">
        <ele>550.97</ele>
        <time>2012-07-10T12:55:50Z</time>
      </trkpt>
      <trkpt lat="42.89681" lon="2.11657">
        <ele>551.93</ele>
        <time>2012-07-10T12:56:47Z</time>
      </trkpt>
      <trkpt lat="42.89683" lon="2.11653">
        <ele>552.9</ele>
        <time>2012-07-10T12:57:49Z</time>
      </trkpt>
      <trkpt lat="42.89679" lon="2.11643">
        <ele>553.38</ele>
        <time>2012-07-10T12:57:56Z</time>
      </trkpt>
      <trkpt lat="42.89673" lon="2.1164">
        <ele>552.9</ele>
        <time>2012-07-10T12:57:58Z</time>
      </trkpt>
      <trkpt lat="42.89677" lon="2.11615">
        <ele>551.93</ele>
        <time>2012-07-10T12:58:07Z</time>
      </trkpt>
      <trkpt lat="42.89697" lon="2.11544">
        <ele>553.38</ele>
        <time>2012-07-10T12:58:19Z</time>
      </trkpt>
      <trkpt lat="42.89727" lon="2.11425">
        <ele>553.38</ele>
        <time>2012-07-10T12:58:35Z</time>
      </trkpt>
      <trkpt lat="42.8973" lon="2.1141">
        <ele>553.38</ele>
        <time>2012-07-10T12:58:37Z</time>
      </trkpt>
      <trkpt lat="42.89733" lon="2.11362">
        <ele>552.41</ele>
        <time>2012-07-10T12:58:43Z</time>
      </trkpt>
      <trkpt lat="42.89723" lon="2.11232">
        <ele>549.53</ele>
        <time>2012-07-10T12:58:57Z</time>
      </trkpt>
      <trkpt lat="42.89722" lon="2.11222">
        <ele>549.53</ele>
        <time>2012-07-10T12:58:58Z</time>
      </trkpt>
      <trkpt lat="42.89718" lon="2.11119">
        <ele>545.69</ele>
        <time>2012-07-10T12:59:07Z</time>
      </trkpt>
      <trkpt lat="42.89718" lon="2.11095">
        <ele>544.72</ele>
        <time>2012-07-10T12:59:09Z</time>
      </trkpt>
      <trkpt lat="42.89719" lon="2.11083">
        <ele>544.24</ele>
        <time>2012-07-10T12:59:10Z</time>
      </trkpt>
      <trkpt lat="42.89729" lon="2.11047">
        <ele>542.8</ele>
        <time>2012-07-10T12:59:13Z</time>
      </trkpt>
      <trkpt lat="42.89759" lon="2.11019">
        <ele>539.44</ele>
        <time>2012-07-10T12:59:17Z</time>
      </trkpt>
      <trkpt lat="42.89767" lon="2.11015">
        <ele>538.96</ele>
        <time>2012-07-10T12:59:18Z</time>
      </trkpt>
      <trkpt lat="42.89812" lon="2.11002">
        <ele>535.59</ele>
        <time>2012-07-10T12:59:23Z</time>
      </trkpt>
      <trkpt lat="42.89875" lon="2.10978">
        <ele>532.23</ele>
        <time>2012-07-10T12:59:30Z</time>
      </trkpt>
      <trkpt lat="42.89884" lon="2.10974">
        <ele>531.75</ele>
        <time>2012-07-10T12:59:31Z</time>
      </trkpt>
      <trkpt lat="42.89938" lon="2.10912">
        <ele>531.27</ele>
        <time>2012-07-10T12:59:39Z</time>
      </trkpt>
      <trkpt lat="42.89964" lon="2.1078">
        <ele>529.34</ele>
        <time>2012-07-10T12:59:51Z</time>
      </trkpt>
      <trkpt lat="42.89975" lon="2.1057">
        <ele>527.42</ele>
        <time>2012-07-10T13:00:11Z</time>
      </trkpt>
      <trkpt lat="42.90013" lon="2.10392">
        <ele>526.46</ele>
        <time>2012-07-10T13:00:30Z</time>
      </trkpt>
      <trkpt lat="42.90021" lon="2.10358">
        <ele>526.46</ele>
        <time>2012-07-10T13:00:34Z</time>
      </trkpt>
      <trkpt lat="42.90029" lon="2.10309">
        <ele>525.02</ele>
        <time>2012-07-10T13:00:42Z</time>
      </trkpt>
      <trkpt lat="42.90033" lon="2.10301">
        <ele>524.54</ele>
        <time>2012-07-10T13:00:43Z</time>
      </trkpt>
      <trkpt lat="42.90098" lon="2.10189">
        <ele>522.13</ele>
        <time>2012-07-10T13:01:00Z</time>
      </trkpt>
      <trkpt lat="42.90102" lon="2.1017">
        <ele>521.17</ele>
        <time>2012-07-10T13:01:08Z</time>
      </trkpt>
      <trkpt lat="42.90102" lon="2.10172">
        <ele>520.69</ele>
        <time>2012-07-10T13:01:27Z</time>
      </trkpt>
      <trkpt lat="42.90095" lon="2.10152">
        <ele>520.69</ele>
        <time>2012-07-10T13:01:33Z</time>
      </trkpt>
      <trkpt lat="42.90084" lon="2.10124">
        <ele>519.73</ele>
        <time>2012-07-10T13:01:38Z</time>
      </trkpt>
      <trkpt lat="42.90078" lon="2.10084">
        <ele>518.77</ele>
        <time>2012-07-10T13:01:45Z</time>
      </trkpt>
      <trkpt lat="42.90121" lon="2.09965">
        <ele>518.29</ele>
        <time>2012-07-10T13:01:59Z</time>
      </trkpt>
      <trkpt lat="42.90147" lon="2.09883">
        <ele>517.81</ele>
        <time>2012-07-10T13:02:09Z</time>
      </trkpt>
      <trkpt lat="42.90193" lon="2.09741">
        <ele>515.88</ele>
        <time>2012-07-10T13:02:30Z</time>
      </trkpt>
      <trkpt lat="42.90247" lon="2.09633">
        <ele>513.96</ele>
        <time>2012-07-10T13:02:47Z</time>
      </trkpt>
      <trkpt lat="42.90257" lon="2.09605">
        <ele>513.48</ele>
        <time>2012-07-10T13:02:51Z</time>
      </trkpt>
      <trkpt lat="42.90261" lon="2.09569">
        <ele>512.04</ele>
        <time>2012-07-10T13:02:56Z</time>
      </trkpt>
      <trkpt lat="42.90268" lon="2.09548">
        <ele>511.08</ele>
        <time>2012-07-10T13:02:59Z</time>
      </trkpt>
      <trkpt lat="42.9028" lon="2.09503">
        <ele>512.04</ele>
        <time>2012-07-10T13:03:06Z</time>
      </trkpt>
      <trkpt lat="42.90321" lon="2.09427">
        <ele>512.04</ele>
        <time>2012-07-10T13:03:20Z</time>
      </trkpt>
      <trkpt lat="42.9035" lon="2.09354">
        <ele>509.64</ele>
        <time>2012-07-10T13:03:33Z</time>
      </trkpt>
      <trkpt lat="42.90378" lon="2.09277">
        <ele>508.19</ele>
        <time>2012-07-10T13:03:45Z</time>
      </trkpt>
      <trkpt lat="42.90394" lon="2.09235">
        <ele>507.71</ele>
        <time>2012-07-10T13:03:51Z</time>
      </trkpt>
      <trkpt lat="42.904" lon="2.09215">
        <ele>507.71</ele>
        <time>2012-07-10T13:03:54Z</time>
      </trkpt>
      <trkpt lat="42.90411" lon="2.0919">
        <ele>507.71</ele>
        <time>2012-07-10T13:03:58Z</time>
      </trkpt>
      <trkpt lat="42.90446" lon="2.09088">
        <ele>508.67</ele>
        <time>2012-07-10T13:04:16Z</time>
      </trkpt>
      <trkpt lat="42.9045" lon="2.09065">
        <ele>508.67</ele>
        <time>2012-07-10T13:04:20Z</time>
      </trkpt>
      <trkpt lat="42.90453" lon="2.09052">
        <ele>508.67</ele>
        <time>2012-07-10T13:04:22Z</time>
      </trkpt>
      <trkpt lat="42.90461" lon="2.09004">
        <ele>508.67</ele>
        <time>2012-07-10T13:04:29Z</time>
      </trkpt>
      <trkpt lat="42.9046" lon="2.08989">
        <ele>508.19</ele>
        <time>2012-07-10T13:04:31Z</time>
      </trkpt>
      <trkpt lat="42.90466" lon="2.08955">
        <ele>508.19</ele>
        <time>2012-07-10T13:04:36Z</time>
      </trkpt>
      <trkpt lat="42.90497" lon="2.0884">
        <ele>506.75</ele>
        <time>2012-07-10T13:04:53Z</time>
      </trkpt>
      <trkpt lat="42.90522" lon="2.08715">
        <ele>505.79</ele>
        <time>2012-07-10T13:05:11Z</time>
      </trkpt>
      <trkpt lat="42.90541" lon="2.08646">
        <ele>505.79</ele>
        <time>2012-07-10T13:05:21Z</time>
      </trkpt>
      <trkpt lat="42.90552" lon="2.08628">
        <ele>505.31</ele>
        <time>2012-07-10T13:05:24Z</time>
      </trkpt>
      <trkpt lat="42.90619" lon="2.08546">
        <ele>503.39</ele>
        <time>2012-07-10T13:05:39Z</time>
      </trkpt>
      <trkpt lat="42.90645" lon="2.08515">
        <ele>503.39</ele>
        <time>2012-07-10T13:05:45Z</time>
      </trkpt>
      <trkpt lat="42.90655" lon="2.08499">
        <ele>503.87</ele>
        <time>2012-07-10T13:05:48Z</time>
      </trkpt>
      <trkpt lat="42.90668" lon="2.08467">
        <ele>503.87</ele>
        <time>2012-07-10T13:05:53Z</time>
      </trkpt>
      <trkpt lat="42.90679" lon="2.0844">
        <ele>503.39</ele>
        <time>2012-07-10T13:05:57Z</time>
      </trkpt>
      <trkpt lat="42.90701" lon="2.08339">
        <ele>504.35</ele>
        <time>2012-07-10T13:06:12Z</time>
      </trkpt>
      <trkpt lat="42.90703" lon="2.08297">
        <ele>503.87</ele>
        <time>2012-07-10T13:06:18Z</time>
      </trkpt>
      <trkpt lat="42.90707" lon="2.08269">
        <ele>503.39</ele>
        <time>2012-07-10T13:06:22Z</time>
      </trkpt>
      <trkpt lat="42.90713" lon="2.08248">
        <ele>503.39</ele>
        <time>2012-07-10T13:06:25Z</time>
      </trkpt>
      <trkpt lat="42.90719" lon="2.08188">
        <ele>502.43</ele>
        <time>2012-07-10T13:06:33Z</time>
      </trkpt>
      <trkpt lat="42.90716" lon="2.08149">
        <ele>501.95</ele>
        <time>2012-07-10T13:06:38Z</time>
      </trkpt>
      <trkpt lat="42.90724" lon="2.08112">
        <ele>501.46</ele>
        <time>2012-07-10T13:06:43Z</time>
      </trkpt>
      <trkpt lat="42.90742" lon="2.08082">
        <ele>501.95</ele>
        <time>2012-07-10T13:06:48Z</time>
      </trkpt>
      <trkpt lat="42.9075" lon="2.08058">
        <ele>502.43</ele>
        <time>2012-07-10T13:06:52Z</time>
      </trkpt>
      <trkpt lat="42.90758" lon="2.07973">
        <ele>505.31</ele>
        <time>2012-07-10T13:07:10Z</time>
      </trkpt>
      <trkpt lat="42.90764" lon="2.07933">
        <ele>508.67</ele>
        <time>2012-07-10T13:07:21Z</time>
      </trkpt>
      <trkpt lat="42.90765" lon="2.07875">
        <ele>511.08</ele>
        <time>2012-07-10T13:07:39Z</time>
      </trkpt>
      <trkpt lat="42.90774" lon="2.07807">
        <ele>512.52</ele>
        <time>2012-07-10T13:07:57Z</time>
      </trkpt>
      <trkpt lat="42.90766" lon="2.0775">
        <ele>513.48</ele>
        <time>2012-07-10T13:08:12Z</time>
      </trkpt>
      <trkpt lat="42.90769" lon="2.07681">
        <ele>514.44</ele>
        <time>2012-07-10T13:08:28Z</time>
      </trkpt>
      <trkpt lat="42.90767" lon="2.07662">
        <ele>513.48</ele>
        <time>2012-07-10T13:08:31Z</time>
      </trkpt>
      <trkpt lat="42.90765" lon="2.0755">
        <ele>512.52</ele>
        <time>2012-07-10T13:08:45Z</time>
      </trkpt>
      <trkpt lat="42.90751" lon="2.07441">
        <ele>510.6</ele>
        <time>2012-07-10T13:09:02Z</time>
      </trkpt>
      <trkpt lat="42.9075" lon="2.07377">
        <ele>507.71</ele>
        <time>2012-07-10T13:09:09Z</time>
      </trkpt>
      <trkpt lat="42.90753" lon="2.07316">
        <ele>504.35</ele>
        <time>2012-07-10T13:09:15Z</time>
      </trkpt>
      <trkpt lat="42.90759" lon="2.07219">
        <ele>500.98</ele>
        <time>2012-07-10T13:09:25Z</time>
      </trkpt>
      <trkpt lat="42.9076" lon="2.07198">
        <ele>500.5</ele>
        <time>2012-07-10T13:09:27Z</time>
      </trkpt>
      <trkpt lat="42.90787" lon="2.07122">
        <ele>499.06</ele>
        <time>2012-07-10T13:09:35Z</time>
      </trkpt>
      <trkpt lat="42.9083" lon="2.07049">
        <ele>499.06</ele>
        <time>2012-07-10T13:09:45Z</time>
      </trkpt>
      <trkpt lat="42.90839" lon="2.07015">
        <ele>499.06</ele>
        <time>2012-07-10T13:09:49Z</time>
      </trkpt>
      <trkpt lat="42.9084" lon="2.06996">
        <ele>498.58</ele>
        <time>2012-07-10T13:09:51Z</time>
      </trkpt>
      <trkpt lat="42.90825" lon="2.0694">
        <ele>496.66</ele>
        <time>2012-07-10T13:09:57Z</time>
      </trkpt>
      <trkpt lat="42.90813" lon="2.06926">
        <ele>496.18</ele>
        <time>2012-07-10T13:09:59Z</time>
      </trkpt>
      <trkpt lat="42.90775" lon="2.06819">
        <ele>496.66</ele>
        <time>2012-07-10T13:10:12Z</time>
      </trkpt>
      <trkpt lat="42.90758" lon="2.06741">
        <ele>496.18</ele>
        <time>2012-07-10T13:10:24Z</time>
      </trkpt>
      <trkpt lat="42.90754" lon="2.06727">
        <ele>495.7</ele>
        <time>2012-07-10T13:10:26Z</time>
      </trkpt>
      <trkpt lat="42.90753" lon="2.06699">
        <ele>495.22</ele>
        <time>2012-07-10T13:10:30Z</time>
      </trkpt>
      <trkpt lat="42.90758" lon="2.0664">
        <ele>494.74</ele>
        <time>2012-07-10T13:10:38Z</time>
      </trkpt>
      <trkpt lat="42.90746" lon="2.06616">
        <ele>494.74</ele>
        <time>2012-07-10T13:10:43Z</time>
      </trkpt>
      <trkpt lat="42.90702" lon="2.06621">
        <ele>497.62</ele>
        <time>2012-07-10T13:10:56Z</time>
      </trkpt>
      <trkpt lat="42.90672" lon="2.06669">
        <ele>496.66</ele>
        <time>2012-07-10T13:11:09Z</time>
      </trkpt>
      <trkpt lat="42.9064" lon="2.06696">
        <ele>497.14</ele>
        <time>2012-07-10T13:11:22Z</time>
      </trkpt>
      <trkpt lat="42.90596" lon="2.06686">
        <ele>497.62</ele>
        <time>2012-07-10T13:11:36Z</time>
      </trkpt>
      <trkpt lat="42.90542" lon="2.06688">
        <ele>499.06</ele>
        <time>2012-07-10T13:11:54Z</time>
      </trkpt>
      <trkpt lat="42.90498" lon="2.06685">
        <ele>500.5</ele>
        <time>2012-07-10T13:12:12Z</time>
      </trkpt>
      <trkpt lat="42.90494" lon="2.06676">
        <ele>500.5</ele>
        <time>2012-07-10T13:12:14Z</time>
      </trkpt>
      <trkpt lat="42.90503" lon="2.06624">
        <ele>498.1</ele>
        <time>2012-07-10T13:12:22Z</time>
      </trkpt>
      <trkpt lat="42.90496" lon="2.06615">
        <ele>498.1</ele>
        <time>2012-07-10T13:12:24Z</time>
      </trkpt>
      <trkpt lat="42.90427" lon="2.06561">
        <ele>499.06</ele>
        <time>2012-07-10T13:12:46Z</time>
      </trkpt>
      <trkpt lat="42.90369" lon="2.06496">
        <ele>500.02</ele>
        <time>2012-07-10T13:13:08Z</time>
      </trkpt>
      <trkpt lat="42.90349" lon="2.06428">
        <ele>501.46</ele>
        <time>2012-07-10T13:13:27Z</time>
      </trkpt>
      <trkpt lat="42.90348" lon="2.06357">
        <ele>500.5</ele>
        <time>2012-07-10T13:13:41Z</time>
      </trkpt>
      <trkpt lat="42.90347" lon="2.06329">
        <ele>500.5</ele>
        <time>2012-07-10T13:13:46Z</time>
      </trkpt>
      <trkpt lat="42.90369" lon="2.06197">
        <ele>499.06</ele>
        <time>2012-07-10T13:14:05Z</time>
      </trkpt>
      <trkpt lat="42.90388" lon="2.06102">
        <ele>498.1</ele>
        <time>2012-07-10T13:14:21Z</time>
      </trkpt>
      <trkpt lat="42.9039" lon="2.06081">
        <ele>497.14</ele>
        <time>2012-07-10T13:14:25Z</time>
      </trkpt>
      <trkpt lat="42.90383" lon="2.06072">
        <ele>496.18</ele>
        <time>2012-07-10T13:14:29Z</time>
      </trkpt>
      <trkpt lat="42.9037" lon="2.0607">
        <ele>495.22</ele>
        <time>2012-07-10T13:14:34Z</time>
      </trkpt>
      <trkpt lat="42.90349" lon="2.06067">
        <ele>492.81</ele>
        <time>2012-07-10T13:14:41Z</time>
      </trkpt>
      <trkpt lat="42.90345" lon="2.06068">
        <ele>492.33</ele>
        <time>2012-07-10T13:14:44Z</time>
      </trkpt>
      <trkpt lat="42.9035" lon="2.06074">
        <ele>491.37</ele>
        <time>2012-07-10T13:14:59Z</time>
      </trkpt>
    </trkseg>
  </trk>
</gpx>